FR694 / EI-GSI 7700 Squawk Report (16th of October, 2019)

Aircraft B738 Reg No. EI-GSI Age 1 years old
Model 737 Jet engines 2 First flight 14-09-18
Registered 28-09-18 Rollout N/A Delivered 28-09-18
Construction No. 44848 Line No. 7176 Series 800
ADSHEX 4CAFB5 Airline name Ryanair Owner N/A
Airfield based Dublin~Co Dublin~EI First tracked 2018-10-16 18:46:00

Flight history for EI-GSI

Time Lat Lon Altitude Heading Speed Vertical Rate
2019-10-16 16:26:53 GMT 38.975510 1.622394 3,875 243 198 -1088
2019-10-16 16:26:21 GMT 38.989105 1.655652 4,375 242 212 -1344
2019-10-16 16:26:11 GMT 38.993774 1.666698 4,650 242 211 -1856
2019-10-16 16:25:25 GMT 39.016113 1.719480 5,425 243 230 -640
2019-10-16 16:24:40 GMT 39.043259 1.763962 6,175 221 242 -1216
2019-10-16 16:24:35 GMT 39.051323 1.772766 6,375 221 242 -1216
2019-10-16 16:24:14 GMT 39.069443 1.792622 6,675 221 248 -960
2019-10-16 16:24:04 GMT 39.078136 1.802246 6,875 221 250 -1216
2019-10-16 16:23:31 GMT 39.102631 1.829522 7,225 222 252 -1216
2019-10-16 16:23:20 GMT 39.112583 1.840576 7,625 221 253 -1024
2019-10-16 16:23:09 GMT 39.122177 1.851196 7,800 221 255 -1088
2019-10-16 16:22:22 GMT 39.165253 1.899202 8,700 221 264 -1280
2019-10-16 16:22:07 GMT 39.179340 1.914734 9,075 221 261 -1600
2019-10-16 16:21:51 GMT 39.193771 1.930967 9,525 222 257 -1664
2019-10-16 16:21:35 GMT 39.208202 1.947083 9,825 221 262 0
2019-10-16 16:21:24 GMT 39.217934 1.957947 9,900 221 268 -1216
2019-10-16 16:21:09 GMT 39.232452 1.974136 10,075 221 277 -320
2019-10-16 16:20:57 GMT 39.243942 1.986913 10,150 221 285 -448
2019-10-16 16:20:44 GMT 39.258133 2.002676 10,275 221 296 -576
2019-10-16 16:20:40 GMT 39.262024 2.006975 10,300 221 297 -576
2019-10-16 16:20:33 GMT 39.269073 2.014857 10,375 221 304 -512
2019-10-16 16:20:23 GMT 39.280128 2.027100 10,450 221 311 -512
2019-10-16 16:20:14 GMT 39.289490 2.037546 10,550 221 319 -576
2019-10-16 16:20:08 GMT 39.297134 2.046084 10,600 222 324 -448
2019-10-16 16:20:03 GMT 39.302052 2.051575 10,625 222 327 -320
2019-10-16 16:19:56 GMT 39.310913 2.061549 10,675 222 337 -640
2019-10-16 16:19:53 GMT 39.314575 2.065609 10,725 222 337 -896
2019-10-16 16:19:43 GMT 39.326065 2.078506 11,025 222 340 -2048
2019-10-16 16:19:32 GMT 39.339340 2.093373 11,400 221 343 -2048
2019-10-16 16:19:17 GMT 39.356937 2.113037 11,875 221 346 -1984
2019-10-16 16:19:09 GMT 39.366623 2.123765 12,150 221 347 -1984
2019-10-16 16:19:03 GMT 39.373978 2.131958 12,325 221 348 -1984
2019-10-16 16:18:40 GMT 39.404663 2.166158 12,925 221 362 -1088
2019-10-16 16:18:36 GMT 39.408417 2.170337 12,975 222 365 -1088
2019-10-16 16:18:20 GMT 39.428070 2.192383 13,375 222 374 -2368
2019-10-16 16:18:14 GMT 39.437332 2.202759 13,725 221 377 -2432
2019-10-16 16:18:06 GMT 39.446686 2.213208 13,950 221 377 -2816
2019-10-16 16:17:57 GMT 39.458176 2.226045 14,350 221 377 -2752
2019-10-16 16:17:48 GMT 39.472549 2.242166 14,775 222 379 -2240
2019-10-16 16:17:43 GMT 39.484352 2.255432 14,775 222 379 -2240
2019-10-16 16:17:34 GMT 39.489147 2.260803 15,275 222 382 -2560
2019-10-16 16:17:23 GMT 39.504368 2.277954 15,950 222 376 -4288
2019-10-16 16:17:05 GMT 39.528351 2.305218 17,150 222 367 -3008
2019-10-16 16:16:56 GMT 39.539200 2.317458 17,575 222 367 -2112
2019-10-16 16:16:53 GMT 39.542816 2.321578 17,625 222 367 -2176
2019-10-16 16:16:47 GMT 39.550690 2.330535 17,900 222 364 -3648
2019-10-16 16:16:44 GMT 39.554600 2.334961 18,075 222 364 -3584
2019-10-16 16:16:36 GMT 39.563770 2.345398 18,625 222 358 -4032
2019-10-16 16:16:33 GMT 39.567261 2.349402 18,750 222 355 -3904
2019-10-16 16:16:24 GMT 39.579922 2.363892 19,400 222 348 -3712
2019-10-16 16:16:15 GMT 39.589790 2.375244 19,825 221 343 -3520
2019-10-16 16:16:12 GMT 39.592865 2.378601 20,025 219 341 -3072
2019-10-16 16:16:07 GMT 39.606308 2.390959 20,350 214 343 -1728
2019-10-16 16:16:02 GMT 39.606308 2.390959 20,400 213 344 -1088
2019-10-16 16:15:55 GMT 39.617523 2.399020 20,550 206 352 -1280
2019-10-16 16:15:44 GMT 39.632996 2.406782 21,050 187 369 -1280
2019-10-16 16:15:40 GMT 39.639725 2.408991 20,975 193 361 -1728
2019-10-16 16:15:33 GMT 39.650482 2.411320 21,125 188 366 -1344
2019-10-16 16:15:29 GMT 39.657337 2.412354 21,225 187 369 -1280
2019-10-16 16:15:24 GMT 39.668606 2.414062 21,375 187 372 -1664
2019-10-16 16:15:20 GMT 39.673691 2.414783 21,475 187 373 -2048
2019-10-16 16:15:13 GMT 39.686016 2.416687 21,725 187 373 -2240
2019-10-16 16:15:10 GMT 39.690483 2.417358 21,800 187 373 -2112
2019-10-16 16:15:03 GMT 39.703217 2.419261 21,975 187 376 -512
2019-10-16 16:14:58 GMT 39.712967 2.420694 22,000 187 377 0
2019-10-16 16:14:50 GMT 39.724140 2.422119 22,000 185 381 0
2019-10-16 16:14:47 GMT 39.729813 2.422545 22,000 183 383 -64
2019-10-16 16:14:42 GMT 39.738758 2.422913 22,000 181 386 -64
2019-10-16 16:14:39 GMT 39.745834 2.422913 22,000 178 388 -64
2019-10-16 16:14:32 GMT 39.757195 2.422302 22,000 175 391 0
2019-10-16 16:14:27 GMT 39.766846 2.421291 22,000 174 392 0
2019-10-16 16:14:20 GMT 39.778469 2.419434 22,000 171 395 -64
2019-10-16 16:14:16 GMT 39.788086 2.417231 22,000 168 396 0
2019-10-16 16:14:08 GMT 39.799759 2.414246 22,000 168 396 0
2019-10-16 16:14:05 GMT 39.806026 2.412659 22,000 168 396 0
2019-10-16 16:14:00 GMT 39.814362 2.410522 22,000 168 396 0
2019-10-16 16:13:55 GMT 39.826263 2.407439 22,000 168 396 64
2019-10-16 16:13:50 GMT 39.833862 2.405468 22,000 168 396 64
2019-10-16 16:13:39 GMT 39.854210 2.400269 22,000 168 396 64
2019-10-16 16:13:32 GMT 39.865494 2.397408 22,000 168 396 64
2019-10-16 16:13:27 GMT 39.874458 2.395142 22,000 168 396 0
2019-10-16 16:13:23 GMT 39.881241 2.393407 22,075 168 397 -1024
2019-10-16 16:13:18 GMT 39.890579 2.391079 22,050 168 397 -576
2019-10-16 16:13:13 GMT 39.899597 2.388794 22,125 168 397 -1024
2019-10-16 16:13:05 GMT 39.913239 2.385315 22,250 168 397 -1024
2019-10-16 16:12:58 GMT 39.936699 2.379352 23,000 168 401 -1024
2019-10-16 16:12:53 GMT 39.936699 2.379352 22,475 168 400 -960
2019-10-16 16:12:47 GMT 39.946198 2.376953 22,550 168 401 -960
2019-10-16 16:12:41 GMT 39.957001 2.374146 22,650 168 401 -960
2019-10-16 16:12:36 GMT 39.966309 2.371798 22,750 168 402 -1024
2019-10-16 16:12:30 GMT 39.977619 2.368927 22,850 168 402 -1024
2019-10-16 16:12:25 GMT 39.988129 2.366211 22,950 168 403 -960
2019-10-16 16:12:16 GMT 40.004791 2.361938 23,100 168 403 -1024
2019-10-16 16:12:04 GMT 40.025345 2.356628 23,275 168 404 -1024
2019-10-16 16:11:59 GMT 40.034832 2.354133 23,375 168 405 -1024
2019-10-16 16:11:52 GMT 40.046658 2.351074 23,475 168 405 -1024
2019-10-16 16:11:45 GMT 40.059784 2.347703 23,600 168 407 -1024
2019-10-16 16:11:42 GMT 40.065170 2.346313 23,650 168 407 -1024
2019-10-16 16:11:38 GMT 40.072495 2.344421 23,700 168 408 -1088
2019-10-16 16:11:34 GMT 40.083664 2.341586 23,825 168 408 -1088
2019-10-16 16:11:21 GMT 40.104939 2.336093 23,975 168 408 -576
2019-10-16 16:11:11 GMT 40.122814 2.331411 24,000 168 408 0
2019-10-16 16:11:06 GMT 40.132004 2.329041 24,000 168 408 0
2019-10-16 16:11:02 GMT 40.141251 2.326599 24,000 168 408 0
2019-10-16 16:10:54 GMT 40.154572 2.323120 24,000 168 408 0
2019-10-16 16:10:51 GMT 40.160522 2.321611 24,000 168 408 -64
2019-10-16 16:10:40 GMT 40.180492 2.316430 24,000 168 408 0
2019-10-16 16:10:33 GMT 40.193249 2.313121 24,000 168 408 -64
2019-10-16 16:10:29 GMT 40.200439 2.311279 24,000 168 408 -64
2019-10-16 16:10:25 GMT 40.210007 2.308814 24,000 168 408 0
2019-10-16 16:10:20 GMT 40.218807 2.306567 24,000 168 408 -64
2019-10-16 16:10:09 GMT 40.238731 2.301448 24,000 168 408 -64
2019-10-16 16:10:02 GMT 40.251892 2.298096 24,000 168 408 0
2019-10-16 16:09:58 GMT 40.259903 2.296021 24,000 168 408 0
2019-10-16 16:09:52 GMT 40.269745 2.293518 24,000 168 408 -64
2019-10-16 16:09:48 GMT 40.278351 2.291321 24,000 168 408 -64
2019-10-16 16:09:37 GMT 40.297993 2.286342 24,000 169 409 0
2019-10-16 16:09:28 GMT 40.315796 2.281799 24,000 169 409 0
2019-10-16 16:09:21 GMT 40.336853 2.276489 24,000 168 409 64
2019-10-16 16:09:16 GMT 40.336853 2.276489 24,000 169 409 64
2019-10-16 16:09:10 GMT 40.347431 2.273795 23,975 168 409 64
2019-10-16 16:09:06 GMT 40.355392 2.271729 24,000 168 410 64
2019-10-16 16:09:00 GMT 40.367027 2.268739 24,000 168 410 0
2019-10-16 16:08:56 GMT 40.374710 2.266785 24,000 168 410 64
2019-10-16 16:08:51 GMT 40.385559 2.263977 24,000 168 411 0
2019-10-16 16:08:45 GMT 40.395054 2.261436 23,975 168 412 0
2019-10-16 16:08:39 GMT 40.405197 2.258728 24,000 168 415 -128
2019-10-16 16:08:34 GMT 40.414856 2.256470 24,025 170 419 -576
2019-10-16 16:08:29 GMT 40.424614 2.254694 24,100 173 422 -1344
2019-10-16 16:08:25 GMT 40.432995 2.253446 24,200 173 425 -1792
2019-10-16 16:08:19 GMT 40.444630 2.251823 24,425 173 426 -2560
2019-10-16 16:08:13 GMT 40.457432 2.250012 24,700 173 427 -2432
2019-10-16 16:08:07 GMT 40.468506 2.248474 24,925 173 428 -2368
2019-10-16 16:08:04 GMT 40.474548 2.247620 25,050 173 428 -2432
2019-10-16 16:07:58 GMT 40.486679 2.245972 25,225 173 429 -2432
2019-10-16 16:07:53 GMT 40.496723 2.244582 25,500 173 429 -2432
2019-10-16 16:07:47 GMT 40.508331 2.242981 25,875 174 430 -2432
2019-10-16 16:07:43 GMT 40.515839 2.241943 25,900 174 430 -2432
2019-10-16 16:07:36 GMT 40.529308 2.240087 26,100 174 431 -2304
2019-10-16 16:07:32 GMT 40.536804 2.239075 26,300 174 432 -2240
2019-10-16 16:07:26 GMT 40.548954 2.237403 26,550 174 433 -2240
2019-10-16 16:07:23 GMT 40.557102 2.236280 26,750 173 434 -2240
2019-10-16 16:07:15 GMT 40.570557 2.234407 26,925 173 435 -2176
2019-10-16 16:07:11 GMT 40.578842 2.233283 27,075 173 436 -2176
2019-10-16 16:07:06 GMT 40.592575 2.231411 27,325 173 437 -2240
2019-10-16 16:07:00 GMT 40.600845 2.230286 27,500 173 438 -2304
2019-10-16 16:06:57 GMT 40.606888 2.229431 27,600 173 439 -2304
2019-10-16 16:06:50 GMT 40.621204 2.227416 27,875 174 440 -2304
2019-10-16 16:06:44 GMT 40.635124 2.225481 28,125 174 442 -2240
2019-10-16 16:06:40 GMT 40.641312 2.224670 28,250 174 442 -2240
2019-10-16 16:06:34 GMT 40.654907 2.222796 28,725 173 446 -2304
2019-10-16 16:06:29 GMT 40.665527 2.221313 28,700 174 444 -2240
2019-10-16 16:06:24 GMT 40.677246 2.219727 28,925 173 446 -2304
2019-10-16 16:06:20 GMT 40.683582 2.218864 29,025 173 446 -2304
2019-10-16 16:06:15 GMT 40.694244 2.217366 29,225 173 447 -2304
2019-10-16 16:06:10 GMT 40.705627 2.215759 29,450 173 448 -2304
2019-10-16 16:06:06 GMT 40.713936 2.214619 29,600 173 449 -2304
2019-10-16 16:06:03 GMT 40.720367 2.213745 29,950 174 450 -2304
2019-10-16 16:05:59 GMT 40.726830 2.212871 29,850 174 450 -2304
2019-10-16 16:05:52 GMT 40.740738 2.210938 30,125 174 451 -2240
2019-10-16 16:05:49 GMT 40.747684 2.210000 30,225 174 452 -2304
2019-10-16 16:05:44 GMT 40.757042 2.208689 30,400 174 453 -2304
2019-10-16 16:05:41 GMT 40.765003 2.207628 30,550 174 453 -2304
2019-10-16 16:05:38 GMT 40.769707 2.206941 30,625 173 454 -2304
2019-10-16 16:05:32 GMT 40.784042 2.204956 30,900 173 455 -2304
2019-10-16 16:05:28 GMT 40.791412 2.203918 31,025 173 456 -2368
2019-10-16 16:05:23 GMT 40.800522 2.202696 31,200 173 457 -2368
2019-10-16 16:05:20 GMT 40.808990 2.201477 31,350 173 458 -2368
2019-10-16 16:05:17 GMT 40.814026 2.200806 31,450 173 458 -2368
2019-10-16 16:05:13 GMT 40.821762 2.199707 31,600 174 459 -2368
2019-10-16 16:05:10 GMT 40.830368 2.198547 31,800 174 459 -2368
2019-10-16 16:05:07 GMT 40.835907 2.197815 31,850 174 460 -2432
2019-10-16 16:05:00 GMT 40.851746 2.195618 32,200 174 462 -2432
2019-10-16 16:04:56 GMT 40.858017 2.194763 32,300 174 462 -2432
2019-10-16 16:04:53 GMT 40.872391 2.192749 32,450 173 463 -2432
2019-10-16 16:04:50 GMT 40.872391 2.192749 32,625 174 464 -2432
2019-10-16 16:04:47 GMT 40.879848 2.191710 32,700 174 464 -2432
2019-10-16 16:04:42 GMT 40.890507 2.190274 32,900 174 465 -2368
2019-10-16 16:04:38 GMT 40.896606 2.189463 33,075 174 466 -2560
2019-10-16 16:04:35 GMT 40.903107 2.188538 33,150 174 466 -2752
2019-10-16 16:04:32 GMT 40.909874 2.187653 33,425 174 465 -3200
2019-10-16 16:04:28 GMT 40.918533 2.186462 33,475 174 465 -3328
2019-10-16 16:04:25 GMT 40.924911 2.185593 33,700 174 464 -3264
2019-10-16 16:04:22 GMT 40.931030 2.184814 34,025 174 463 -3328
2019-10-16 16:04:18 GMT 40.947304 2.182596 34,125 174 462 -3264
2019-10-16 16:04:15 GMT 40.947304 2.182596 34,275 174 462 -3264
2019-10-16 16:04:12 GMT 40.953491 2.181785 34,600 174 461 -3200
2019-10-16 16:04:09 GMT 40.960281 2.180847 34,600 174 461 -3200
2019-10-16 16:04:04 GMT 40.969025 2.179688 34,825 174 460 -3200
2019-10-16 16:03:59 GMT 40.979656 2.178164 35,075 173 459 -3200
2019-10-16 16:03:55 GMT 40.998230 2.175543 35,400 173 458 -3200
2019-10-16 16:03:51 GMT 41.012329 2.173523 35,825 173 457 -3072
2019-10-16 16:03:44 GMT 41.012329 2.173523 35,925 173 456 -3008
2019-10-16 16:03:41 GMT 41.018921 2.172607 36,025 173 456 -2944
2019-10-16 16:03:36 GMT 41.029980 2.171048 36,250 173 456 -2368
2019-10-16 16:03:33 GMT 41.040779 2.169550 36,450 173 457 -1984
2019-10-16 16:03:27 GMT 41.053535 2.167802 36,625 173 457 -1472
2019-10-16 16:03:24 GMT 41.061958 2.166616 36,675 173 458 -1344
2019-10-16 16:03:21 GMT 41.061958 2.166616 36,725 173 458 -1088
2019-10-16 16:03:12 GMT 41.078068 2.164307 36,925 174 457 0
2019-10-16 16:03:09 GMT 41.085068 2.163330 36,925 173 457 -960
2019-10-16 16:03:06 GMT 41.093754 2.162122 36,975 173 457 -448
2019-10-16 16:03:02 GMT 41.100552 2.161186 37,000 173 457 -64
2019-10-16 16:02:59 GMT 41.106510 2.160312 37,000 173 457 0
2019-10-16 16:02:53 GMT 41.119358 2.158564 37,000 174 457 0
2019-10-16 16:02:49 GMT 41.128189 2.157349 37,000 174 457 0
2019-10-16 16:02:44 GMT 41.138260 2.156006 37,000 174 457 0
2019-10-16 16:02:41 GMT 41.147415 2.154785 37,000 174 456 0
2019-10-16 16:02:38 GMT 41.149750 2.154480 37,000 174 457 0
2019-10-16 16:02:32 GMT 41.162884 2.152634 37,000 174 456 0
2019-10-16 16:02:28 GMT 41.171730 2.151448 37,000 174 456 -64
2019-10-16 16:02:23 GMT 41.183304 2.149902 37,000 174 456 0
2019-10-16 16:02:20 GMT 41.188442 2.149200 37,000 174 456 0
2019-10-16 16:02:17 GMT 41.194962 2.148264 37,000 174 456 0
2019-10-16 16:02:10 GMT 41.210358 2.146118 37,000 173 456 0
2019-10-16 16:02:07 GMT 41.216537 2.145264 37,000 173 456 0
2019-10-16 16:02:03 GMT 41.224613 2.144144 37,000 173 456 64
2019-10-16 16:01:59 GMT 41.239792 2.142029 37,000 173 456 0
2019-10-16 16:01:55 GMT 41.239792 2.142029 37,000 173 456 -64
2019-10-16 16:01:51 GMT 41.249542 2.140686 37,000 173 456 -64
2019-10-16 16:01:48 GMT 41.256409 2.139650 37,000 173 456 -64
2019-10-16 16:01:43 GMT 41.267719 2.138027 37,000 173 456 0
2019-10-16 16:01:40 GMT 41.279480 2.136353 37,000 173 456 0
2019-10-16 16:01:37 GMT 41.279480 2.136353 37,000 173 456 0
2019-10-16 16:01:34 GMT 41.285645 2.135468 37,000 173 456 0
2019-10-16 16:01:30 GMT 41.292938 2.134460 37,000 173 456 0
2019-10-16 16:01:27 GMT 41.302460 2.133118 37,000 173 456 0
2019-10-16 16:01:23 GMT 41.308685 2.132222 37,000 173 456 0
2019-10-16 16:01:20 GMT 41.317474 2.131042 37,000 173 456 0
2019-10-16 16:01:17 GMT 41.321594 2.130432 37,000 174 456 0
2019-10-16 16:01:11 GMT 41.340622 2.127852 37,000 174 456 64
2019-10-16 16:01:05 GMT 41.346725 2.127014 37,000 174 456 64
2019-10-16 16:01:01 GMT 41.353226 2.126099 37,000 174 456 64
2019-10-16 16:00:58 GMT 41.360222 2.125168 37,000 174 457 0
2019-10-16 16:00:55 GMT 41.366646 2.124294 37,000 174 457 0
2019-10-16 16:00:49 GMT 41.381195 2.122314 37,000 174 457 0
2019-10-16 16:00:46 GMT 41.393188 2.120611 37,000 174 457 0
2019-10-16 16:00:38 GMT 41.403442 2.119175 37,000 173 457 0
2019-10-16 16:00:35 GMT 41.411942 2.117998 37,000 173 457 64
2019-10-16 16:00:28 GMT 41.423676 2.116366 37,000 173 457 64
2019-10-16 16:00:25 GMT 41.431026 2.115315 37,000 173 457 0
2019-10-16 16:00:22 GMT 41.437218 2.114421 37,000 173 457 -64
2019-10-16 16:00:18 GMT 41.446335 2.113183 37,000 173 457 0
2019-10-16 16:00:15 GMT 41.452068 2.112313 37,000 173 457 0
2019-10-16 16:00:12 GMT 41.457653 2.111547 37,000 173 457 0
2019-10-16 16:00:08 GMT 41.466171 2.110333 37,000 173 457 0
2019-10-16 16:00:05 GMT 41.471714 2.109567 37,000 173 457 0
2019-10-16 16:00:02 GMT 41.487167 2.107377 37,000 173 457 0
2019-10-16 15:59:58 GMT 41.487167 2.107377 37,000 173 457 0
2019-10-16 15:59:55 GMT 41.495129 2.106245 37,000 173 457 0
2019-10-16 15:59:51 GMT 41.500713 2.105479 37,000 173 457 0
2019-10-16 15:59:47 GMT 41.513077 2.103757 37,000 173 457 64
2019-10-16 15:59:44 GMT 41.517612 2.103115 37,000 173 457 64
2019-10-16 15:59:37 GMT 41.533676 2.100823 37,000 173 457 64
2019-10-16 15:59:33 GMT 41.539719 2.100012 37,000 173 458 0
2019-10-16 15:59:24 GMT 41.558167 2.097390 37,000 173 458 -64
2019-10-16 15:59:21 GMT 41.564587 2.096472 37,000 173 458 -64
2019-10-16 15:59:13 GMT 41.583801 2.093707 37,000 173 458 -64
2019-10-16 15:59:10 GMT 41.588104 2.093083 37,000 173 457 0
2019-10-16 15:59:03 GMT 41.602291 2.091043 37,000 173 457 0
2019-10-16 15:59:00 GMT 41.619690 2.088526 37,000 173 457 0
2019-10-16 15:58:56 GMT 41.619690 2.088526 37,000 173 457 0
2019-10-16 15:58:53 GMT 41.623810 2.087964 37,000 173 457 0
2019-10-16 15:58:50 GMT 41.630550 2.087019 37,000 173 457 0
2019-10-16 15:58:43 GMT 41.644867 2.084968 37,000 173 457 0
2019-10-16 15:58:40 GMT 41.652290 2.083953 37,000 173 457 0
2019-10-16 15:58:35 GMT 41.663086 2.082409 37,000 173 457 0
2019-10-16 15:58:31 GMT 41.669174 2.081535 37,000 173 458 0
2019-10-16 15:58:28 GMT 41.675537 2.080661 37,000 173 458 64
2019-10-16 15:58:22 GMT 41.691238 2.078414 37,000 173 458 0
2019-10-16 15:58:19 GMT 41.696934 2.077630 37,000 173 458 0
2019-10-16 15:58:10 GMT 41.714436 2.075139 37,000 173 458 0
2019-10-16 15:58:07 GMT 41.722504 2.073982 37,000 173 458 0
2019-10-16 15:58:00 GMT 41.734680 2.072234 37,000 173 458 0
2019-10-16 15:57:57 GMT 41.741577 2.071242 37,000 173 458 0
2019-10-16 15:57:50 GMT 41.757729 2.068943 37,000 173 458 0
2019-10-16 15:57:46 GMT 41.764294 2.068049 37,000 173 458 0
2019-10-16 15:57:39 GMT 41.780445 2.065749 37,000 173 457 0
2019-10-16 15:57:36 GMT 41.786312 2.064919 37,000 173 457 0
2019-10-16 15:57:28 GMT 41.803490 2.062428 37,000 173 458 64
2019-10-16 15:57:25 GMT 41.808929 2.061684 37,000 173 458 64
2019-10-16 15:57:21 GMT 41.818527 2.060320 37,000 173 458 0
2019-10-16 15:57:17 GMT 41.826233 2.059187 37,000 173 458 0
2019-10-16 15:57:13 GMT 41.833649 2.058126 37,000 173 458 -64
2019-10-16 15:57:07 GMT 41.847809 2.056040 37,000 173 457 -64
2019-10-16 15:57:04 GMT 41.854092 2.055146 37,000 173 457 0
2019-10-16 15:56:56 GMT 41.869949 2.052945 37,000 173 457 0
2019-10-16 15:56:53 GMT 41.877743 2.051825 37,000 173 457 0
2019-10-16 15:56:48 GMT 41.889633 2.050136 37,000 173 457 0
2019-10-16 15:56:43 GMT 41.899109 2.048763 37,000 173 457 64
2019-10-16 15:56:38 GMT 41.908768 2.047390 37,000 173 457 64
2019-10-16 15:56:35 GMT 41.915077 2.046523 37,000 173 457 64
2019-10-16 15:56:32 GMT 41.921448 2.045642 37,000 173 457 64
2019-10-16 15:56:24 GMT 41.937653 2.043332 37,000 173 457 0
2019-10-16 15:56:21 GMT 41.946350 2.042084 37,000 173 457 0
2019-10-16 15:56:16 GMT 41.955017 2.040838 37,000 173 457 0
2019-10-16 15:56:10 GMT 41.971172 2.038539 37,000 173 457 0
2019-10-16 15:56:06 GMT 41.986771 2.036341 37,000 173 457 0
2019-10-16 15:56:01 GMT 41.986771 2.036341 37,000 173 457 0
2019-10-16 15:55:55 GMT 41.999176 2.034531 37,000 173 457 0
2019-10-16 15:55:52 GMT 42.013367 2.032471 37,000 173 457 0
2019-10-16 15:55:49 GMT 42.013367 2.032471 37,000 173 457 0
2019-10-16 15:55:45 GMT 42.020145 2.031513 37,000 173 457 0
2019-10-16 15:55:41 GMT 42.030258 2.030099 37,000 173 456 0
2019-10-16 15:55:35 GMT 42.042801 2.028288 37,000 173 456 0
2019-10-16 15:55:30 GMT 42.052002 2.026915 37,000 173 456 0
2019-10-16 15:55:24 GMT 42.064407 2.025105 37,000 173 456 0
2019-10-16 15:55:18 GMT 42.076904 2.023295 37,000 173 455 -64
2019-10-16 15:55:14 GMT 42.085419 2.022109 37,000 173 455 0
2019-10-16 15:55:11 GMT 42.091835 2.021165 37,000 173 455 0
2019-10-16 15:55:04 GMT 42.118881 2.017365 37,000 173 455 0
2019-10-16 15:54:58 GMT 42.118881 2.017365 37,000 173 455 0
2019-10-16 15:54:52 GMT 42.130554 2.015742 37,000 173 455 0
2019-10-16 15:54:47 GMT 42.140991 2.014243 37,000 173 455 0
2019-10-16 15:54:44 GMT 42.149643 2.012995 37,000 173 455 -64
2019-10-16 15:54:40 GMT 42.155960 2.012059 37,000 173 454 0
2019-10-16 15:54:36 GMT 42.163853 2.010945 37,000 173 454 64
2019-10-16 15:54:31 GMT 42.173904 2.009499 37,000 173 454 0
2019-10-16 15:54:28 GMT 42.186172 2.007751 37,000 173 454 0
2019-10-16 15:54:25 GMT 42.186172 2.007751 37,000 173 454 0
2019-10-16 15:54:22 GMT 42.193878 2.006602 37,000 173 454 -64
2019-10-16 15:54:18 GMT 42.203423 2.005197 37,000 173 454 -64
2019-10-16 15:54:13 GMT 42.213058 2.003791 37,000 173 454 0
2019-10-16 15:54:10 GMT 42.225815 2.001884 37,000 173 454 0
2019-10-16 15:54:06 GMT 42.225815 2.001884 37,000 173 453 -64
2019-10-16 15:54:03 GMT 42.233047 2.000885 37,000 173 453 0
2019-10-16 15:54:00 GMT 42.238476 2.000087 37,000 173 453 0
2019-10-16 15:53:57 GMT 42.245773 1.999012 37,000 173 453 0
2019-10-16 15:53:53 GMT 42.254517 1.997764 37,000 173 453 0
2019-10-16 15:53:49 GMT 42.261703 1.996701 37,000 173 453 0
2019-10-16 15:53:45 GMT 42.269802 1.995552 37,000 173 453 -64
2019-10-16 15:53:40 GMT 42.283398 1.993635 37,000 173 452 -64
2019-10-16 15:53:36 GMT 42.288891 1.992805 37,000 173 452 64
2019-10-16 15:53:30 GMT 42.302444 1.990897 37,000 173 452 64
2019-10-16 15:53:27 GMT 42.309814 1.989836 37,000 173 452 64
2019-10-16 15:53:18 GMT 42.327621 1.987312 37,000 173 452 0
2019-10-16 15:53:14 GMT 42.334946 1.986216 37,000 173 452 0
2019-10-16 15:53:08 GMT 42.347351 1.984468 37,000 173 452 0
2019-10-16 15:53:04 GMT 42.355881 1.983224 37,000 173 452 0
2019-10-16 15:52:59 GMT 42.368271 1.981472 37,000 173 452 -64
2019-10-16 15:52:53 GMT 42.379017 1.979966 37,000 173 451 -64
2019-10-16 15:52:49 GMT 42.388229 1.978600 37,000 173 451 0
2019-10-16 15:52:46 GMT 42.395920 1.977539 37,000 173 451 0
2019-10-16 15:52:43 GMT 42.400059 1.976900 37,000 173 451 0
2019-10-16 15:52:38 GMT 42.411045 1.975303 37,000 173 451 0
2019-10-16 15:52:35 GMT 42.417526 1.974356 37,000 173 451 0
2019-10-16 15:52:32 GMT 42.422821 1.973579 37,000 173 451 0
2019-10-16 15:52:27 GMT 42.433044 1.972108 37,000 173 450 0
2019-10-16 15:52:24 GMT 42.439087 1.971172 37,000 173 450 0
2019-10-16 15:52:21 GMT 42.444214 1.970423 37,000 173 450 0
2019-10-16 15:52:18 GMT 42.452316 1.969174 37,000 173 450 0
2019-10-16 15:52:14 GMT 42.462112 1.967739 37,000 173 450 0
2019-10-16 15:52:11 GMT 42.466095 1.967115 37,000 173 450 0
2019-10-16 15:52:07 GMT 42.475754 1.965679 37,000 173 450 0
2019-10-16 15:52:04 GMT 42.481991 1.964764 37,000 173 450 0
2019-10-16 15:52:00 GMT 42.489300 1.963678 37,000 173 450 0
2019-10-16 15:51:55 GMT 42.499027 1.962209 37,000 173 450 0
2019-10-16 15:51:52 GMT 42.506149 1.961184 37,000 173 450 0
2019-10-16 15:51:49 GMT 42.510990 1.960421 37,000 173 450 0
2019-10-16 15:51:45 GMT 42.527237 1.958057 37,000 173 450 0
2019-10-16 15:51:42 GMT 42.527237 1.958057 37,000 173 450 0
2019-10-16 15:51:39 GMT 42.531197 1.957483 37,000 173 450 0
2019-10-16 15:51:35 GMT 42.540344 1.956128 37,000 173 450 0
2019-10-16 15:51:31 GMT 42.549500 1.954755 37,000 173 450 0
2019-10-16 15:51:25 GMT 42.561779 1.952948 37,000 173 450 0
2019-10-16 15:51:21 GMT 42.569229 1.951821 37,000 173 450 0
2019-10-16 15:51:18 GMT 42.575466 1.950904 37,000 173 450 0
2019-10-16 15:51:14 GMT 42.583614 1.949690 37,000 173 450 0
2019-10-16 15:51:10 GMT 42.592300 1.948388 37,000 173 449 0
2019-10-16 15:51:05 GMT 42.603256 1.946752 37,000 173 449 0
2019-10-16 15:51:02 GMT 42.608688 1.945953 37,000 173 449 0
2019-10-16 15:50:59 GMT 42.615082 1.944963 37,000 173 449 0
2019-10-16 15:50:55 GMT 42.624619 1.943581 37,000 173 449 0
2019-10-16 15:50:49 GMT 42.636246 1.941833 37,000 173 449 0
2019-10-16 15:50:46 GMT 42.641384 1.941067 37,000 173 449 -64
2019-10-16 15:50:42 GMT 42.650620 1.939649 37,000 173 449 0
2019-10-16 15:50:39 GMT 42.657532 1.938588 37,000 173 449 0
2019-10-16 15:50:32 GMT 42.671177 1.936596 37,000 173 449 64
2019-10-16 15:50:27 GMT 42.680115 1.935254 37,000 173 449 0
2019-10-16 15:50:24 GMT 42.686462 1.934343 37,000 173 449 0
2019-10-16 15:50:21 GMT 42.692917 1.933402 37,000 173 448 -64
2019-10-16 15:50:17 GMT 42.702927 1.931933 37,000 173 448 0
2019-10-16 15:50:14 GMT 42.706837 1.931422 37,000 173 448 -64
2019-10-16 15:50:11 GMT 42.714520 1.930272 37,000 173 448 0
2019-10-16 15:50:04 GMT 42.734894 1.927476 37,000 174 448 0
2019-10-16 15:50:01 GMT 42.734894 1.927476 37,000 174 448 0
2019-10-16 15:49:54 GMT 42.749588 1.925479 37,000 174 447 0
2019-10-16 15:49:50 GMT 42.757690 1.924355 37,000 174 447 0
2019-10-16 15:49:43 GMT 42.771450 1.922544 37,000 174 446 0
2019-10-16 15:49:40 GMT 42.777782 1.921777 37,000 174 446 0
2019-10-16 15:49:33 GMT 42.793167 1.919798 37,000 174 446 0
2019-10-16 15:49:30 GMT 42.811718 1.917376 37,000 174 446 0
2019-10-16 15:49:25 GMT 42.811718 1.917376 37,000 174 447 0
2019-10-16 15:49:22 GMT 42.822189 1.916028 37,000 174 446 0
2019-10-16 15:49:12 GMT 42.835464 1.914176 37,000 174 446 64
2019-10-16 15:49:09 GMT 42.841652 1.913387 37,000 174 446 0
2019-10-16 15:49:04 GMT 42.851151 1.912013 37,000 173 446 0
2019-10-16 15:49:01 GMT 42.858948 1.910791 37,000 173 447 64
2019-10-16 15:48:58 GMT 42.863800 1.910024 37,000 173 447 64
2019-10-16 15:48:52 GMT 42.877216 1.907763 37,000 172 447 0
2019-10-16 15:48:48 GMT 42.884945 1.906324 37,000 171 448 0
2019-10-16 15:48:43 GMT 42.900681 1.903185 37,000 171 448 0
2019-10-16 15:48:40 GMT 42.900681 1.903185 37,000 171 448 0
2019-10-16 15:48:37 GMT 42.906315 1.902073 37,000 171 448 0
2019-10-16 15:48:32 GMT 42.920185 1.899327 37,000 171 448 64
2019-10-16 15:48:27 GMT 42.927521 1.897888 37,000 171 448 64
2019-10-16 15:48:20 GMT 42.941414 1.895142 37,000 171 448 -128
2019-10-16 15:48:17 GMT 42.962410 1.890956 37,000 171 450 0
2019-10-16 15:48:10 GMT 42.962410 1.890956 37,000 171 448 0
2019-10-16 15:48:06 GMT 42.970463 1.889387 37,000 171 448 -64
2019-10-16 15:47:58 GMT 42.987488 1.886008 37,000 171 449 64
2019-10-16 15:47:55 GMT 42.992661 1.884986 37,000 171 449 64
2019-10-16 15:47:48 GMT 43.007423 1.881997 37,000 171 449 0
2019-10-16 15:47:45 GMT 43.014313 1.880624 37,000 171 450 0
2019-10-16 15:47:37 GMT 43.031212 1.877223 37,000 171 449 0
2019-10-16 15:47:34 GMT 43.035782 1.876299 37,000 171 450 0
2019-10-16 15:47:27 GMT 43.052345 1.873038 37,000 171 449 0
2019-10-16 15:47:24 GMT 43.056976 1.872083 37,000 171 449 64
2019-10-16 15:47:16 GMT 43.075195 1.868442 37,000 171 449 64
2019-10-16 15:47:13 GMT 43.079021 1.867676 37,000 171 450 0
2019-10-16 15:47:06 GMT 43.094009 1.864674 37,000 171 449 0
2019-10-16 15:47:03 GMT 43.100437 1.863425 37,000 171 449 0
2019-10-16 15:46:56 GMT 43.115753 1.860330 37,000 171 449 0
2019-10-16 15:46:53 GMT 43.121014 1.859305 37,000 171 450 0
2019-10-16 15:46:43 GMT 43.141754 1.855156 37,000 171 450 0
2019-10-16 15:46:33 GMT 43.162262 1.851069 37,000 171 450 0
2019-10-16 15:46:22 GMT 43.183998 1.846684 37,000 171 450 0
2019-10-16 15:46:12 GMT 43.204853 1.842499 37,000 171 450 0
2019-10-16 15:46:02 GMT 43.226639 1.838117 37,000 171 451 0
2019-10-16 15:45:51 GMT 43.248367 1.833759 37,000 171 451 0
2019-10-16 15:45:41 GMT 43.269562 1.829543 37,000 171 451 -64
2019-10-16 15:45:31 GMT 43.290974 1.825300 37,000 171 451 64
2019-10-16 15:45:26 GMT 43.300842 1.823338 37,000 171 451 -64
2019-10-16 15:45:23 GMT 43.312572 1.820918 37,000 171 451 0
2019-10-16 15:45:20 GMT 43.317974 1.819872 37,000 171 451 0
2019-10-16 15:45:13 GMT 43.334686 1.816472 37,000 171 451 64
2019-10-16 15:45:09 GMT 43.340786 1.815229 37,000 171 451 64
2019-10-16 15:45:00 GMT 43.355942 1.812169 37,000 171 451 0
2019-10-16 15:44:56 GMT 43.362152 1.810848 37,000 171 451 0
2019-10-16 15:44:48 GMT 43.378189 1.807634 37,000 171 451 0
2019-10-16 15:44:45 GMT 43.385521 1.806139 37,000 171 451 0
2019-10-16 15:44:41 GMT 43.394348 1.804313 37,000 171 451 0
2019-10-16 15:44:37 GMT 43.402374 1.802739 37,000 171 451 0
2019-10-16 15:44:34 GMT 43.407307 1.801758 37,000 171 451 64
2019-10-16 15:44:28 GMT 43.420761 1.799075 37,000 171 451 -64
2019-10-16 15:44:24 GMT 43.429001 1.797376 37,000 171 451 -64
2019-10-16 15:44:18 GMT 43.441803 1.794826 37,000 171 451 0
2019-10-16 15:44:15 GMT 43.446552 1.793845 37,000 171 451 64
2019-10-16 15:44:12 GMT 43.453068 1.792537 37,000 171 451 64
2019-10-16 15:44:05 GMT 43.467361 1.789594 37,000 171 451 0
2019-10-16 15:44:01 GMT 43.475784 1.787897 37,000 171 451 0
2019-10-16 15:43:55 GMT 43.488052 1.785342 37,000 171 452 0
2019-10-16 15:43:51 GMT 43.496643 1.783578 37,000 171 452 0
2019-10-16 15:43:45 GMT 43.511257 1.780570 37,000 171 452 -64
2019-10-16 15:43:40 GMT 43.518448 1.779083 37,000 171 452 0
2019-10-16 15:43:33 GMT 43.534515 1.775825 37,000 171 452 64
2019-10-16 15:43:29 GMT 43.541336 1.774420 37,000 171 452 0
2019-10-16 15:43:21 GMT 43.559814 1.770630 37,000 171 452 0
2019-10-16 15:43:13 GMT 43.585144 1.765541 37,000 171 452 0
2019-10-16 15:43:08 GMT 43.585144 1.765541 37,000 171 452 0
2019-10-16 15:43:01 GMT 43.599701 1.762539 37,000 171 452 64
2019-10-16 15:42:57 GMT 43.608044 1.760821 37,000 171 452 0
2019-10-16 15:42:54 GMT 43.615723 1.759282 37,000 171 452 64
2019-10-16 15:42:47 GMT 43.629547 1.756439 37,000 171 452 0
2019-10-16 15:42:43 GMT 43.638672 1.754543 37,000 171 452 -64
2019-10-16 15:42:36 GMT 43.654312 1.751361 37,000 171 452 0
2019-10-16 15:42:24 GMT 43.677338 1.746698 37,000 171 452 0
2019-10-16 15:42:12 GMT 43.702450 1.741595 37,000 171 452 -64
2019-10-16 15:42:01 GMT 43.723633 1.737279 37,000 171 454 0
2019-10-16 15:41:52 GMT 43.744438 1.733093 37,000 171 454 0
2019-10-16 15:41:49 GMT 43.749344 1.732135 37,000 171 455 0
2019-10-16 15:41:42 GMT 43.766006 1.728750 37,000 171 455 0
2019-10-16 15:41:31 GMT 43.787064 1.724470 37,000 171 456 0
2019-10-16 15:41:20 GMT 43.809677 1.719935 37,000 171 456 0
2019-10-16 15:41:09 GMT 43.832561 1.715240 37,000 171 457 0
2019-10-16 15:41:00 GMT 43.852257 1.711186 37,000 171 457 0
2019-10-16 15:40:49 GMT 43.875389 1.706478 37,000 171 458 0
2019-10-16 15:40:38 GMT 43.898163 1.701731 37,000 171 458 0
2019-10-16 15:40:28 GMT 43.919476 1.697257 37,000 171 458 -64
2019-10-16 15:40:18 GMT 43.942520 1.692483 37,000 171 458 0
2019-10-16 15:40:09 GMT 43.959366 1.689020 37,000 171 457 0
2019-10-16 15:40:06 GMT 43.963745 1.688102 37,000 171 457 -64
2019-10-16 15:39:58 GMT 43.981483 1.684440 37,000 171 456 0
2019-10-16 15:39:46 GMT 44.016403 1.677204 37,000 171 454 0
2019-10-16 15:39:38 GMT 44.022675 1.675926 37,000 171 455 -64
2019-10-16 15:39:34 GMT 44.031052 1.674201 37,000 171 455 -64
2019-10-16 15:39:24 GMT 44.054993 1.669347 37,000 171 455 0
2019-10-16 15:39:17 GMT 44.067444 1.666856 37,000 171 455 0
2019-10-16 15:39:14 GMT 44.073898 1.665515 37,000 171 455 0
2019-10-16 15:39:02 GMT 44.098480 1.660532 37,000 171 454 -64
2019-10-16 15:38:57 GMT 44.108665 1.658412 37,000 171 454 0
2019-10-16 15:38:50 GMT 44.123142 1.655470 37,000 171 454 64
2019-10-16 15:38:40 GMT 44.144230 1.651088 37,000 171 452 0
2019-10-16 15:38:34 GMT 44.164062 1.647034 37,000 171 452 0
2019-10-16 15:38:23 GMT 44.179871 1.643734 37,000 171 452 0
2019-10-16 15:38:11 GMT 44.205460 1.638402 37,000 171 451 0
2019-10-16 15:37:59 GMT 44.228027 1.633693 37,000 171 449 0
2019-10-16 15:37:48 GMT 44.250694 1.628991 37,000 171 446 0
2019-10-16 15:37:36 GMT 44.275696 1.623833 37,000 171 448 0
2019-10-16 15:37:27 GMT 44.294769 1.619895 37,000 171 447 0
2019-10-16 15:37:19 GMT 44.310699 1.616531 37,000 171 447 64
2019-10-16 15:37:08 GMT 44.332161 1.612110 37,000 171 447 0
2019-10-16 15:36:58 GMT 44.353958 1.607535 37,000 171 447 0
2019-10-16 15:36:48 GMT 44.374710 1.603133 37,000 171 447 0
2019-10-16 15:36:35 GMT 44.400921 1.597506 37,000 171 447 0
2019-10-16 15:36:27 GMT 44.418236 1.593821 37,000 171 446 -64
2019-10-16 15:36:16 GMT 44.440395 1.589132 37,000 171 446 0
2019-10-16 15:36:03 GMT 44.466602 1.583572 37,000 171 446 0
2019-10-16 15:35:55 GMT 44.488018 1.579084 37,000 171 446 -64
2019-10-16 15:35:45 GMT 44.504288 1.575688 37,000 171 445 64
2019-10-16 15:35:33 GMT 44.526283 1.571045 37,000 171 446 0
2019-10-16 15:35:23 GMT 44.547363 1.566663 37,000 171 446 0
2019-10-16 15:35:19 GMT 44.555332 1.565016 37,000 171 446 0
2019-10-16 15:35:12 GMT 44.569473 1.562151 37,000 171 446 0
2019-10-16 15:35:08 GMT 44.577446 1.560528 37,000 171 446 0
2019-10-16 15:35:02 GMT 44.590527 1.557848 37,000 171 446 0
2019-10-16 15:34:58 GMT 44.599091 1.556039 37,000 171 446 0
2019-10-16 15:34:52 GMT 44.611942 1.553427 37,000 171 446 0
2019-10-16 15:34:48 GMT 44.618969 1.551953 37,000 171 446 0
2019-10-16 15:34:41 GMT 44.634098 1.548804 37,000 171 446 0
2019-10-16 15:34:38 GMT 44.640106 1.547598 37,000 171 446 0
2019-10-16 15:34:30 GMT 44.654938 1.544560 37,000 171 446 0
2019-10-16 15:34:26 GMT 44.664413 1.542598 37,000 171 447 0
2019-10-16 15:34:20 GMT 44.676277 1.540096 37,000 171 447 0
2019-10-16 15:34:17 GMT 44.682468 1.538756 37,000 171 447 0
2019-10-16 15:34:07 GMT 44.703644 1.534228 37,000 171 447 0
2019-10-16 15:33:59 GMT 44.719524 1.530851 37,000 171 447 -64
2019-10-16 15:33:55 GMT 44.727390 1.529109 37,000 171 447 0
2019-10-16 15:33:49 GMT 44.741589 1.526028 37,000 171 446 0
2019-10-16 15:33:44 GMT 44.749603 1.524288 37,000 171 446 0
2019-10-16 15:33:37 GMT 44.763420 1.521338 37,000 171 446 0
2019-10-16 15:33:34 GMT 44.769611 1.519999 37,000 171 446 0
2019-10-16 15:33:27 GMT 44.785172 1.516571 37,000 171 446 0
2019-10-16 15:33:23 GMT 44.792843 1.514974 37,000 171 446 0
2019-10-16 15:33:16 GMT 44.807419 1.511863 37,000 171 447 0
2019-10-16 15:33:13 GMT 44.813511 1.510553 37,000 171 446 0
2019-10-16 15:33:06 GMT 44.828594 1.507338 37,000 171 445 64
2019-10-16 15:33:02 GMT 44.834881 1.506065 37,000 171 445 64
2019-10-16 15:32:55 GMT 44.849579 1.502969 37,000 171 446 0
2019-10-16 15:32:51 GMT 44.857643 1.501309 37,000 171 446 0
2019-10-16 15:32:44 GMT 44.871460 1.498391 37,000 171 446 0
2019-10-16 15:32:41 GMT 44.877640 1.497083 37,000 171 446 0
2019-10-16 15:32:34 GMT 44.893394 1.493806 37,000 171 449 0
2019-10-16 15:32:31 GMT 44.897781 1.492898 37,000 171 448 0
2019-10-16 15:32:21 GMT 44.920025 1.488179 37,000 171 449 0
2019-10-16 15:32:13 GMT 44.935638 1.484855 37,000 171 449 0
2019-10-16 15:32:10 GMT 44.942135 1.483489 37,000 171 449 -64
2019-10-16 15:32:03 GMT 44.957870 1.480140 37,000 171 449 0
2019-10-16 15:31:59 GMT 44.966766 1.478250 37,000 171 449 0
2019-10-16 15:31:52 GMT 44.979237 1.475651 37,000 171 449 0
2019-10-16 15:31:48 GMT 44.986816 1.473999 37,000 171 449 0
2019-10-16 15:31:41 GMT 45.000732 1.471056 37,000 171 448 0
2019-10-16 15:31:36 GMT 45.010803 1.468898 37,000 171 449 0
2019-10-16 15:31:31 GMT 45.022339 1.466413 37,000 171 449 0
2019-10-16 15:31:27 GMT 45.029434 1.464844 37,000 171 449 -64
2019-10-16 15:31:21 GMT 45.043579 1.461836 37,000 171 449 0
2019-10-16 15:31:18 GMT 45.048649 1.460713 37,000 171 448 64
2019-10-16 15:31:15 GMT 45.054977 1.459306 37,000 171 448 64
2019-10-16 15:31:10 GMT 45.064911 1.457193 37,000 171 448 0
2019-10-16 15:31:07 GMT 45.071457 1.455755 37,000 171 448 0
2019-10-16 15:31:03 GMT 45.080349 1.453813 37,000 171 448 0
2019-10-16 15:30:59 GMT 45.086655 1.452484 37,000 171 448 0
2019-10-16 15:30:53 GMT 45.099747 1.449607 37,000 171 448 0
2019-10-16 15:30:49 GMT 45.108746 1.447650 37,000 171 448 64
2019-10-16 15:30:45 GMT 45.115585 1.446206 37,000 171 448 0
2019-10-16 15:30:38 GMT 45.130966 1.442806 37,000 171 448 0
2019-10-16 15:30:35 GMT 45.137146 1.441498 37,000 171 447 0
2019-10-16 15:30:27 GMT 45.152134 1.438271 37,000 171 447 0
2019-10-16 15:30:24 GMT 45.164200 1.435678 37,000 171 447 0
2019-10-16 15:30:17 GMT 45.173996 1.433585 37,000 171 447 -64
2019-10-16 15:30:14 GMT 45.179504 1.432376 37,000 171 446 0
2019-10-16 15:30:11 GMT 45.184486 1.431371 37,000 171 446 0
2019-10-16 15:30:06 GMT 45.201477 1.427754 37,000 171 445 0
2019-10-16 15:29:56 GMT 45.223358 1.423064 37,000 171 446 0
2019-10-16 15:29:52 GMT 45.223358 1.423064 37,000 171 446 0
2019-10-16 15:29:49 GMT 45.239140 1.419715 37,000 171 446 0
2019-10-16 15:29:45 GMT 45.239140 1.419715 37,000 171 445 0
2019-10-16 15:29:40 GMT 45.247845 1.417839 37,000 171 444 0
2019-10-16 15:29:36 GMT 45.255615 1.416190 37,000 171 444 0
2019-10-16 15:29:33 GMT 45.265022 1.414155 37,000 171 445 0
2019-10-16 15:29:29 GMT 45.271168 1.412815 37,000 171 445 0
2019-10-16 15:29:24 GMT 45.288204 1.409131 37,000 171 444 0
2019-10-16 15:29:20 GMT 45.296722 1.407322 37,000 171 444 0
2019-10-16 15:29:17 GMT 45.296722 1.407322 37,000 171 444 0
2019-10-16 15:29:13 GMT 45.302311 1.406049 37,000 171 443 0
2019-10-16 15:29:10 GMT 45.308533 1.404681 37,000 171 443 0
2019-10-16 15:29:03 GMT 45.323730 1.401411 37,000 171 439 0
2019-10-16 15:29:00 GMT 45.330521 1.399886 37,000 171 439 0
2019-10-16 15:28:56 GMT 45.336823 1.398533 37,000 171 442 0
2019-10-16 15:28:52 GMT 45.345291 1.396702 37,000 171 442 0
2019-10-16 15:28:49 GMT 45.351749 1.395331 37,000 171 442 0
2019-10-16 15:28:46 GMT 45.357742 1.394021 37,000 171 442 0
2019-10-16 15:28:41 GMT 45.368740 1.391646 37,000 171 442 0
2019-10-16 15:28:36 GMT 45.377426 1.389771 37,000 171 440 0
2019-10-16 15:28:33 GMT 45.386353 1.387809 37,000 171 440 0
2019-10-16 15:28:26 GMT 45.397228 1.385483 37,000 171 439 0
2019-10-16 15:28:20 GMT 45.411118 1.382512 37,000 171 439 0
2019-10-16 15:28:17 GMT 45.416107 1.381465 37,000 171 439 0
2019-10-16 15:28:10 GMT 45.431026 1.378248 37,000 171 438 0
2019-10-16 15:28:06 GMT 45.451309 1.373880 37,000 171 438 -64
2019-10-16 15:28:00 GMT 45.451309 1.373880 37,000 171 438 0
2019-10-16 15:27:57 GMT 45.457169 1.372637 37,000 171 438 64
2019-10-16 15:27:53 GMT 45.463428 1.371281 37,000 171 438 0
2019-10-16 15:27:50 GMT 45.471313 1.369564 37,000 171 438 0
2019-10-16 15:27:44 GMT 45.483032 1.367013 37,000 171 438 0
2019-10-16 15:27:39 GMT 45.495502 1.364247 37,000 171 438 0
2019-10-16 15:27:33 GMT 45.516953 1.359558 37,000 171 438 0
2019-10-16 15:27:27 GMT 45.516953 1.359558 37,000 171 438 0
2019-10-16 15:27:22 GMT 45.527111 1.357347 37,000 171 438 0
2019-10-16 15:27:18 GMT 45.533707 1.355896 37,000 171 438 0
2019-10-16 15:27:12 GMT 45.546478 1.353127 37,000 171 438 0
2019-10-16 15:27:05 GMT 45.561447 1.349845 37,000 171 438 0
2019-10-16 15:27:00 GMT 45.570824 1.347748 37,000 171 438 0
2019-10-16 15:26:54 GMT 45.582321 1.345276 37,000 171 438 0
2019-10-16 15:26:50 GMT 45.590607 1.343422 37,000 171 438 0
2019-10-16 15:26:46 GMT 45.598194 1.341774 37,000 171 438 0
2019-10-16 15:26:42 GMT 45.606388 1.339989 37,000 171 438 0
2019-10-16 15:26:39 GMT 45.612350 1.338657 37,000 171 438 0
2019-10-16 15:26:36 GMT 45.620911 1.336782 37,000 171 437 0
2019-10-16 15:26:29 GMT 45.633110 1.334152 37,000 171 437 0
2019-10-16 15:26:23 GMT 45.644608 1.331612 37,000 171 437 0
2019-10-16 15:26:20 GMT 45.650803 1.330284 37,000 171 437 0
2019-10-16 15:26:14 GMT 45.663025 1.327604 37,000 171 437 0
2019-10-16 15:26:09 GMT 45.671722 1.325661 37,000 171 437 0
2019-10-16 15:26:06 GMT 45.677811 1.324321 37,000 171 437 0
2019-10-16 15:26:02 GMT 45.687389 1.322205 37,000 171 436 0
2019-10-16 15:25:56 GMT 45.698750 1.319733 37,000 171 436 0
2019-10-16 15:25:53 GMT 45.705688 1.318225 37,000 171 436 0
2019-10-16 15:25:49 GMT 45.713150 1.316618 37,000 171 436 0
2019-10-16 15:25:46 GMT 45.719093 1.315269 37,000 171 435 0
2019-10-16 15:25:42 GMT 45.727112 1.313536 37,000 171 435 0
2019-10-16 15:25:37 GMT 45.735199 1.311836 37,000 171 435 0
2019-10-16 15:25:33 GMT 45.746094 1.309502 37,000 171 435 0
2019-10-16 15:25:27 GMT 45.755264 1.307507 37,000 171 435 0
2019-10-16 15:25:24 GMT 45.762680 1.305966 37,000 171 434 0
2019-10-16 15:25:20 GMT 45.770905 1.304214 37,000 171 434 0
2019-10-16 15:25:17 GMT 45.776909 1.302910 37,000 171 434 0
2019-10-16 15:25:12 GMT 45.785156 1.301143 37,000 171 434 0
2019-10-16 15:25:09 GMT 45.791435 1.299820 37,000 171 434 0
2019-10-16 15:25:05 GMT 45.799301 1.298061 37,000 171 435 0
2019-10-16 15:25:02 GMT 45.805588 1.296730 37,000 171 435 0
2019-10-16 15:24:59 GMT 45.810986 1.295563 37,000 171 435 0
2019-10-16 15:24:55 GMT 45.818947 1.293777 37,000 171 435 0
2019-10-16 15:24:52 GMT 45.830978 1.291095 37,000 171 435 0
2019-10-16 15:24:49 GMT 45.830978 1.291095 37,000 171 435 0
2019-10-16 15:24:45 GMT 45.839264 1.289286 37,000 171 435 0
2019-10-16 15:24:40 GMT 45.851673 1.286499 37,000 171 435 0
2019-10-16 15:24:35 GMT 45.860191 1.284576 37,000 171 435 0
2019-10-16 15:24:29 GMT 45.872223 1.281917 37,000 171 434 0
2019-10-16 15:24:22 GMT 45.888355 1.278328 37,000 171 434 0
2019-10-16 15:24:19 GMT 45.891357 1.277697 37,000 171 434 0
2019-10-16 15:24:16 GMT 45.896923 1.276474 37,000 171 434 0
2019-10-16 15:24:12 GMT 45.904232 1.274826 37,000 171 434 0
2019-10-16 15:24:08 GMT 45.912888 1.272903 37,000 171 434 0
2019-10-16 15:24:04 GMT 45.919968 1.271400 37,000 171 434 0
2019-10-16 15:24:01 GMT 45.925873 1.270060 37,000 171 434 0
2019-10-16 15:23:58 GMT 45.934021 1.268251 37,000 171 434 0
2019-10-16 15:23:53 GMT 45.942673 1.266375 37,000 171 434 0
2019-10-16 15:23:50 GMT 45.957047 1.263160 37,000 171 434 0
2019-10-16 15:23:46 GMT 45.957047 1.263160 37,000 171 434 0
2019-10-16 15:23:40 GMT 45.967896 1.260748 37,000 171 434 0
2019-10-16 15:23:37 GMT 45.975311 1.259140 37,000 171 433 0
2019-10-16 15:23:32 GMT 45.985016 1.256930 37,000 171 433 0
2019-10-16 15:23:27 GMT 45.996357 1.254433 37,000 171 433 64
2019-10-16 15:23:24 GMT 46.002129 1.253197 37,000 171 432 0
2019-10-16 15:23:21 GMT 46.005062 1.252510 37,000 171 434 0
2019-10-16 15:23:16 GMT 46.025917 1.247910 37,000 171 432 0
2019-10-16 15:23:11 GMT 46.025917 1.247910 37,000 171 433 0
2019-10-16 15:23:07 GMT 46.033554 1.246262 37,000 171 433 0
2019-10-16 15:23:04 GMT 46.046822 1.243309 37,000 171 433 0
2019-10-16 15:23:00 GMT 46.046822 1.243309 37,000 171 432 0
2019-10-16 15:22:55 GMT 46.058121 1.240852 37,000 171 432 0
2019-10-16 15:22:50 GMT 46.068233 1.238640 37,000 171 432 0
2019-10-16 15:22:46 GMT 46.074520 1.237267 37,000 171 432 0
2019-10-16 15:22:43 GMT 46.080570 1.235962 37,000 171 432 0
2019-10-16 15:22:39 GMT 46.088562 1.234220 37,000 171 432 64
2019-10-16 15:22:36 GMT 46.094696 1.232880 37,000 171 432 64
2019-10-16 15:22:33 GMT 46.101837 1.231340 37,000 171 433 0
2019-10-16 15:22:27 GMT 46.112778 1.228861 37,000 171 433 0
2019-10-16 15:22:22 GMT 46.122894 1.226650 37,000 171 432 0
2019-10-16 15:22:18 GMT 46.130798 1.224838 37,000 171 433 0
2019-10-16 15:22:13 GMT 46.141388 1.222497 37,000 171 433 0
2019-10-16 15:22:08 GMT 46.150452 1.220487 37,000 171 432 0
2019-10-16 15:22:00 GMT 46.166599 1.216805 37,000 171 432 0
2019-10-16 15:21:56 GMT 46.174515 1.215019 37,000 171 432 0
2019-10-16 15:21:52 GMT 46.183590 1.213028 37,000 171 432 0
2019-10-16 15:21:46 GMT 46.195461 1.210350 37,000 171 432 0
2019-10-16 15:21:40 GMT 46.205193 1.208153 37,000 171 432 0
2019-10-16 15:21:35 GMT 46.225388 1.203539 37,000 171 431 0
2019-10-16 15:21:31 GMT 46.225388 1.203539 37,000 171 431 0
2019-10-16 15:21:24 GMT 46.245987 1.198917 37,000 171 431 0
2019-10-16 15:21:19 GMT 46.245987 1.198917 37,000 171 431 0
2019-10-16 15:21:15 GMT 46.256725 1.196480 37,000 171 431 0
2019-10-16 15:21:10 GMT 46.266632 1.194294 37,000 171 431 0
2019-10-16 15:21:04 GMT 46.276974 1.191948 37,000 171 431 0
2019-10-16 15:21:01 GMT 46.288891 1.189339 37,000 171 430 0
2019-10-16 15:20:53 GMT 46.300484 1.186729 37,000 171 431 0
2019-10-16 15:20:48 GMT 46.308151 1.185050 37,000 171 431 0
2019-10-16 15:20:43 GMT 46.318451 1.182772 37,000 171 431 0
2019-10-16 15:20:37 GMT 46.328659 1.180494 37,000 171 431 0
2019-10-16 15:20:32 GMT 46.339588 1.178009 37,000 171 431 0
2019-10-16 15:20:29 GMT 46.345360 1.176773 37,000 171 431 0
2019-10-16 15:20:26 GMT 46.350899 1.175537 37,000 171 431 -64
2019-10-16 15:20:23 GMT 46.364025 1.172585 37,000 171 431 0
2019-10-16 15:20:15 GMT 46.373154 1.170513 37,000 171 431 0
2019-10-16 15:20:12 GMT 46.378971 1.169220 37,000 171 431 0
2019-10-16 15:20:09 GMT 46.386047 1.167572 37,000 170 431 0
2019-10-16 15:20:06 GMT 46.397186 1.165020 37,000 171 431 0
2019-10-16 15:20:03 GMT 46.397186 1.165020 37,000 171 430 0
2019-10-16 15:19:55 GMT 46.413696 1.161255 37,000 171 430 0
2019-10-16 15:19:52 GMT 46.419659 1.159882 37,000 171 430 0
2019-10-16 15:19:48 GMT 46.426483 1.158388 37,000 171 430 -64
2019-10-16 15:19:44 GMT 46.436417 1.156105 37,000 171 430 0
2019-10-16 15:19:39 GMT 46.442841 1.154663 37,000 171 428 -64
2019-10-16 15:19:35 GMT 46.451569 1.152761 37,025 171 425 0
2019-10-16 15:19:31 GMT 46.459122 1.151019 37,025 171 425 0
2019-10-16 15:19:25 GMT 46.471298 1.148272 37,025 171 423 64
2019-10-16 15:19:21 GMT 46.480774 1.146129 37,000 170 420 0
2019-10-16 15:19:17 GMT 46.486588 1.144789 37,000 170 420 0
2019-10-16 15:19:12 GMT 46.496750 1.142441 37,000 170 419 64
2019-10-16 15:19:09 GMT 46.502335 1.141104 37,000 170 419 0
2019-10-16 15:19:06 GMT 46.512527 1.138802 37,000 171 419 0
2019-10-16 15:19:03 GMT 46.512527 1.138802 37,000 171 419 0
2019-10-16 15:19:00 GMT 46.519604 1.137154 37,000 171 419 0
2019-10-16 15:18:56 GMT 46.536713 1.133267 37,000 171 419 0
2019-10-16 15:18:52 GMT 46.536713 1.133267 37,000 171 419 0
2019-10-16 15:18:49 GMT 46.539688 1.132597 37,000 171 419 0
2019-10-16 15:18:46 GMT 46.548096 1.130699 37,000 171 418 0
2019-10-16 15:18:41 GMT 46.555984 1.128912 37,000 171 418 0
2019-10-16 15:18:38 GMT 46.560478 1.127884 37,000 171 418 0
2019-10-16 15:18:35 GMT 46.567413 1.126373 37,000 171 418 0
2019-10-16 15:18:32 GMT 46.573242 1.125094 37,000 171 418 0
2019-10-16 15:18:28 GMT 46.580215 1.123558 37,000 171 417 0
2019-10-16 15:18:25 GMT 46.586609 1.122079 37,000 171 418 64
2019-10-16 15:18:21 GMT 46.593159 1.120674 37,000 171 418 64
2019-10-16 15:18:18 GMT 46.599655 1.119199 37,000 171 418 64
2019-10-16 15:18:15 GMT 46.605560 1.117859 37,000 171 418 64
2019-10-16 15:18:12 GMT 46.612289 1.116385 37,000 171 418 64
2019-10-16 15:18:07 GMT 46.620621 1.114509 37,000 171 418 0
2019-10-16 15:18:02 GMT 46.629330 1.112503 37,000 171 419 -64
2019-10-16 15:17:59 GMT 46.636276 1.110959 37,000 171 419 -64
2019-10-16 15:17:56 GMT 46.641495 1.109753 37,000 171 419 0
2019-10-16 15:17:52 GMT 46.648041 1.108246 37,000 171 419 64
2019-10-16 15:17:49 GMT 46.654514 1.106804 37,000 171 419 0
2019-10-16 15:17:46 GMT 46.660706 1.105362 37,000 171 419 0
2019-10-16 15:17:43 GMT 46.665665 1.104193 37,000 171 420 -64
2019-10-16 15:17:40 GMT 46.671970 1.102753 37,000 171 420 0
2019-10-16 15:17:36 GMT 46.685165 1.099772 37,000 171 420 0
2019-10-16 15:17:33 GMT 46.685165 1.099772 37,000 171 420 0
2019-10-16 15:17:30 GMT 46.691208 1.098365 37,000 171 420 0
2019-10-16 15:17:25 GMT 46.700638 1.096288 37,000 171 419 64
2019-10-16 15:17:20 GMT 46.710663 1.094011 37,000 171 419 64
2019-10-16 15:17:16 GMT 46.719131 1.092135 37,000 171 419 0
2019-10-16 15:17:13 GMT 46.724030 1.090996 37,000 171 419 -64
2019-10-16 15:17:09 GMT 46.732021 1.089226 37,000 171 420 0
2019-10-16 15:17:06 GMT 46.739052 1.087646 37,000 171 420 0
2019-10-16 15:17:02 GMT 46.744591 1.086411 37,000 171 420 0
2019-10-16 15:16:58 GMT 46.752274 1.084694 37,000 171 420 0
2019-10-16 15:16:54 GMT 46.765320 1.081751 37,000 171 420 0
2019-10-16 15:16:47 GMT 46.773560 1.079943 37,000 171 420 0
2019-10-16 15:16:43 GMT 46.781738 1.078102 37,000 171 420 -64
2019-10-16 15:16:40 GMT 46.788399 1.076660 37,000 171 420 0
2019-10-16 15:16:37 GMT 46.792446 1.075699 37,000 171 420 64
2019-10-16 15:16:32 GMT 46.802315 1.073502 37,000 171 421 64
2019-10-16 15:16:28 GMT 46.809856 1.071785 37,000 171 421 0
2019-10-16 15:16:25 GMT 46.821545 1.069107 37,000 171 421 0
2019-10-16 15:16:22 GMT 46.827499 1.067734 37,000 170 421 0
2019-10-16 15:16:19 GMT 46.838196 1.065272 37,000 170 421 0
2019-10-16 15:16:14 GMT 46.842270 1.064334 37,000 170 421 0
2019-10-16 15:16:11 GMT 46.850006 1.062525 37,000 170 421 0
2019-10-16 15:16:08 GMT 46.858932 1.060449 37,000 170 421 0
2019-10-16 15:16:03 GMT 46.863998 1.059357 37,000 170 421 0
2019-10-16 15:15:57 GMT 46.868958 1.058189 37,000 170 421 0
2019-10-16 15:15:54 GMT 46.874496 1.056885 37,000 171 422 64
2019-10-16 15:15:51 GMT 46.883316 1.054899 37,000 171 422 0
2019-10-16 15:15:48 GMT 46.887180 1.053983 37,000 171 422 0
2019-10-16 15:15:42 GMT 46.898895 1.051254 37,000 171 422 0
2019-10-16 15:15:38 GMT 46.906723 1.049469 37,000 171 422 0
2019-10-16 15:15:35 GMT 46.913498 1.047958 37,000 171 423 0
2019-10-16 15:15:32 GMT 46.918167 1.046928 37,000 171 423 0
2019-10-16 15:15:29 GMT 46.923492 1.045673 37,000 171 422 0
2019-10-16 15:15:26 GMT 46.931404 1.043912 37,000 171 422 0
2019-10-16 15:15:22 GMT 46.937805 1.042465 37,000 171 422 0
2019-10-16 15:15:19 GMT 46.944534 1.040955 37,000 171 423 0
2019-10-16 15:15:16 GMT 46.950260 1.039687 37,000 171 423 0
2019-10-16 15:15:11 GMT 46.957672 1.038002 37,000 171 424 0
2019-10-16 15:15:07 GMT 46.973907 1.034335 37,000 171 424 0
2019-10-16 15:15:03 GMT 46.973907 1.034335 37,000 171 424 0
2019-10-16 15:15:00 GMT 46.980099 1.032926 37,000 171 424 0
2019-10-16 15:14:56 GMT 46.987244 1.031273 37,000 171 425 0
2019-10-16 15:14:53 GMT 46.993412 1.029827 37,000 171 425 0
2019-10-16 15:14:49 GMT 47.000473 1.028183 37,000 170 425 0
2019-10-16 15:14:46 GMT 47.014069 1.025024 37,000 170 425 0
2019-10-16 15:14:43 GMT 47.014069 1.025024 37,000 171 425 0
2019-10-16 15:14:39 GMT 47.020386 1.023582 37,000 171 425 -64
2019-10-16 15:14:36 GMT 47.026466 1.022221 37,000 171 425 0
2019-10-16 15:14:32 GMT 47.034378 1.020390 37,000 171 425 0
2019-10-16 15:14:28 GMT 47.042267 1.018639 37,000 171 425 0
2019-10-16 15:14:25 GMT 47.047413 1.017433 37,000 171 426 0
2019-10-16 15:14:20 GMT 47.057693 1.015068 37,000 171 426 0
2019-10-16 15:14:16 GMT 47.065613 1.013283 37,000 171 426 0
2019-10-16 15:14:12 GMT 47.073063 1.011587 37,000 170 426 0
2019-10-16 15:14:09 GMT 47.080467 1.009827 37,000 170 426 0
2019-10-16 15:14:03 GMT 47.089825 1.007643 37,000 170 425 0
2019-10-16 15:13:59 GMT 47.099972 1.005249 37,000 170 425 0
2019-10-16 15:13:53 GMT 47.109695 1.002983 37,000 170 425 0
2019-10-16 15:13:49 GMT 47.118301 1.000923 37,000 170 425 -64
2019-10-16 15:13:46 GMT 47.123295 0.999756 37,000 170 425 0
2019-10-16 15:13:43 GMT 47.129440 0.998347 37,000 170 425 0
2019-10-16 15:13:40 GMT 47.136284 0.996728 37,000 170 425 0
2019-10-16 15:13:37 GMT 47.139908 0.995842 37,000 170 425 0
2019-10-16 15:13:33 GMT 47.150295 0.993418 37,000 170 424 0
2019-10-16 15:13:30 GMT 47.154343 0.992432 37,000 170 424 0
2019-10-16 15:13:27 GMT 47.159977 0.991094 37,000 170 424 -64
2019-10-16 15:13:22 GMT 47.170578 0.988632 37,000 170 424 0
2019-10-16 15:13:17 GMT 47.179482 0.986586 37,000 171 424 64
2019-10-16 15:13:14 GMT 47.192047 0.983620 37,000 171 424 0
2019-10-16 15:13:11 GMT 47.192047 0.983620 37,000 171 424 0
2019-10-16 15:13:07 GMT 47.200241 0.981766 37,000 171 424 64
2019-10-16 15:13:03 GMT 47.207977 0.979980 37,000 171 424 0
2019-10-16 15:12:59 GMT 47.215141 0.978347 37,000 171 423 64
2019-10-16 15:12:55 GMT 47.224731 0.976234 37,000 171 424 64
2019-10-16 15:12:52 GMT 47.229538 0.975174 37,000 171 424 64
2019-10-16 15:12:48 GMT 47.235439 0.973839 36,975 171 424 64
2019-10-16 15:12:45 GMT 47.241577 0.972496 36,975 171 424 64
2019-10-16 15:12:39 GMT 47.254292 0.969614 37,000 171 425 0
2019-10-16 15:12:35 GMT 47.261646 0.967924 37,000 171 425 0
2019-10-16 15:12:31 GMT 47.268677 0.966304 37,000 171 425 0
2019-10-16 15:12:28 GMT 47.273426 0.965248 37,000 170 425 0
2019-10-16 15:12:25 GMT 47.279114 0.963913 37,000 170 425 -64
2019-10-16 15:12:22 GMT 47.285995 0.962290 37,000 170 425 0
2019-10-16 15:12:18 GMT 47.294468 0.960247 37,000 170 425 -64
2019-10-16 15:12:15 GMT 47.299309 0.959121 37,000 170 425 0
2019-10-16 15:12:11 GMT 47.309555 0.956635 37,000 170 424 0
2019-10-16 15:12:06 GMT 47.316330 0.954987 37,000 170 424 0
2019-10-16 15:12:03 GMT 47.322445 0.953557 37,000 170 424 0
2019-10-16 15:11:59 GMT 47.330265 0.951655 37,000 170 424 0
2019-10-16 15:11:56 GMT 47.337479 0.949905 37,000 170 424 64
2019-10-16 15:11:53 GMT 47.342194 0.948738 37,000 170 424 0
2019-10-16 15:11:50 GMT 47.348373 0.947289 37,000 170 423 -64
2019-10-16 15:11:47 GMT 47.354240 0.945881 37,000 170 423 -64
2019-10-16 15:11:44 GMT 47.360756 0.944331 37,000 170 423 -64
2019-10-16 15:11:41 GMT 47.364349 0.943520 37,000 170 423 0
2019-10-16 15:11:34 GMT 47.380962 0.939613 37,000 171 423 0
2019-10-16 15:11:31 GMT 47.384827 0.938697 37,000 171 423 0
2019-10-16 15:11:26 GMT 47.394241 0.936516 37,000 171 422 0
2019-10-16 15:11:23 GMT 47.401119 0.934894 37,000 171 422 0
2019-10-16 15:11:20 GMT 47.404953 0.934044 37,000 171 422 0
2019-10-16 15:11:15 GMT 47.416435 0.931373 37,000 171 422 64
2019-10-16 15:11:12 GMT 47.423813 0.929649 37,000 170 421 0
2019-10-16 15:11:09 GMT 47.428909 0.928415 37,000 171 422 0
2019-10-16 15:11:03 GMT 47.437775 0.926353 37,000 171 422 0
2019-10-16 15:10:58 GMT 47.448853 0.923813 37,000 171 422 0
2019-10-16 15:10:53 GMT 47.457733 0.921684 37,000 170 421 0
2019-10-16 15:10:50 GMT 47.464474 0.920105 37,000 170 421 0
2019-10-16 15:10:47 GMT 47.470001 0.918800 37,000 170 420 -64
2019-10-16 15:10:43 GMT 47.476856 0.917147 37,000 170 421 0
2019-10-16 15:10:40 GMT 47.488029 0.914541 37,000 170 421 0
2019-10-16 15:10:33 GMT 47.496964 0.912483 37,000 171 421 0
2019-10-16 15:10:29 GMT 47.504791 0.910668 37,000 171 421 0
2019-10-16 15:10:26 GMT 47.517426 0.907677 37,000 170 420 -64
2019-10-16 15:10:23 GMT 47.517426 0.907677 37,000 171 421 0
2019-10-16 15:10:18 GMT 47.527679 0.905342 37,000 170 421 0
2019-10-16 15:10:15 GMT 47.530533 0.904682 37,000 170 421 0
2019-10-16 15:10:11 GMT 47.539764 0.902527 37,000 171 421 0
2019-10-16 15:10:07 GMT 47.548462 0.900467 37,000 170 420 -64
2019-10-16 15:10:04 GMT 47.551529 0.899752 37,000 170 420 -64
2019-10-16 15:10:00 GMT 47.559349 0.897921 37,000 170 420 -64
2019-10-16 15:09:57 GMT 47.564701 0.896724 37,000 170 420 0
2019-10-16 15:09:53 GMT 47.572521 0.894893 37,000 170 420 -64
2019-10-16 15:09:50 GMT 47.579178 0.893326 37,000 170 420 0
2019-10-16 15:09:47 GMT 47.586502 0.891609 37,000 170 420 0
2019-10-16 15:09:41 GMT 47.597103 0.889118 37,000 170 420 64
2019-10-16 15:09:37 GMT 47.610626 0.885841 37,000 170 420 0
2019-10-16 15:09:29 GMT 47.619167 0.883836 37,000 170 420 0
2019-10-16 15:09:26 GMT 47.624104 0.882709 37,000 170 420 0
2019-10-16 15:09:21 GMT 47.635601 0.879963 37,000 170 420 0
2019-10-16 15:09:18 GMT 47.640335 0.878838 37,000 170 420 0
2019-10-16 15:09:14 GMT 47.647518 0.877146 37,000 170 420 0
2019-10-16 15:09:08 GMT 47.659744 0.874237 37,000 170 420 0
2019-10-16 15:09:04 GMT 47.666233 0.872709 37,000 170 420 0
2019-10-16 15:09:00 GMT 47.676010 0.870385 37,000 170 420 0
2019-10-16 15:08:56 GMT 47.681808 0.868950 37,000 170 420 0
2019-10-16 15:08:53 GMT 47.690414 0.866890 37,000 171 420 0
2019-10-16 15:08:48 GMT 47.699516 0.864751 37,000 170 420 0
2019-10-16 15:08:45 GMT 47.708549 0.862638 37,000 170 420 0
2019-10-16 15:08:37 GMT 47.720699 0.859751 37,000 171 420 0
2019-10-16 15:08:34 GMT 47.726612 0.858413 37,000 171 419 0
2019-10-16 15:08:29 GMT 47.734478 0.856581 37,000 171 419 0
2019-10-16 15:08:26 GMT 47.747223 0.853706 37,000 171 419 -64
2019-10-16 15:08:22 GMT 47.755798 0.851722 37,000 171 419 0
2019-10-16 15:08:18 GMT 47.755798 0.851722 37,000 171 419 0
2019-10-16 15:08:15 GMT 47.762283 0.850273 37,000 171 419 64
2019-10-16 15:08:11 GMT 47.768044 0.848905 37,000 171 419 0
2019-10-16 15:08:06 GMT 47.777710 0.846703 37,000 171 419 -64
2019-10-16 15:08:02 GMT 47.788788 0.844162 37,000 170 420 0
2019-10-16 15:07:58 GMT 47.795696 0.842567 37,000 170 420 0
2019-10-16 15:07:54 GMT 47.801514 0.841158 37,000 170 421 0
2019-10-16 15:07:50 GMT 47.815434 0.837848 37,000 170 421 -64
2019-10-16 15:07:47 GMT 47.815434 0.837848 37,000 170 421 0
2019-10-16 15:07:44 GMT 47.821114 0.836510 37,000 170 421 0
2019-10-16 15:07:40 GMT 47.829803 0.834480 37,000 170 421 0
2019-10-16 15:07:36 GMT 47.837082 0.832764 37,000 170 421 0
2019-10-16 15:07:32 GMT 47.842712 0.831369 37,000 170 421 0
2019-10-16 15:07:29 GMT 47.849461 0.829749 37,000 170 421 0
2019-10-16 15:07:25 GMT 47.856632 0.828059 37,000 170 421 0
2019-10-16 15:07:21 GMT 47.870365 0.824749 37,000 170 421 0
2019-10-16 15:07:18 GMT 47.870365 0.824749 37,000 171 422 0
2019-10-16 15:07:14 GMT 47.878510 0.822848 37,000 170 421 0
2019-10-16 15:07:11 GMT 47.883499 0.821640 37,000 170 421 0
2019-10-16 15:07:08 GMT 47.891918 0.819679 37,000 171 422 0
2019-10-16 15:07:05 GMT 47.895126 0.818893 37,000 171 422 0
2019-10-16 15:07:02 GMT 47.902348 0.817214 37,000 171 422 0
2019-10-16 15:06:57 GMT 47.912399 0.814819 37,000 171 422 0
2019-10-16 15:06:54 GMT 47.916824 0.813833 37,000 171 422 0
2019-10-16 15:06:51 GMT 47.932388 0.810173 37,000 171 422 -64
2019-10-16 15:06:46 GMT 47.932388 0.810173 37,000 170 422 -64
2019-10-16 15:06:43 GMT 47.938564 0.808692 37,000 170 422 -64
2019-10-16 15:06:37 GMT 47.948433 0.806298 37,000 170 422 -64
2019-10-16 15:06:34 GMT 47.956055 0.804543 37,000 170 422 0
2019-10-16 15:06:28 GMT 47.966812 0.801933 37,000 170 422 0
2019-10-16 15:06:24 GMT 47.973770 0.800285 37,000 170 422 0
2019-10-16 15:06:21 GMT 47.981094 0.798500 37,000 170 422 0
2019-10-16 15:06:18 GMT 47.986496 0.797195 37,000 170 422 0
2019-10-16 15:06:14 GMT 47.996429 0.794889 37,000 170 422 0
2019-10-16 15:06:11 GMT 48.001923 0.793556 37,000 171 422 0
2019-10-16 15:06:07 GMT 48.008812 0.791931 37,000 171 422 0
2019-10-16 15:06:04 GMT 48.013596 0.790810 37,000 170 422 0
2019-10-16 15:06:01 GMT 48.018261 0.789678 37,000 170 422 0
2019-10-16 15:05:57 GMT 48.027054 0.787582 37,000 171 422 0
2019-10-16 15:05:54 GMT 48.032833 0.786227 37,000 171 422 64
2019-10-16 15:05:51 GMT 48.038746 0.784818 37,000 171 421 0
2019-10-16 15:05:45 GMT 48.050198 0.782142 37,000 168 424 0
2019-10-16 15:05:42 GMT 48.055252 0.780853 37,000 168 424 0
2019-10-16 15:05:39 GMT 48.063812 0.778313 37,000 167 425 0
2019-10-16 15:05:36 GMT 48.066769 0.777353 37,000 163 429 0
2019-10-16 15:05:33 GMT 48.073608 0.774879 37,000 166 426 0
2019-10-16 15:05:30 GMT 48.085098 0.770142 37,000 163 428 0
2019-10-16 15:05:24 GMT 48.090511 0.767634 37,000 163 429 0
2019-10-16 15:05:21 GMT 48.095818 0.765240 37,000 163 429 0
2019-10-16 15:05:17 GMT 48.102287 0.762353 37,000 163 428 0
2019-10-16 15:05:13 GMT 48.110390 0.758620 37,000 163 428 0
2019-10-16 15:05:10 GMT 48.119373 0.754535 37,000 163 428 0
2019-10-16 15:05:06 GMT 48.123642 0.752563 37,000 162 428 0
2019-10-16 15:05:03 GMT 48.136131 0.746859 37,000 163 428 0
2019-10-16 15:04:55 GMT 48.145161 0.742774 37,000 163 428 0
2019-10-16 15:04:52 GMT 48.152611 0.739394 37,000 163 428 0
2019-10-16 15:04:49 GMT 48.155449 0.738056 37,000 163 428 0
2019-10-16 15:04:43 GMT 48.169601 0.731675 37,000 163 428 0
2019-10-16 15:04:40 GMT 48.172489 0.730374 37,000 163 428 0
2019-10-16 15:04:36 GMT 48.186592 0.723941 37,000 163 428 0
2019-10-16 15:04:33 GMT 48.186592 0.723941 37,000 163 428 0
2019-10-16 15:04:30 GMT 48.201675 0.717147 37,000 163 428 0
2019-10-16 15:04:25 GMT 48.201675 0.717147 37,000 163 428 0
2019-10-16 15:04:22 GMT 48.209030 0.713822 37,000 163 428 0
2019-10-16 15:04:19 GMT 48.212990 0.712015 37,000 163 428 0
2019-10-16 15:04:16 GMT 48.220917 0.708407 37,000 163 428 0
2019-10-16 15:04:12 GMT 48.225605 0.706305 37,000 163 428 0
2019-10-16 15:04:09 GMT 48.245819 0.697139 37,000 163 427 0
2019-10-16 15:04:04 GMT 48.245819 0.697139 37,000 163 427 0
2019-10-16 15:04:01 GMT 48.247765 0.696259 37,000 163 428 0
2019-10-16 15:03:54 GMT 48.261822 0.689898 37,000 163 427 0
2019-10-16 15:03:50 GMT 48.273552 0.684549 37,000 163 427 0
2019-10-16 15:03:47 GMT 48.273552 0.684549 37,000 163 427 0
2019-10-16 15:03:44 GMT 48.286541 0.678623 37,000 163 426 0
2019-10-16 15:03:40 GMT 48.286541 0.678623 37,000 163 427 0
2019-10-16 15:03:37 GMT 48.293896 0.675226 37,000 163 427 0
2019-10-16 15:03:34 GMT 48.297714 0.673491 37,000 163 427 0
2019-10-16 15:03:29 GMT 48.309540 0.668053 37,000 163 427 0
2019-10-16 15:03:26 GMT 48.313263 0.666335 37,000 163 427 0
2019-10-16 15:03:22 GMT 48.321579 0.662560 37,000 163 427 0
2019-10-16 15:03:19 GMT 48.326477 0.660306 37,000 163 427 0
2019-10-16 15:03:16 GMT 48.333977 0.656867 37,000 162 426 0
2019-10-16 15:03:13 GMT 48.346966 0.650940 37,000 162 426 0
2019-10-16 15:03:08 GMT 48.346966 0.650940 37,000 162 426 0
2019-10-16 15:03:05 GMT 48.353943 0.647700 37,000 162 426 0
2019-10-16 15:02:58 GMT 48.367218 0.641644 37,000 162 427 0
2019-10-16 15:02:55 GMT 48.371639 0.639592 37,000 162 427 0
2019-10-16 15:02:52 GMT 48.377735 0.636773 37,000 162 427 0
2019-10-16 15:02:49 GMT 48.389236 0.631432 37,000 162 427 0
2019-10-16 15:02:42 GMT 48.396545 0.628028 37,000 162 427 0
2019-10-16 15:02:39 GMT 48.403427 0.624812 37,000 162 427 0
2019-10-16 15:02:35 GMT 48.408787 0.622318 37,000 162 427 0
2019-10-16 15:02:31 GMT 48.416794 0.618544 37,000 162 427 0
2019-10-16 15:02:27 GMT 48.424622 0.614953 37,000 162 427 0
2019-10-16 15:02:24 GMT 48.436157 0.609530 37,000 162 426 0
2019-10-16 15:02:21 GMT 48.436157 0.609530 37,000 162 427 0
2019-10-16 15:02:17 GMT 48.442165 0.606778 37,000 162 426 0
2019-10-16 15:02:14 GMT 48.448124 0.604031 37,000 162 426 0
2019-10-16 15:02:08 GMT 48.460007 0.598544 37,000 162 426 0
2019-10-16 15:02:05 GMT 48.467583 0.595069 37,000 163 426 0
2019-10-16 15:02:01 GMT 48.472519 0.592828 37,000 163 426 0
2019-10-16 15:01:58 GMT 48.479034 0.589865 37,000 163 426 0
2019-10-16 15:01:54 GMT 48.488811 0.585383 37,000 163 421 0
2019-10-16 15:01:51 GMT 48.492325 0.583754 37,000 163 426 0
2019-10-16 15:01:47 GMT 48.498871 0.580726 37,000 163 426 0
2019-10-16 15:01:44 GMT 48.505325 0.577768 37,000 163 426 0
2019-10-16 15:01:41 GMT 48.512691 0.574397 37,000 162 425 0
2019-10-16 15:01:38 GMT 48.524780 0.568824 37,000 163 425 0
2019-10-16 15:01:35 GMT 48.524780 0.568824 37,000 163 426 0
2019-10-16 15:01:32 GMT 48.528397 0.567204 37,000 163 426 0
2019-10-16 15:01:28 GMT 48.534943 0.564247 37,000 163 426 0
2019-10-16 15:01:24 GMT 48.543419 0.560303 37,000 162 425 0
2019-10-16 15:01:21 GMT 48.548119 0.558207 37,000 163 425 0
2019-10-16 15:01:16 GMT 48.558426 0.553471 37,000 163 425 0
2019-10-16 15:01:13 GMT 48.564457 0.550690 37,000 163 425 0
2019-10-16 15:01:10 GMT 48.569065 0.548521 37,000 162 425 0
2019-10-16 15:01:07 GMT 48.574512 0.546064 37,000 162 425 0
2019-10-16 15:01:04 GMT 48.580856 0.543119 37,000 162 425 0
2019-10-16 15:01:01 GMT 48.585526 0.540936 37,000 162 425 0
2019-10-16 15:00:58 GMT 48.591064 0.538401 37,000 162 425 0
2019-10-16 15:00:55 GMT 48.597290 0.535513 37,000 162 425 0
2019-10-16 15:00:51 GMT 48.604866 0.531970 37,000 162 424 0
2019-10-16 15:00:48 GMT 48.610172 0.529584 37,000 162 424 0
2019-10-16 15:00:45 GMT 48.616737 0.526476 37,000 162 424 0
2019-10-16 15:00:41 GMT 48.624573 0.522907 37,000 162 423 0
2019-10-16 15:00:38 GMT 48.629818 0.520477 37,000 162 424 0
2019-10-16 15:00:35 GMT 48.635284 0.517907 37,000 162 424 0
2019-10-16 15:00:31 GMT 48.643845 0.513963 37,000 162 423 0
2019-10-16 15:00:28 GMT 48.648331 0.511850 37,000 162 423 0
2019-10-16 15:00:23 GMT 48.657330 0.507684 37,000 162 423 0
2019-10-16 15:00:20 GMT 48.662292 0.505371 37,000 162 423 0
2019-10-16 15:00:17 GMT 48.669201 0.502191 37,000 162 423 0
2019-10-16 15:00:13 GMT 48.676346 0.498822 37,000 162 423 0
2019-10-16 15:00:09 GMT 48.689117 0.492906 37,000 162 423 0
2019-10-16 15:00:06 GMT 48.698250 0.488602 37,000 162 423 0
2019-10-16 15:00:02 GMT 48.698250 0.488602 37,000 162 423 0
2019-10-16 14:59:57 GMT 48.707188 0.484410 37,000 162 422 0
2019-10-16 14:59:53 GMT 48.712540 0.481881 37,000 162 423 0
2019-10-16 14:59:50 GMT 48.718220 0.479206 37,000 162 423 0
2019-10-16 14:59:46 GMT 48.728275 0.474508 37,000 162 423 0
2019-10-16 14:59:41 GMT 48.737354 0.470244 37,000 162 423 0
2019-10-16 14:59:35 GMT 48.747162 0.465581 37,000 162 422 0
2019-10-16 14:59:32 GMT 48.753708 0.462482 37,000 162 421 0
2019-10-16 14:59:29 GMT 48.757370 0.460722 37,000 162 421 0
2019-10-16 14:59:25 GMT 48.770737 0.454454 37,000 162 422 64
2019-10-16 14:59:18 GMT 48.779575 0.450295 37,000 162 421 0
2019-10-16 14:59:15 GMT 48.784195 0.448115 37,000 162 421 0
2019-10-16 14:59:12 GMT 48.790649 0.445017 37,000 162 421 0
2019-10-16 14:59:09 GMT 48.795822 0.442633 37,000 162 421 0
2019-10-16 14:59:06 GMT 48.800758 0.440320 37,000 162 421 0
2019-10-16 14:59:03 GMT 48.808113 0.436923 37,000 162 421 0
2019-10-16 14:59:00 GMT 48.816910 0.432804 37,000 162 421 0
2019-10-16 14:58:57 GMT 48.823566 0.429696 37,000 162 419 0
2019-10-16 14:58:54 GMT 48.823566 0.429696 37,000 163 421 0
2019-10-16 14:58:51 GMT 48.830505 0.426515 37,000 163 421 0
2019-10-16 14:58:48 GMT 48.837116 0.423407 37,000 162 420 0
2019-10-16 14:58:45 GMT 48.841209 0.421528 37,000 162 420 0
2019-10-16 14:58:42 GMT 48.846771 0.418959 37,000 162 420 0
2019-10-16 14:58:39 GMT 48.851032 0.416975 37,000 162 420 0
2019-10-16 14:58:36 GMT 48.857506 0.413939 37,000 162 420 0
2019-10-16 14:58:33 GMT 48.869793 0.408301 37,000 162 420 0
2019-10-16 14:58:29 GMT 48.869793 0.408301 37,000 162 420 0
2019-10-16 14:58:25 GMT 48.877430 0.404759 37,000 162 420 0
2019-10-16 14:58:22 GMT 48.884178 0.401651 37,000 162 420 0
2019-10-16 14:58:19 GMT 48.890324 0.398760 37,000 162 420 0
2019-10-16 14:58:16 GMT 48.894234 0.396881 37,000 162 420 0
2019-10-16 14:58:13 GMT 48.901402 0.393556 37,000 162 419 0
2019-10-16 14:58:10 GMT 48.904953 0.391916 37,000 162 419 0
2019-10-16 14:58:07 GMT 48.909595 0.389726 37,000 162 419 0
2019-10-16 14:58:04 GMT 48.916809 0.386282 37,000 162 420 0
2019-10-16 14:58:01 GMT 48.921329 0.384160 37,000 162 420 0
2019-10-16 14:57:58 GMT 48.927017 0.381493 37,000 162 419 0
2019-10-16 14:57:55 GMT 48.932549 0.378884 37,000 162 419 0
2019-10-16 14:57:52 GMT 48.938690 0.375993 37,000 162 419 0
2019-10-16 14:57:49 GMT 48.944183 0.373394 37,000 162 419 0
2019-10-16 14:57:46 GMT 48.950958 0.370225 37,000 162 419 0
2019-10-16 14:57:43 GMT 48.961487 0.365295 37,000 162 419 0
2019-10-16 14:57:39 GMT 48.961487 0.365295 37,000 162 419 0
2019-10-16 14:57:35 GMT 48.974861 0.358935 37,000 162 415 0
2019-10-16 14:57:32 GMT 48.981445 0.355858 37,000 162 419 0
2019-10-16 14:57:29 GMT 48.981445 0.355858 37,000 162 419 0
2019-10-16 14:57:24 GMT 48.990280 0.351703 37,000 162 419 0
2019-10-16 14:57:21 GMT 48.997581 0.348238 37,000 162 419 0
2019-10-16 14:57:18 GMT 49.008728 0.342971 37,000 162 419 -64
2019-10-16 14:57:14 GMT 49.008728 0.342971 37,000 162 420 0
2019-10-16 14:57:11 GMT 49.014385 0.340287 37,000 162 420 0
2019-10-16 14:57:08 GMT 49.028397 0.333637 37,000 162 420 0
2019-10-16 14:57:04 GMT 49.028397 0.333637 37,000 162 420 0
2019-10-16 14:57:00 GMT 49.040222 0.328040 37,000 162 419 0
2019-10-16 14:56:57 GMT 49.040222 0.328040 37,000 162 419 -64
2019-10-16 14:56:54 GMT 49.047390 0.324603 37,000 162 419 0
2019-10-16 14:56:51 GMT 49.051067 0.322868 37,000 162 419 0
2019-10-16 14:56:48 GMT 49.056793 0.320121 37,000 162 419 0
2019-10-16 14:56:45 GMT 49.061142 0.318040 37,000 162 419 0
2019-10-16 14:56:42 GMT 49.067505 0.315012 37,000 162 419 0
2019-10-16 14:56:39 GMT 49.073227 0.312265 37,000 162 419 0
2019-10-16 14:56:36 GMT 49.086502 0.305927 37,000 162 419 0
2019-10-16 14:56:33 GMT 49.086502 0.305927 37,000 162 419 0
2019-10-16 14:56:27 GMT 49.096298 0.301279 37,000 162 419 -64
2019-10-16 14:56:24 GMT 49.100006 0.299518 37,000 162 419 -64
2019-10-16 14:56:21 GMT 49.108978 0.295258 37,000 162 419 0
2019-10-16 14:56:18 GMT 49.112778 0.293462 37,000 162 419 0
2019-10-16 14:56:13 GMT 49.120247 0.289909 37,000 162 419 0
2019-10-16 14:56:10 GMT 49.128719 0.285861 37,000 162 419 0
2019-10-16 14:56:07 GMT 49.134071 0.283332 37,000 162 419 0
2019-10-16 14:56:00 GMT 49.145199 0.278055 37,000 162 420 0
2019-10-16 14:55:57 GMT 49.151505 0.275010 37,000 162 419 0
2019-10-16 14:55:54 GMT 49.158092 0.271912 37,000 162 419 0
2019-10-16 14:55:50 GMT 49.164516 0.268876 37,000 162 419 0
2019-10-16 14:55:47 GMT 49.178574 0.262226 37,000 162 419 0
2019-10-16 14:55:43 GMT 49.178574 0.262226 37,000 162 419 0
2019-10-16 14:55:40 GMT 49.184189 0.259587 37,000 162 418 0
2019-10-16 14:55:36 GMT 49.197243 0.253481 37,000 162 415 0
2019-10-16 14:55:33 GMT 49.197243 0.253481 37,000 162 417 0
2019-10-16 14:55:30 GMT 49.200989 0.251700 37,000 162 417 0
2019-10-16 14:55:27 GMT 49.206299 0.249235 37,000 162 417 0
2019-10-16 14:55:24 GMT 49.212605 0.246253 37,000 162 416 0
2019-10-16 14:55:21 GMT 49.217056 0.244164 37,000 162 416 0
2019-10-16 14:55:18 GMT 49.223145 0.241347 37,000 162 416 0
2019-10-16 14:55:15 GMT 49.235928 0.235266 37,000 162 416 0
2019-10-16 14:55:12 GMT 49.235928 0.235266 37,000 162 416 0
2019-10-16 14:55:09 GMT 49.239944 0.233389 37,000 162 415 0
2019-10-16 14:55:06 GMT 49.245621 0.230713 37,000 162 415 0
2019-10-16 14:55:03 GMT 49.249519 0.228834 37,000 162 413 0
2019-10-16 14:55:00 GMT 49.255280 0.226135 37,000 162 414 0
2019-10-16 14:54:57 GMT 49.260590 0.223600 37,000 162 415 0
2019-10-16 14:54:53 GMT 49.267864 0.220233 37,000 162 414 0
2019-10-16 14:54:50 GMT 49.275009 0.216769 37,000 162 414 0
2019-10-16 14:54:46 GMT 49.282150 0.213459 37,000 162 414 0
2019-10-16 14:54:42 GMT 49.289062 0.210219 37,000 162 414 0
2019-10-16 14:54:38 GMT 49.305897 0.202163 37,000 162 413 64
2019-10-16 14:54:34 GMT 49.305897 0.202163 37,000 162 413 0
2019-10-16 14:54:31 GMT 49.308563 0.200923 37,000 162 412 0
2019-10-16 14:54:28 GMT 49.316742 0.196959 37,000 162 413 0
2019-10-16 14:54:25 GMT 49.320099 0.195359 37,000 162 417 0
2019-10-16 14:54:20 GMT 49.330105 0.190526 37,000 162 413 0
2019-10-16 14:54:17 GMT 49.335594 0.187852 37,000 162 413 0
2019-10-16 14:54:14 GMT 49.339508 0.185993 37,000 162 413 0
2019-10-16 14:54:11 GMT 49.345139 0.183226 37,000 162 413 -64
2019-10-16 14:54:08 GMT 49.352028 0.179901 37,000 162 413 -64
2019-10-16 14:54:05 GMT 49.356812 0.177542 37,000 162 413 0
2019-10-16 14:54:02 GMT 49.368805 0.171767 37,000 162 413 0
2019-10-16 14:53:58 GMT 49.376038 0.168246 37,000 162 413 0
2019-10-16 14:53:54 GMT 49.376038 0.168246 37,000 162 413 0
2019-10-16 14:53:51 GMT 49.382217 0.165288 37,000 162 413 0
2019-10-16 14:53:44 GMT 49.394440 0.159372 37,000 162 412 0
2019-10-16 14:53:41 GMT 49.402267 0.155640 37,000 162 412 0
2019-10-16 14:53:38 GMT 49.405106 0.154231 37,000 162 412 0
2019-10-16 14:53:34 GMT 49.413437 0.150287 37,000 162 413 64
2019-10-16 14:53:28 GMT 49.424698 0.144865 37,000 162 414 0
2019-10-16 14:53:25 GMT 49.429047 0.142750 37,000 162 414 0
2019-10-16 14:53:22 GMT 49.434540 0.140076 37,000 162 414 0
2019-10-16 14:53:19 GMT 49.440617 0.137181 37,000 162 414 0
2019-10-16 14:53:16 GMT 49.446251 0.134434 37,000 162 414 0
2019-10-16 14:53:12 GMT 49.452816 0.131316 37,000 162 414 0
2019-10-16 14:53:09 GMT 49.464172 0.125823 37,000 162 414 0
2019-10-16 14:53:06 GMT 49.464172 0.125823 37,000 162 414 0
2019-10-16 14:53:02 GMT 49.472534 0.121789 37,000 162 414 0
2019-10-16 14:52:59 GMT 49.476562 0.119910 37,000 162 414 0
2019-10-16 14:52:55 GMT 49.489079 0.113872 37,000 162 414 0
2019-10-16 14:52:52 GMT 49.489079 0.113872 37,000 162 415 0
2019-10-16 14:52:49 GMT 49.495331 0.110875 37,000 162 414 0
2019-10-16 14:52:45 GMT 49.504627 0.106374 37,000 162 415 0
2019-10-16 14:52:41 GMT 49.510262 0.103702 37,000 162 415 0
2019-10-16 14:52:38 GMT 49.515987 0.100955 37,000 162 416 0
2019-10-16 14:52:35 GMT 49.519821 0.099094 37,000 162 415 0
2019-10-16 14:52:32 GMT 49.533909 0.092345 37,000 162 416 0
2019-10-16 14:52:28 GMT 49.533909 0.092345 37,000 162 416 0
2019-10-16 14:52:25 GMT 49.540520 0.089153 37,000 162 416 0
2019-10-16 14:52:22 GMT 49.544586 0.087168 37,000 162 416 0
2019-10-16 14:52:19 GMT 49.551178 0.083988 37,000 162 418 0
2019-10-16 14:52:16 GMT 49.560024 0.079725 37,000 162 417 0
2019-10-16 14:52:10 GMT 49.566589 0.076533 37,000 162 417 0
2019-10-16 14:52:06 GMT 49.573425 0.073218 37,000 162 417 0
2019-10-16 14:52:03 GMT 49.586975 0.066641 37,000 162 417 0
2019-10-16 14:51:56 GMT 49.592098 0.064211 37,000 162 417 0
2019-10-16 14:51:53 GMT 49.598282 0.061220 37,000 162 418 0
2019-10-16 14:51:50 GMT 49.603085 0.058866 37,000 162 418 0
2019-10-16 14:51:47 GMT 49.608627 0.056160 37,000 162 418 0
2019-10-16 14:51:44 GMT 49.613281 0.053892 37,000 162 418 0
2019-10-16 14:51:41 GMT 49.620300 0.050523 37,000 162 418 0
2019-10-16 14:51:37 GMT 49.627804 0.046840 37,000 162 418 0
2019-10-16 14:51:31 GMT 49.644424 0.038749 37,000 162 418 -64
2019-10-16 14:51:28 GMT 49.644424 0.038749 37,000 162 418 0
2019-10-16 14:51:25 GMT 49.649124 0.036448 37,000 162 418 0
2019-10-16 14:51:19 GMT 49.660950 0.030732 37,000 162 419 0
2019-10-16 14:51:16 GMT 49.666630 0.027985 37,000 162 419 0
2019-10-16 14:51:13 GMT 49.672356 0.025165 37,000 162 420 0
2019-10-16 14:51:10 GMT 49.678665 0.022117 37,000 162 421 -64
2019-10-16 14:51:07 GMT 49.682144 0.020383 37,000 162 419 0
2019-10-16 14:51:04 GMT 49.691208 0.015960 37,000 162 419 0
2019-10-16 14:51:01 GMT 49.696144 0.013584 37,000 162 419 0
2019-10-16 14:50:58 GMT 49.699680 0.011877 37,000 162 420 64
2019-10-16 14:50:53 GMT 49.708557 0.007517 37,000 162 420 64
2019-10-16 14:50:50 GMT 49.716385 0.003758 37,000 162 420 64
2019-10-16 14:50:47 GMT 49.721050 0.001485 37,000 162 421 0
2019-10-16 14:50:43 GMT 49.732635 -0.004120 37,000 162 421 0
2019-10-16 14:50:37 GMT 49.746048 -0.010689 37,000 162 421 0
2019-10-16 14:50:34 GMT 49.750946 -0.013082 37,000 162 421 0
2019-10-16 14:50:31 GMT 49.755543 -0.015292 37,000 162 421 0
2019-10-16 14:50:24 GMT 49.767242 -0.021033 37,000 162 422 -64
2019-10-16 14:50:21 GMT 49.772255 -0.023457 37,000 162 421 0
2019-10-16 14:50:15 GMT 49.779331 -0.026946 37,000 162 421 64
2019-10-16 14:50:12 GMT 49.785049 -0.029706 37,000 162 421 0
2019-10-16 14:50:09 GMT 49.789581 -0.031947 37,000 162 421 0
2019-10-16 14:50:06 GMT 49.794891 -0.034549 37,000 162 421 0
2019-10-16 14:50:03 GMT 49.801208 -0.037585 37,000 162 421 0
2019-10-16 14:49:59 GMT 49.808987 -0.041421 37,000 162 422 0
2019-10-16 14:49:56 GMT 49.816433 -0.045059 37,000 162 422 0
2019-10-16 14:49:53 GMT 49.820110 -0.046840 37,000 162 422 0
2019-10-16 14:49:50 GMT 49.827374 -0.050403 37,000 162 422 64
2019-10-16 14:49:47 GMT 49.831238 -0.052259 37,000 162 422 64
2019-10-16 14:49:44 GMT 49.841492 -0.057245 37,000 162 422 -64
2019-10-16 14:49:38 GMT 49.848679 -0.060786 37,000 162 422 -64
2019-10-16 14:49:35 GMT 49.853485 -0.063171 37,000 162 422 0
2019-10-16 14:49:32 GMT 49.859161 -0.065918 37,000 162 422 0
2019-10-16 14:49:29 GMT 49.866245 -0.069407 37,000 162 422 0
2019-10-16 14:49:25 GMT 49.879440 -0.075892 37,000 162 422 0
2019-10-16 14:49:22 GMT 49.879440 -0.075892 37,000 162 422 0
2019-10-16 14:49:19 GMT 49.883331 -0.077844 37,000 162 422 0
2019-10-16 14:49:16 GMT 49.889568 -0.080913 37,000 162 422 0
2019-10-16 14:49:13 GMT 49.894730 -0.083409 37,000 162 423 0
2019-10-16 14:49:10 GMT 49.902054 -0.087023 37,000 162 422 0
2019-10-16 14:49:07 GMT 49.905579 -0.088758 37,000 162 422 0
2019-10-16 14:49:04 GMT 49.909653 -0.090782 37,000 162 422 -64
2019-10-16 14:49:01 GMT 49.918030 -0.094902 37,000 162 423 0
2019-10-16 14:48:55 GMT 49.928284 -0.099889 37,000 162 423 0
2019-10-16 14:48:52 GMT 49.935471 -0.103430 37,000 162 422 0
2019-10-16 14:48:49 GMT 49.939144 -0.105187 37,000 162 423 0
2019-10-16 14:48:46 GMT 49.944855 -0.107984 37,000 162 423 0
2019-10-16 14:48:43 GMT 49.950459 -0.110754 37,000 162 423 0
2019-10-16 14:48:40 GMT 49.956230 -0.113575 37,000 162 423 0
2019-10-16 14:48:37 GMT 49.960876 -0.115862 37,000 162 423 0
2019-10-16 14:48:34 GMT 49.968426 -0.119513 37,000 162 423 0
2019-10-16 14:48:31 GMT 49.973465 -0.122006 37,000 162 423 0
2019-10-16 14:48:28 GMT 49.984131 -0.127210 37,000 162 423 0
2019-10-16 14:48:22 GMT 49.991146 -0.130648 37,000 162 423 0
2019-10-16 14:48:18 GMT 49.995846 -0.132949 37,000 162 422 64
2019-10-16 14:48:14 GMT 50.004181 -0.136968 37,000 162 423 0
2019-10-16 14:48:11 GMT 50.012093 -0.140892 37,000 162 422 0
2019-10-16 14:48:05 GMT 50.022125 -0.145786 37,000 162 422 0
2019-10-16 14:48:02 GMT 50.026478 -0.147944 37,000 162 422 0
2019-10-16 14:47:59 GMT 50.033043 -0.151136 37,000 162 422 0
2019-10-16 14:47:55 GMT 50.045750 -0.157446 37,000 162 422 0
2019-10-16 14:47:52 GMT 50.051697 -0.160314 37,000 162 422 0
2019-10-16 14:47:49 GMT 50.051697 -0.160314 37,000 162 422 0
2019-10-16 14:47:46 GMT 50.057602 -0.163205 37,000 162 422 0
2019-10-16 14:47:41 GMT 50.064148 -0.166457 37,000 162 421 -64
2019-10-16 14:47:38 GMT 50.071152 -0.169854 37,000 162 421 0
2019-10-16 14:47:35 GMT 50.076920 -0.172746 37,000 162 421 0
2019-10-16 14:47:31 GMT 50.086483 -0.177414 37,000 162 421 0
2019-10-16 14:47:28 GMT 50.089230 -0.178825 37,000 162 421 0
2019-10-16 14:47:25 GMT 50.095795 -0.182017 37,000 162 420 0
2019-10-16 14:47:22 GMT 50.101181 -0.184672 37,000 162 420 0
2019-10-16 14:47:19 GMT 50.105198 -0.186693 37,000 150 416 0
2019-10-16 14:47:16 GMT 50.118805 -0.193417 37,000 162 420 0
2019-10-16 14:47:13 GMT 50.118805 -0.193417 37,000 162 419 0
2019-10-16 14:47:10 GMT 50.124344 -0.196164 37,000 162 420 0
2019-10-16 14:47:07 GMT 50.128056 -0.197977 37,000 162 419 0
2019-10-16 14:47:04 GMT 50.134003 -0.200934 37,000 162 419 0
2019-10-16 14:47:01 GMT 50.142105 -0.204982 37,000 162 419 0
2019-10-16 14:46:58 GMT 50.146454 -0.207150 37,000 162 419 -64
2019-10-16 14:46:54 GMT 50.153870 -0.210836 37,000 162 419 0
2019-10-16 14:46:51 GMT 50.156982 -0.212354 37,000 162 418 0
2019-10-16 14:46:48 GMT 50.163807 -0.215792 37,000 162 418 0
2019-10-16 14:46:45 GMT 50.175350 -0.221508 37,000 162 417 0
2019-10-16 14:46:42 GMT 50.182426 -0.225071 37,000 162 417 0
2019-10-16 14:46:39 GMT 50.182426 -0.225071 37,000 162 417 0
2019-10-16 14:46:36 GMT 50.187424 -0.227533 37,000 162 417 0
2019-10-16 14:46:33 GMT 50.189968 -0.228783 37,000 162 417 0
2019-10-16 14:46:30 GMT 50.196899 -0.232231 37,000 162 413 0
2019-10-16 14:46:26 GMT 50.203655 -0.235612 37,000 162 416 0
2019-10-16 14:46:23 GMT 50.210953 -0.239242 37,000 162 416 0
2019-10-16 14:46:19 GMT 50.216354 -0.241988 37,000 162 416 0
2019-10-16 14:46:16 GMT 50.221802 -0.244663 37,000 162 416 0
2019-10-16 14:46:13 GMT 50.228561 -0.248009 37,000 162 416 0
2019-10-16 14:46:09 GMT 50.235638 -0.251572 37,000 162 411 0
2019-10-16 14:46:06 GMT 50.247974 -0.257733 37,000 162 414 -64
2019-10-16 14:46:03 GMT 50.247974 -0.257733 37,000 162 415 0
2019-10-16 14:46:00 GMT 50.253754 -0.260636 37,000 162 415 0
2019-10-16 14:45:57 GMT 50.257141 -0.262299 37,000 162 415 0
2019-10-16 14:45:54 GMT 50.271389 -0.269462 37,000 162 414 0
2019-10-16 14:45:51 GMT 50.271389 -0.269462 37,000 162 414 -64
2019-10-16 14:45:48 GMT 50.275040 -0.271261 37,000 162 414 -64
2019-10-16 14:45:44 GMT 50.280888 -0.274139 37,000 162 414 0
2019-10-16 14:45:41 GMT 50.286007 -0.276737 37,000 162 414 0
2019-10-16 14:45:38 GMT 50.291977 -0.279645 37,000 162 411 0
2019-10-16 14:45:35 GMT 50.303650 -0.285428 37,000 162 413 0
2019-10-16 14:45:32 GMT 50.303650 -0.285428 37,000 162 413 0
2019-10-16 14:45:29 GMT 50.309647 -0.288391 37,000 162 413 0
2019-10-16 14:45:26 GMT 50.313766 -0.290487 37,000 162 413 0
2019-10-16 14:45:23 GMT 50.319199 -0.293142 37,000 162 413 0
2019-10-16 14:45:20 GMT 50.326508 -0.296779 37,000 162 413 0
2019-10-16 14:45:17 GMT 50.331161 -0.299081 37,000 162 413 64
2019-10-16 14:45:14 GMT 50.336468 -0.301679 37,000 162 412 0
2019-10-16 14:45:11 GMT 50.346359 -0.306533 37,000 162 412 0
2019-10-16 14:45:05 GMT 50.352356 -0.309496 37,000 162 412 0
2019-10-16 14:45:02 GMT 50.357574 -0.312098 37,000 162 411 0
2019-10-16 14:44:59 GMT 50.363235 -0.314966 37,000 162 411 0
2019-10-16 14:44:56 GMT 50.369614 -0.318084 37,000 162 411 0
2019-10-16 14:44:53 GMT 50.373413 -0.319977 37,000 162 411 0
2019-10-16 14:44:50 GMT 50.379868 -0.323229 37,000 162 411 0
2019-10-16 14:44:47 GMT 50.385674 -0.326101 37,000 162 411 0
2019-10-16 14:44:43 GMT 50.399406 -0.333005 37,000 162 410 0
2019-10-16 14:44:40 GMT 50.399406 -0.333005 37,000 162 410 0
2019-10-16 14:44:37 GMT 50.402714 -0.334638 37,000 162 409 0
2019-10-16 14:44:34 GMT 50.410160 -0.338423 37,000 162 410 0
2019-10-16 14:44:31 GMT 50.414337 -0.340504 37,000 162 410 0
2019-10-16 14:44:28 GMT 50.426174 -0.346440 37,000 162 409 0
2019-10-16 14:44:22 GMT 50.430038 -0.348455 37,000 162 409 0
2019-10-16 14:44:19 GMT 50.435349 -0.351129 37,000 162 409 0
2019-10-16 14:44:16 GMT 50.441071 -0.353948 37,000 162 409 0
2019-10-16 14:44:13 GMT 50.446976 -0.356983 37,000 162 409 0
2019-10-16 14:44:10 GMT 50.451187 -0.359079 37,000 152 416 0
2019-10-16 14:44:06 GMT 50.457321 -0.362115 37,000 162 409 0
2019-10-16 14:44:03 GMT 50.464676 -0.365889 37,000 162 409 64
2019-10-16 14:44:00 GMT 50.470322 -0.368692 37,000 162 409 64
2019-10-16 14:43:56 GMT 50.475845 -0.371457 37,000 162 409 0
2019-10-16 14:43:53 GMT 50.483231 -0.375198 37,000 150 418 0
2019-10-16 14:43:50 GMT 50.487808 -0.377438 37,000 162 409 0
2019-10-16 14:43:47 GMT 50.492615 -0.379896 37,000 162 409 -64
2019-10-16 14:43:44 GMT 50.497833 -0.382498 37,000 162 409 -64
2019-10-16 14:43:41 GMT 50.505157 -0.386184 37,000 162 409 0
2019-10-16 14:43:38 GMT 50.509232 -0.388208 37,000 162 409 0
2019-10-16 14:43:35 GMT 50.514542 -0.390882 37,000 162 409 0
2019-10-16 14:43:32 GMT 50.520126 -0.393701 37,000 162 409 0
2019-10-16 14:43:29 GMT 50.526215 -0.396770 37,000 162 409 0
2019-10-16 14:43:26 GMT 50.531990 -0.399665 37,000 162 409 0
2019-10-16 14:43:23 GMT 50.537704 -0.402519 37,000 162 409 0
2019-10-16 14:43:20 GMT 50.541412 -0.404398 37,000 162 409 0
2019-10-16 14:43:17 GMT 50.547585 -0.407459 37,000 162 409 0
2019-10-16 14:43:14 GMT 50.552380 -0.409909 37,000 162 409 64
2019-10-16 14:43:11 GMT 50.557892 -0.412638 37,000 162 409 64
2019-10-16 14:43:08 GMT 50.564156 -0.415699 37,000 161 409 0
2019-10-16 14:43:05 GMT 50.567780 -0.417553 37,000 161 410 0
2019-10-16 14:43:02 GMT 50.573235 -0.420524 37,000 156 413 0
2019-10-16 14:42:59 GMT 50.579426 -0.424161 37,000 158 412 0
2019-10-16 14:42:56 GMT 50.586090 -0.428250 37,000 157 413 0
2019-10-16 14:42:53 GMT 50.589661 -0.430635 37,000 156 413 0
2019-10-16 14:42:50 GMT 50.594368 -0.433886 37,000 155 415 -64
2019-10-16 14:42:47 GMT 50.601025 -0.438711 37,000 153 416 -64
2019-10-16 14:42:44 GMT 50.605961 -0.442571 37,000 152 417 0
2019-10-16 14:42:41 GMT 50.611874 -0.447470 37,000 151 416 64
2019-10-16 14:42:38 GMT 50.616573 -0.451627 37,000 150 418 0
2019-10-16 14:42:35 GMT 50.621887 -0.456294 37,000 150 418 0
2019-10-16 14:42:32 GMT 50.626053 -0.459980 37,000 150 418 -64
2019-10-16 14:42:29 GMT 50.629532 -0.463088 37,000 150 418 -64
2019-10-16 14:42:26 GMT 50.641663 -0.473785 37,000 150 418 0
2019-10-16 14:42:23 GMT 50.641663 -0.473785 37,000 150 418 0
2019-10-16 14:42:20 GMT 50.646606 -0.478122 37,000 150 418 0
2019-10-16 14:42:16 GMT 50.657448 -0.487778 37,000 150 417 0
2019-10-16 14:42:10 GMT 50.662720 -0.492433 37,000 150 418 0
2019-10-16 14:42:07 GMT 50.672810 -0.501404 37,000 150 418 0
2019-10-16 14:42:04 GMT 50.672810 -0.501404 37,000 150 416 0
2019-10-16 14:42:01 GMT 50.678905 -0.506821 37,000 150 418 0
2019-10-16 14:41:58 GMT 50.683960 -0.511384 37,000 150 418 0
2019-10-16 14:41:55 GMT 50.687382 -0.514374 37,000 150 417 0
2019-10-16 14:41:52 GMT 50.693756 -0.520096 37,000 150 417 0
2019-10-16 14:41:49 GMT 50.698654 -0.524449 37,000 150 416 0
2019-10-16 14:41:46 GMT 50.704697 -0.529861 37,000 150 416 64
2019-10-16 14:41:43 GMT 50.708084 -0.532837 37,000 150 416 0
2019-10-16 14:41:40 GMT 50.713821 -0.537949 37,000 150 417 0
2019-10-16 14:41:37 GMT 50.718243 -0.541916 37,000 150 417 0
2019-10-16 14:41:34 GMT 50.724251 -0.547256 37,000 150 417 0
2019-10-16 14:41:31 GMT 50.729187 -0.551692 37,000 150 417 0
2019-10-16 14:41:28 GMT 50.734398 -0.556335 37,000 150 417 0
2019-10-16 14:41:25 GMT 50.743652 -0.564608 37,000 150 416 64
2019-10-16 14:41:22 GMT 50.743652 -0.564608 37,000 150 416 64
2019-10-16 14:41:19 GMT 50.747711 -0.568237 37,000 150 416 0
2019-10-16 14:41:16 GMT 50.752716 -0.572699 37,000 150 416 0
2019-10-16 14:41:13 GMT 50.758327 -0.577698 37,000 150 416 0
2019-10-16 14:41:10 GMT 50.765030 -0.583649 37,000 150 416 0
2019-10-16 14:41:07 GMT 50.768520 -0.586777 37,000 150 416 0
2019-10-16 14:41:04 GMT 50.778030 -0.595266 37,000 150 416 0
2019-10-16 14:41:01 GMT 50.778030 -0.595266 37,000 150 416 0
2019-10-16 14:40:58 GMT 50.784069 -0.600662 37,000 150 416 0
2019-10-16 14:40:55 GMT 50.788239 -0.604397 37,000 150 416 0
2019-10-16 14:40:52 GMT 50.794029 -0.609589 37,000 150 416 0
2019-10-16 14:40:49 GMT 50.799545 -0.614492 37,000 150 416 0
2019-10-16 14:40:46 GMT 50.802933 -0.617536 37,000 150 416 0
2019-10-16 14:40:43 GMT 50.813690 -0.627111 37,000 150 416 0
2019-10-16 14:40:40 GMT 50.813690 -0.627111 37,000 150 416 0
2019-10-16 14:40:37 GMT 50.818176 -0.631120 37,000 150 416 0
2019-10-16 14:40:34 GMT 50.823441 -0.635871 37,000 150 416 0
2019-10-16 14:40:31 GMT 50.828434 -0.640259 37,000 150 418 0
2019-10-16 14:40:28 GMT 50.834015 -0.645298 37,000 150 416 64
2019-10-16 14:40:24 GMT 50.841202 -0.651756 37,000 150 416 0
2019-10-16 14:40:21 GMT 50.850079 -0.659637 37,000 150 417 -64
2019-10-16 14:40:15 GMT 50.861115 -0.669572 37,000 150 417 0
2019-10-16 14:40:12 GMT 50.861115 -0.669572 37,000 150 417 0
2019-10-16 14:40:09 GMT 50.866196 -0.674100 37,000 150 417 0
2019-10-16 14:40:06 GMT 50.870453 -0.677886 37,000 150 418 0
2019-10-16 14:40:03 GMT 50.882248 -0.688477 37,000 150 417 0
2019-10-16 14:39:59 GMT 50.882248 -0.688477 37,000 150 417 0
2019-10-16 14:39:56 GMT 50.888351 -0.693920 37,000 150 417 0
2019-10-16 14:39:52 GMT 50.893559 -0.698624 37,000 150 418 0
2019-10-16 14:39:49 GMT 50.904221 -0.708237 37,000 150 418 0
2019-10-16 14:39:46 GMT 50.904221 -0.708237 37,000 150 418 0
2019-10-16 14:39:43 GMT 50.908131 -0.711746 37,000 150 419 0
2019-10-16 14:39:40 GMT 50.915405 -0.718268 37,000 150 418 0
2019-10-16 14:39:37 GMT 50.919983 -0.722351 37,000 150 418 0
2019-10-16 14:39:34 GMT 50.925430 -0.727250 37,000 150 418 0
2019-10-16 14:39:31 GMT 50.928101 -0.729675 37,000 150 418 0
2019-10-16 14:39:28 GMT 50.936600 -0.737346 37,000 150 418 0
2019-10-16 14:39:25 GMT 50.939137 -0.739670 37,000 150 418 0
2019-10-16 14:39:21 GMT 50.950958 -0.750275 37,000 150 419 0
2019-10-16 14:39:18 GMT 50.957943 -0.756531 37,000 150 419 0
2019-10-16 14:39:14 GMT 50.957943 -0.756531 37,000 150 419 0
2019-10-16 14:39:11 GMT 50.962086 -0.760269 37,000 150 419 0
2019-10-16 14:39:08 GMT 50.967857 -0.765533 37,000 150 420 -64
2019-10-16 14:39:05 GMT 50.973305 -0.770416 37,000 150 419 0
2019-10-16 14:39:02 GMT 50.977707 -0.774388 37,000 150 419 0
2019-10-16 14:38:59 GMT 50.982422 -0.778619 37,000 150 419 128
2019-10-16 14:38:56 GMT 50.987595 -0.783234 37,000 150 419 0
2019-10-16 14:38:53 GMT 50.992493 -0.787675 37,000 150 419 0
2019-10-16 14:38:50 GMT 50.998535 -0.793094 37,000 150 419 128
2019-10-16 14:38:47 GMT 51.002838 -0.796954 37,000 150 419 64
2019-10-16 14:38:44 GMT 51.007984 -0.801620 37,000 150 420 64
2019-10-16 14:38:41 GMT 51.014282 -0.807272 37,000 150 420 0
2019-10-16 14:38:38 GMT 51.019531 -0.811996 37,000 150 420 -64
2019-10-16 14:38:35 GMT 51.022842 -0.814993 37,000 150 420 -64
2019-10-16 14:38:32 GMT 51.028374 -0.820007 37,000 150 420 0
2019-10-16 14:38:29 GMT 51.033264 -0.824356 37,000 150 420 0
2019-10-16 14:38:26 GMT 51.039871 -0.830359 37,000 150 420 0
2019-10-16 14:38:22 GMT 51.046436 -0.836258 37,000 150 420 0
2019-10-16 14:38:19 GMT 51.049744 -0.839233 37,000 150 420 64
2019-10-16 14:38:16 GMT 51.056866 -0.845642 37,000 150 421 0
2019-10-16 14:38:13 GMT 51.062256 -0.850550 37,000 150 420 0
2019-10-16 14:38:10 GMT 51.070179 -0.857697 37,000 150 420 0
2019-10-16 14:38:07 GMT 51.070179 -0.857697 37,000 150 421 0
2019-10-16 14:38:04 GMT 51.075394 -0.862353 37,000 150 421 0
2019-10-16 14:38:01 GMT 51.081909 -0.868301 37,000 150 420 0
2019-10-16 14:37:58 GMT 51.087387 -0.873265 37,000 150 421 0
2019-10-16 14:37:55 GMT 51.090775 -0.876308 37,000 150 421 0
2019-10-16 14:37:52 GMT 51.095829 -0.880890 37,000 150 421 0
2019-10-16 14:37:49 GMT 51.102585 -0.886998 37,000 150 421 0
2019-10-16 14:37:46 GMT 51.112263 -0.895844 37,000 150 421 0
2019-10-16 14:37:43 GMT 51.112263 -0.895844 37,000 150 421 0
2019-10-16 14:37:40 GMT 51.115707 -0.898972 37,000 150 421 0
2019-10-16 14:37:37 GMT 51.122131 -0.904813 37,000 150 421 0
2019-10-16 14:37:34 GMT 51.131908 -0.913773 37,000 150 421 0
2019-10-16 14:37:31 GMT 51.135406 -0.916913 37,000 150 421 -64
2019-10-16 14:37:28 GMT 51.135406 -0.916913 37,000 150 421 -64
2019-10-16 14:37:25 GMT 51.141815 -0.922777 37,000 150 421 0
2019-10-16 14:37:22 GMT 51.147362 -0.927811 37,000 150 421 0
2019-10-16 14:37:19 GMT 51.151505 -0.931625 37,000 150 421 0
2019-10-16 14:37:16 GMT 51.158535 -0.938034 37,000 150 421 0
2019-10-16 14:37:13 GMT 51.161819 -0.940964 37,000 150 421 0
2019-10-16 14:37:10 GMT 51.167999 -0.946606 37,000 150 421 0
2019-10-16 14:37:07 GMT 51.172546 -0.950775 37,000 150 421 0
2019-10-16 14:37:04 GMT 51.176697 -0.954549 37,000 150 421 0
2019-10-16 14:37:01 GMT 51.182007 -0.959448 37,000 150 421 0
2019-10-16 14:36:58 GMT 51.186996 -0.963976 37,000 150 422 0
2019-10-16 14:36:55 GMT 51.192856 -0.969321 37,000 149 421 0
2019-10-16 14:36:52 GMT 51.198059 -0.974121 37,000 149 422 -64
2019-10-16 14:36:49 GMT 51.203831 -0.979462 37,000 149 422 -64
2019-10-16 14:36:46 GMT 51.207504 -0.982831 37,000 149 422 -64
2019-10-16 14:36:43 GMT 51.218681 -0.992966 37,000 157 415 0
2019-10-16 14:36:40 GMT 51.218681 -0.992966 37,000 152 419 64
2019-10-16 14:36:37 GMT 51.223663 -0.997158 37,000 153 419 64
2019-10-16 14:36:34 GMT 51.228149 -1.000795 37,000 154 418 64
2019-10-16 14:36:31 GMT 51.233047 -1.004507 37,000 155 417 64
2019-10-16 14:36:28 GMT 51.238495 -1.008441 37,000 156 416 64
2019-10-16 14:36:25 GMT 51.244583 -1.012598 37,000 157 415 0
2019-10-16 14:36:22 GMT 51.253593 -1.018524 37,000 157 415 0
2019-10-16 14:36:16 GMT 51.264542 -1.025737 37,000 157 415 0
2019-10-16 14:36:13 GMT 51.264542 -1.025737 37,000 157 415 0
2019-10-16 14:36:10 GMT 51.271984 -1.030655 37,000 157 416 0
2019-10-16 14:36:07 GMT 51.274822 -1.032562 37,000 157 416 0
2019-10-16 14:36:04 GMT 51.282455 -1.037674 37,000 157 416 0
2019-10-16 14:36:01 GMT 51.286041 -1.040039 37,000 157 416 0
2019-10-16 14:35:58 GMT 51.293381 -1.044889 37,000 157 416 0
2019-10-16 14:35:55 GMT 51.296951 -1.047264 37,000 157 415 0
2019-10-16 14:35:52 GMT 51.303127 -1.051407 37,000 157 415 0
2019-10-16 14:35:49 GMT 51.308258 -1.054836 37,000 157 415 0
2019-10-16 14:35:46 GMT 51.312717 -1.057816 37,000 157 415 0
2019-10-16 14:35:43 GMT 51.320118 -1.062775 37,000 157 414 0
2019-10-16 14:35:40 GMT 51.328869 -1.068649 37,000 157 415 0
2019-10-16 14:35:37 GMT 51.328869 -1.068649 37,000 157 415 0
2019-10-16 14:35:34 GMT 51.334175 -1.072159 37,000 157 415 0
2019-10-16 14:35:31 GMT 51.339668 -1.075821 37,000 157 414 0
2019-10-16 14:35:28 GMT 51.346527 -1.080298 37,000 157 415 0
2019-10-16 14:35:22 GMT 51.355358 -1.086197 37,000 157 414 0
2019-10-16 14:35:19 GMT 51.360580 -1.089577 37,000 157 414 0
2019-10-16 14:35:16 GMT 51.366531 -1.093511 37,000 157 414 64
2019-10-16 14:35:13 GMT 51.372025 -1.097222 37,000 157 414 0
2019-10-16 14:35:10 GMT 51.376740 -1.100340 37,000 157 414 0
2019-10-16 14:35:06 GMT 51.388924 -1.108322 37,000 157 414 0
2019-10-16 14:35:03 GMT 51.394043 -1.111772 37,000 157 414 0
2019-10-16 14:34:57 GMT 51.400467 -1.116028 37,000 157 414 0
2019-10-16 14:34:54 GMT 51.405170 -1.119156 37,000 157 415 0
2019-10-16 14:34:48 GMT 51.415787 -1.126247 37,000 157 415 0
2019-10-16 14:34:45 GMT 51.422394 -1.130600 37,000 157 415 0
2019-10-16 14:34:42 GMT 51.425903 -1.133002 37,000 157 415 0
2019-10-16 14:34:39 GMT 51.431843 -1.137009 37,000 157 415 0
2019-10-16 14:34:36 GMT 51.437336 -1.140671 37,000 157 415 0
2019-10-16 14:34:33 GMT 51.442062 -1.143766 37,000 157 415 0
2019-10-16 14:34:30 GMT 51.448277 -1.147995 37,000 157 415 0
2019-10-16 14:34:27 GMT 51.452045 -1.150513 37,000 157 415 0
2019-10-16 14:34:24 GMT 51.463825 -1.158447 37,000 157 415 0
2019-10-16 14:34:18 GMT 51.469971 -1.162567 37,000 157 415 0
2019-10-16 14:34:14 GMT 51.475136 -1.166077 37,000 157 415 0
2019-10-16 14:34:11 GMT 51.485703 -1.173172 37,000 157 415 0
2019-10-16 14:34:08 GMT 51.492645 -1.177764 37,000 157 415 0
2019-10-16 14:34:05 GMT 51.492645 -1.177764 37,000 157 415 0
2019-10-16 14:34:02 GMT 51.496738 -1.180573 37,000 157 415 0
2019-10-16 14:33:59 GMT 51.501999 -1.184082 37,000 157 415 0
2019-10-16 14:33:56 GMT 51.507259 -1.187592 37,000 157 415 0
2019-10-16 14:33:53 GMT 51.512238 -1.190977 37,000 157 415 0
2019-10-16 14:33:50 GMT 51.518383 -1.195145 37,000 157 415 0
2019-10-16 14:33:47 GMT 51.521969 -1.197510 37,000 157 415 0
2019-10-16 14:33:44 GMT 51.529415 -1.202545 37,000 157 415 0
2019-10-16 14:33:41 GMT 51.535172 -1.206418 37,000 157 414 0
2019-10-16 14:33:38 GMT 51.538788 -1.208867 37,000 157 414 0
2019-10-16 14:33:35 GMT 51.545712 -1.213531 37,000 157 414 0
2019-10-16 14:33:32 GMT 51.551239 -1.217255 37,000 157 414 0
2019-10-16 14:33:29 GMT 51.555065 -1.219788 37,000 157 414 0
2019-10-16 14:33:26 GMT 51.559628 -1.222916 37,000 157 414 0
2019-10-16 14:33:23 GMT 51.566936 -1.227875 37,000 157 414 0
2019-10-16 14:33:20 GMT 51.576050 -1.234032 37,000 157 414 0
2019-10-16 14:33:14 GMT 51.586491 -1.241150 37,000 157 414 0
2019-10-16 14:33:11 GMT 51.586491 -1.241150 37,000 157 414 0
2019-10-16 14:33:08 GMT 51.592728 -1.245346 37,000 157 414 0
2019-10-16 14:33:05 GMT 51.597015 -1.248284 37,000 157 414 0
2019-10-16 14:33:02 GMT 51.602829 -1.252219 37,000 157 414 0
2019-10-16 14:32:59 GMT 51.608509 -1.256104 37,000 157 414 0
2019-10-16 14:32:56 GMT 51.614094 -1.259918 37,000 157 414 0
2019-10-16 14:32:53 GMT 51.624298 -1.266842 37,000 157 414 0
2019-10-16 14:32:50 GMT 51.631531 -1.271742 37,000 157 414 0
2019-10-16 14:32:46 GMT 51.631531 -1.271742 37,000 157 414 0
2019-10-16 14:32:43 GMT 51.637695 -1.275864 37,000 157 414 0
2019-10-16 14:32:40 GMT 51.641922 -1.278720 37,000 157 414 -64
2019-10-16 14:32:37 GMT 51.647194 -1.282272 37,000 157 414 0
2019-10-16 14:32:34 GMT 51.651428 -1.285172 37,000 157 414 0
2019-10-16 14:32:31 GMT 51.658787 -1.290054 37,000 157 414 0
2019-10-16 14:32:28 GMT 51.662510 -1.292572 37,000 157 414 0
2019-10-16 14:32:24 GMT 51.671215 -1.298370 37,000 157 414 0
2019-10-16 14:32:21 GMT 51.676712 -1.302028 37,000 157 414 64
2019-10-16 14:32:18 GMT 51.680153 -1.304321 37,000 157 414 0
2019-10-16 14:32:15 GMT 51.685600 -1.307983 37,000 157 414 0
2019-10-16 14:32:12 GMT 51.694164 -1.313705 37,000 157 414 0
2019-10-16 14:32:09 GMT 51.697983 -1.316223 37,000 157 414 0
2019-10-16 14:32:06 GMT 51.706467 -1.321923 37,000 157 414 0
2019-10-16 14:32:00 GMT 51.717361 -1.329197 37,000 157 414 0
2019-10-16 14:31:54 GMT 51.723862 -1.333577 37,000 157 414 0
2019-10-16 14:31:51 GMT 51.728714 -1.336843 37,000 157 414 0
2019-10-16 14:31:48 GMT 51.733501 -1.340027 37,000 157 414 0
2019-10-16 14:31:45 GMT 51.739925 -1.344376 37,000 157 414 0
2019-10-16 14:31:42 GMT 51.743511 -1.346817 37,000 157 414 0
2019-10-16 14:31:39 GMT 51.749611 -1.350937 37,000 157 414 0
2019-10-16 14:31:36 GMT 51.755054 -1.354599 37,000 157 414 0
2019-10-16 14:31:33 GMT 51.759617 -1.357727 37,000 157 414 0
2019-10-16 14:31:30 GMT 51.767017 -1.362762 37,000 157 413 0
2019-10-16 14:31:27 GMT 51.771698 -1.365942 37,000 157 414 0
2019-10-16 14:31:24 GMT 51.776749 -1.369400 37,000 157 414 0
2019-10-16 14:31:21 GMT 51.780704 -1.372070 37,000 157 413 0
2019-10-16 14:31:18 GMT 51.786293 -1.375885 37,000 157 413 0
2019-10-16 14:31:15 GMT 51.792068 -1.379823 37,000 157 414 0
2019-10-16 14:31:12 GMT 51.803749 -1.387787 37,000 157 413 0
2019-10-16 14:31:09 GMT 51.803749 -1.387787 37,000 157 414 0
2019-10-16 14:31:06 GMT 51.808079 -1.390686 37,000 157 414 0
2019-10-16 14:31:03 GMT 51.817902 -1.397400 37,000 157 414 0
2019-10-16 14:31:00 GMT 51.817902 -1.397400 37,000 157 414 0
2019-10-16 14:30:57 GMT 51.825211 -1.402359 37,000 157 414 0
2019-10-16 14:30:54 GMT 51.828506 -1.404617 37,000 157 414 0
2019-10-16 14:30:51 GMT 51.837067 -1.410481 37,000 157 414 0
2019-10-16 14:30:48 GMT 51.839687 -1.412277 37,000 157 414 0
2019-10-16 14:30:45 GMT 51.848785 -1.418498 37,000 157 414 0
2019-10-16 14:30:39 GMT 51.855934 -1.423416 37,000 156 414 0
2019-10-16 14:30:36 GMT 51.860588 -1.426620 37,000 156 414 0
2019-10-16 14:30:33 GMT 51.870255 -1.433270 37,000 156 414 0
2019-10-16 14:30:30 GMT 51.874649 -1.436310 37,000 156 414 0
2019-10-16 14:30:24 GMT 51.881908 -1.441269 37,000 157 414 0
2019-10-16 14:30:21 GMT 51.886322 -1.444331 37,000 157 414 0
2019-10-16 14:30:18 GMT 51.891731 -1.448059 37,000 157 414 0
2019-10-16 14:30:15 GMT 51.897923 -1.452314 37,000 157 414 0
2019-10-16 14:30:12 GMT 51.901566 -1.454773 37,000 157 414 -64
2019-10-16 14:30:09 GMT 51.907928 -1.459122 37,000 157 414 -64
2019-10-16 14:30:06 GMT 51.917618 -1.465812 37,000 157 414 0
2019-10-16 14:30:00 GMT 51.923107 -1.469578 37,000 157 414 0
2019-10-16 14:29:57 GMT 51.929951 -1.474208 37,000 157 414 0
2019-10-16 14:29:54 GMT 51.939285 -1.480637 37,000 157 414 0
2019-10-16 14:29:51 GMT 51.939285 -1.480637 37,000 157 415 0
2019-10-16 14:29:48 GMT 51.944801 -1.484331 37,000 157 415 0
2019-10-16 14:29:45 GMT 51.950016 -1.487941 37,000 157 415 0
2019-10-16 14:29:42 GMT 51.956268 -1.492157 37,000 157 415 0
2019-10-16 14:29:39 GMT 51.961990 -1.496124 37,000 157 415 0
2019-10-16 14:29:36 GMT 51.965378 -1.498413 37,000 157 415 0
2019-10-16 14:29:33 GMT 51.971291 -1.502459 37,000 157 415 0
2019-10-16 14:29:30 GMT 51.976643 -1.506069 37,000 156 418 0
2019-10-16 14:29:27 GMT 51.982975 -1.510463 37,000 157 415 0
2019-10-16 14:29:24 GMT 51.987900 -1.513824 37,000 157 415 0
2019-10-16 14:29:21 GMT 51.992657 -1.517055 37,000 156 416 0
2019-10-16 14:29:17 GMT 52.006943 -1.526947 37,000 156 416 0
2019-10-16 14:29:13 GMT 52.006943 -1.526947 37,000 156 417 0
2019-10-16 14:29:10 GMT 52.011372 -1.530003 37,000 156 417 0
2019-10-16 14:29:07 GMT 52.017563 -1.534271 37,000 156 417 0
2019-10-16 14:29:04 GMT 52.023010 -1.538010 37,000 156 417 0
2019-10-16 14:29:01 GMT 52.026993 -1.540756 37,000 156 417 0
2019-10-16 14:28:58 GMT 52.033081 -1.545029 37,000 156 417 0
2019-10-16 14:28:55 GMT 52.037815 -1.548288 37,000 156 418 0
2019-10-16 14:28:52 GMT 52.045074 -1.553268 37,000 156 417 0
2019-10-16 14:28:49 GMT 52.052719 -1.558609 37,000 156 418 0
2019-10-16 14:28:46 GMT 52.054527 -1.559823 37,000 156 418 0
2019-10-16 14:28:43 GMT 52.059723 -1.563416 37,000 156 418 0
2019-10-16 14:28:40 GMT 52.066223 -1.567917 37,000 156 418 0
2019-10-16 14:28:37 GMT 52.071007 -1.571202 37,000 156 418 0
2019-10-16 14:28:34 GMT 52.080547 -1.577794 37,000 156 418 0
2019-10-16 14:28:28 GMT 52.088516 -1.583328 37,000 156 419 0
2019-10-16 14:28:25 GMT 52.091217 -1.585159 37,000 156 419 0
2019-10-16 14:28:22 GMT 52.096664 -1.588898 37,000 156 419 0
2019-10-16 14:28:19 GMT 52.103806 -1.593857 37,000 156 419 0
2019-10-16 14:28:16 GMT 52.107548 -1.596470 37,000 156 419 0
2019-10-16 14:28:13 GMT 52.113182 -1.600394 37,000 156 419 0
2019-10-16 14:28:10 GMT 52.120213 -1.605181 37,000 156 419 0
2019-10-16 14:28:07 GMT 52.124588 -1.608241 37,000 156 419 0
2019-10-16 14:28:04 GMT 52.135803 -1.615982 37,000 156 419 0
2019-10-16 14:28:01 GMT 52.139297 -1.618443 37,000 156 419 0
2019-10-16 14:27:58 GMT 52.139297 -1.618443 37,000 156 419 0
2019-10-16 14:27:55 GMT 52.144932 -1.622288 37,000 156 419 0
2019-10-16 14:27:52 GMT 52.149818 -1.625741 37,000 156 419 0
2019-10-16 14:27:49 GMT 52.156799 -1.630528 37,000 157 419 0
2019-10-16 14:27:46 GMT 52.160751 -1.633301 37,000 156 419 0
2019-10-16 14:27:43 GMT 52.173477 -1.641998 37,000 157 419 0
2019-10-16 14:27:40 GMT 52.173477 -1.641998 37,000 157 419 0
2019-10-16 14:27:37 GMT 52.179108 -1.645813 37,000 157 419 0
2019-10-16 14:27:34 GMT 52.182999 -1.648483 37,000 157 419 0
2019-10-16 14:27:31 GMT 52.188828 -1.652501 37,000 157 419 0
2019-10-16 14:27:28 GMT 52.192833 -1.655247 37,000 157 419 0
2019-10-16 14:27:25 GMT 52.198513 -1.659092 37,000 157 420 0
2019-10-16 14:27:22 GMT 52.204704 -1.663409 37,000 157 420 0
2019-10-16 14:27:19 GMT 52.210144 -1.667175 37,000 157 420 0
2019-10-16 14:27:16 GMT 52.214539 -1.670227 37,000 157 420 0
2019-10-16 14:27:13 GMT 52.226669 -1.678619 37,000 156 420 0
2019-10-16 14:27:10 GMT 52.226669 -1.678619 37,000 156 420 0
2019-10-16 14:27:04 GMT 52.237015 -1.685791 37,000 156 420 0
2019-10-16 14:27:01 GMT 52.242188 -1.689377 37,000 156 420 0
2019-10-16 14:26:58 GMT 52.248093 -1.693497 37,000 156 420 0
2019-10-16 14:26:55 GMT 52.253952 -1.697540 37,000 156 420 -64
2019-10-16 14:26:52 GMT 52.260178 -1.701889 37,000 156 420 -64
2019-10-16 14:26:49 GMT 52.269470 -1.708374 37,000 156 421 0
2019-10-16 14:26:46 GMT 52.269470 -1.708374 37,000 156 421 0
2019-10-16 14:26:43 GMT 52.274532 -1.711905 37,000 156 421 0
2019-10-16 14:26:40 GMT 52.279861 -1.715622 37,000 156 421 0
2019-10-16 14:26:37 GMT 52.285492 -1.719589 37,000 156 421 64
2019-10-16 14:26:34 GMT 52.289017 -1.722031 37,000 156 419 0
2019-10-16 14:26:31 GMT 52.295994 -1.726894 37,000 156 421 0
2019-10-16 14:26:28 GMT 52.301067 -1.730504 37,000 156 421 0
2019-10-16 14:26:25 GMT 52.305721 -1.733721 37,000 156 421 0
2019-10-16 14:26:22 GMT 52.311821 -1.737959 37,000 156 422 0
2019-10-16 14:26:18 GMT 52.324203 -1.746669 37,000 156 422 0
2019-10-16 14:26:15 GMT 52.324203 -1.746669 37,000 156 422 0
2019-10-16 14:26:12 GMT 52.333466 -1.753082 37,000 156 422 0
2019-10-16 14:26:06 GMT 52.339371 -1.757202 37,000 156 422 0
2019-10-16 14:26:03 GMT 52.344173 -1.760559 37,000 156 421 0
2019-10-16 14:26:00 GMT 52.350784 -1.765189 37,000 156 421 0
2019-10-16 14:25:57 GMT 52.355114 -1.768250 37,000 156 421 0
2019-10-16 14:25:54 GMT 52.362331 -1.773350 37,000 156 421 0
2019-10-16 14:25:51 GMT 52.368427 -1.777666 37,000 156 421 -64
2019-10-16 14:25:48 GMT 52.378113 -1.784494 37,000 156 421 0
2019-10-16 14:25:45 GMT 52.378113 -1.784494 37,000 156 421 0
2019-10-16 14:25:42 GMT 52.388680 -1.791949 37,000 156 421 0
2019-10-16 14:25:36 GMT 52.393379 -1.795244 37,000 156 421 0
2019-10-16 14:25:33 GMT 52.399384 -1.799482 37,000 156 421 0
2019-10-16 14:25:30 GMT 52.404461 -1.803013 37,000 156 420 0
2019-10-16 14:25:27 GMT 52.408813 -1.806030 37,000 156 420 0
2019-10-16 14:25:24 GMT 52.414398 -1.809998 37,000 156 420 0
2019-10-16 14:25:21 GMT 52.419079 -1.813215 37,000 156 420 0
2019-10-16 14:25:18 GMT 52.425293 -1.817627 37,000 156 420 0
2019-10-16 14:25:15 GMT 52.431366 -1.821847 37,000 156 420 0
2019-10-16 14:25:12 GMT 52.436253 -1.825221 37,000 156 420 0
2019-10-16 14:25:09 GMT 52.441360 -1.828842 37,000 156 419 0
2019-10-16 14:25:06 GMT 52.447426 -1.833069 37,000 156 419 0
2019-10-16 14:25:03 GMT 52.451752 -1.836090 37,000 156 420 0
2019-10-16 14:25:00 GMT 52.458553 -1.840838 37,000 156 420 0
2019-10-16 14:24:57 GMT 52.463581 -1.844448 37,000 156 420 0
2019-10-16 14:24:54 GMT 52.472580 -1.850739 37,000 156 419 0
2019-10-16 14:24:48 GMT 52.477936 -1.854477 37,000 156 420 0
2019-10-16 14:24:45 GMT 52.483925 -1.858730 37,000 156 419 64
2019-10-16 14:24:42 GMT 52.489323 -1.862497 37,000 156 420 0
2019-10-16 14:24:39 GMT 52.495697 -1.867065 37,000 156 420 0
2019-10-16 14:24:36 GMT 52.500263 -1.870265 37,000 156 420 -64
2019-10-16 14:24:33 GMT 52.506638 -1.874695 37,000 156 419 0
2019-10-16 14:24:27 GMT 52.515812 -1.881173 37,000 156 419 0
2019-10-16 14:24:24 GMT 52.521168 -1.884940 37,000 156 419 64
2019-10-16 14:24:21 GMT 52.526505 -1.888733 37,000 156 419 0
2019-10-16 14:24:18 GMT 52.533737 -1.893845 37,000 156 419 0
2019-10-16 14:24:15 GMT 52.538406 -1.897125 37,000 156 419 0
2019-10-16 14:24:12 GMT 52.544628 -1.901498 37,000 156 419 0
2019-10-16 14:24:09 GMT 52.549236 -1.904794 37,000 156 419 0
2019-10-16 14:24:06 GMT 52.552643 -1.907196 37,000 156 419 0
2019-10-16 14:24:03 GMT 52.560268 -1.912563 37,000 156 418 0
2019-10-16 14:24:00 GMT 52.565186 -1.916046 37,000 156 418 0
2019-10-16 14:23:57 GMT 52.570404 -1.919708 37,000 156 418 0
2019-10-16 14:23:54 GMT 52.573929 -1.922226 37,000 156 418 0
2019-10-16 14:23:51 GMT 52.587456 -1.931710 37,000 156 418 0
2019-10-16 14:23:48 GMT 52.587456 -1.931710 37,000 156 418 0
2019-10-16 14:23:45 GMT 52.592697 -1.935425 37,000 156 418 0
2019-10-16 14:23:42 GMT 52.601303 -1.941452 37,000 156 418 0
2019-10-16 14:23:36 GMT 52.607300 -1.945648 37,000 156 419 0
2019-10-16 14:23:33 GMT 52.612736 -1.949524 37,000 156 419 0
2019-10-16 14:23:30 GMT 52.618366 -1.953526 37,000 156 419 0
2019-10-16 14:23:27 GMT 52.623116 -1.956900 37,000 156 419 0
2019-10-16 14:23:24 GMT 52.631401 -1.962708 37,000 156 419 0
2019-10-16 14:23:21 GMT 52.634171 -1.964722 37,000 156 419 0
2019-10-16 14:23:18 GMT 52.644157 -1.971732 37,000 156 419 0
2019-10-16 14:23:12 GMT 52.656693 -1.980667 37,000 156 419 0
2019-10-16 14:23:09 GMT 52.656693 -1.980667 37,000 156 419 0
2019-10-16 14:23:06 GMT 52.662033 -1.984445 37,000 156 419 0
2019-10-16 14:23:03 GMT 52.666454 -1.987662 37,000 156 419 0
2019-10-16 14:23:00 GMT 52.672089 -1.991664 37,000 156 419 0
2019-10-16 14:22:57 GMT 52.676373 -1.994725 37,000 156 419 0
2019-10-16 14:22:54 GMT 52.681866 -1.998649 37,000 156 419 64
2019-10-16 14:22:51 GMT 52.687824 -2.002886 37,000 156 419 0
2019-10-16 14:22:48 GMT 52.692261 -2.006073 37,000 156 419 0
2019-10-16 14:22:45 GMT 52.697754 -2.009964 37,000 156 419 0
2019-10-16 14:22:42 GMT 52.703110 -2.013779 37,000 156 419 0
2019-10-16 14:22:39 GMT 52.707687 -2.017059 37,000 156 419 0
2019-10-16 14:22:36 GMT 52.714359 -2.021877 37,000 156 419 64
2019-10-16 14:22:33 GMT 52.719620 -2.025643 37,000 156 419 64
2019-10-16 14:22:30 GMT 52.725174 -2.029572 37,000 156 419 0
2019-10-16 14:22:27 GMT 52.729660 -2.032776 37,000 156 419 0
2019-10-16 14:22:24 GMT 52.735817 -2.037179 37,000 156 420 -64
2019-10-16 14:22:21 GMT 52.740189 -2.040253 37,000 156 419 0
2019-10-16 14:22:18 GMT 52.746616 -2.044870 37,000 156 419 0
2019-10-16 14:22:15 GMT 52.752483 -2.049029 37,000 156 420 0
2019-10-16 14:22:12 GMT 52.756073 -2.051620 37,000 156 420 -64
2019-10-16 14:22:09 GMT 52.761795 -2.055620 37,000 156 420 -64
2019-10-16 14:22:06 GMT 52.772362 -2.063232 37,000 156 419 0
2019-10-16 14:22:03 GMT 52.772362 -2.063232 37,000 156 419 0
2019-10-16 14:22:00 GMT 52.777111 -2.066607 37,000 156 419 0
2019-10-16 14:21:57 GMT 52.783257 -2.071001 37,000 156 420 0
2019-10-16 14:21:54 GMT 52.789490 -2.075424 37,000 156 420 0
2019-10-16 14:21:51 GMT 52.793262 -2.078142 37,000 156 420 0
2019-10-16 14:21:48 GMT 52.798058 -2.081517 37,000 156 420 0
2019-10-16 14:21:45 GMT 52.804810 -2.086304 37,000 156 420 0
2019-10-16 14:21:42 GMT 52.810684 -2.090530 37,000 156 420 0
2019-10-16 14:21:39 GMT 52.815746 -2.094151 37,000 156 420 -64
2019-10-16 14:21:36 GMT 52.822220 -2.098781 37,000 156 419 0
2019-10-16 14:21:33 GMT 52.825104 -2.100821 37,000 156 420 0
2019-10-16 14:21:30 GMT 52.830780 -2.104950 37,000 156 420 0
2019-10-16 14:21:27 GMT 52.836823 -2.109222 37,000 156 419 0
2019-10-16 14:21:24 GMT 52.842957 -2.113647 37,000 156 419 0
2019-10-16 14:21:21 GMT 52.853073 -2.120819 37,000 156 420 0
2019-10-16 14:21:18 GMT 52.853073 -2.120819 37,000 156 419 -64
2019-10-16 14:21:15 GMT 52.859413 -2.125384 37,000 156 419 -64
2019-10-16 14:21:12 GMT 52.869236 -2.132446 37,000 156 419 0
2019-10-16 14:21:09 GMT 52.869236 -2.132446 37,000 156 419 0
2019-10-16 14:21:06 GMT 52.874779 -2.136448 37,000 156 419 0
2019-10-16 14:21:03 GMT 52.881062 -2.140921 37,000 156 419 0
2019-10-16 14:21:00 GMT 52.883835 -2.142944 37,000 156 419 0
2019-10-16 14:20:57 GMT 52.890564 -2.147751 37,000 156 419 64
2019-10-16 14:20:54 GMT 52.895737 -2.151489 37,000 156 419 0
2019-10-16 14:20:48 GMT 52.905441 -2.158432 37,000 156 419 0
2019-10-16 14:20:45 GMT 52.913231 -2.164071 37,000 156 419 0
2019-10-16 14:20:42 GMT 52.916626 -2.166425 37,000 156 419 0
2019-10-16 14:20:39 GMT 52.921375 -2.169878 37,000 156 419 0
2019-10-16 14:20:36 GMT 52.931988 -2.177412 37,000 156 419 0
2019-10-16 14:20:30 GMT 52.937805 -2.181625 37,000 156 419 0
2019-10-16 14:20:27 GMT 52.948376 -2.189183 37,000 156 419 0
2019-10-16 14:20:24 GMT 52.948376 -2.189183 37,000 156 420 0
2019-10-16 14:20:21 GMT 52.954514 -2.193604 37,000 156 419 0
2019-10-16 14:20:18 GMT 52.958710 -2.196638 37,000 156 419 0
2019-10-16 14:20:15 GMT 52.964813 -2.201004 37,000 156 420 0
2019-10-16 14:20:12 GMT 52.970955 -2.205427 37,000 156 420 0
2019-10-16 14:20:09 GMT 52.974815 -2.208252 37,000 156 420 0
2019-10-16 14:20:06 GMT 52.979553 -2.211685 37,000 156 420 0
2019-10-16 14:20:03 GMT 52.986828 -2.216884 37,000 156 420 0
2019-10-16 14:20:00 GMT 52.992050 -2.220688 37,000 156 420 0
2019-10-16 14:19:57 GMT 52.996628 -2.223969 37,000 156 420 0
2019-10-16 14:19:54 GMT 53.001820 -2.227713 37,000 156 420 0
2019-10-16 14:19:51 GMT 53.012878 -2.235794 37,000 156 420 -64
2019-10-16 14:19:48 GMT 53.017693 -2.239249 37,000 156 420 0
2019-10-16 14:19:45 GMT 53.017693 -2.239249 37,000 156 420 0
2019-10-16 14:19:38 GMT 53.036499 -2.252884 37,000 156 420 0
2019-10-16 14:19:35 GMT 53.036499 -2.252884 37,000 156 420 0
2019-10-16 14:19:32 GMT 53.041351 -2.256393 37,000 156 420 0
2019-10-16 14:19:29 GMT 53.046787 -2.260359 37,000 156 420 0
2019-10-16 14:19:26 GMT 53.052750 -2.264709 37,000 156 420 0
2019-10-16 14:19:23 GMT 53.056564 -2.267421 37,000 156 419 64
2019-10-16 14:19:17 GMT 53.068527 -2.276132 37,000 156 420 64
2019-10-16 14:19:14 GMT 53.072346 -2.278878 37,000 156 420 0
2019-10-16 14:19:11 GMT 53.078209 -2.283194 37,000 156 420 0
2019-10-16 14:19:08 GMT 53.084496 -2.287746 37,000 156 420 0
2019-10-16 14:19:05 GMT 53.089920 -2.291641 37,000 156 420 0
2019-10-16 14:19:02 GMT 53.094406 -2.294922 37,000 156 419 -64
2019-10-16 14:18:59 GMT 53.098366 -2.297758 37,000 156 420 -64
2019-10-16 14:18:56 GMT 53.104065 -2.301950 37,000 156 420 -64
2019-10-16 14:18:53 GMT 53.109009 -2.305481 37,000 156 420 -64
2019-10-16 14:18:50 GMT 53.120041 -2.313485 37,000 156 420 0
2019-10-16 14:18:47 GMT 53.120041 -2.313485 37,000 156 420 0
2019-10-16 14:18:41 GMT 53.132584 -2.322639 37,000 156 419 0
2019-10-16 14:18:38 GMT 53.136818 -2.325709 37,000 156 419 0
2019-10-16 14:18:35 GMT 53.142174 -2.329586 37,000 156 419 -64
2019-10-16 14:18:32 GMT 53.153671 -2.337988 37,000 156 419 0
2019-10-16 14:18:29 GMT 53.158447 -2.341500 37,000 156 419 -64
2019-10-16 14:18:26 GMT 53.158447 -2.341500 37,000 156 419 -64
2019-10-16 14:18:23 GMT 53.163849 -2.345346 37,000 156 419 0
2019-10-16 14:18:20 GMT 53.173279 -2.352251 37,000 156 419 -64
2019-10-16 14:18:17 GMT 53.173279 -2.352251 37,000 156 418 0
2019-10-16 14:18:14 GMT 53.179832 -2.357052 37,000 156 419 0
2019-10-16 14:18:11 GMT 53.185501 -2.361197 37,000 156 418 0
2019-10-16 14:18:08 GMT 53.191727 -2.365749 37,000 156 418 0
2019-10-16 14:18:05 GMT 53.195381 -2.368362 37,000 156 418 0
2019-10-16 14:18:02 GMT 53.200653 -2.372262 37,000 156 418 0
2019-10-16 14:17:59 GMT 53.205391 -2.375713 37,000 156 418 0
2019-10-16 14:17:56 GMT 53.210541 -2.379403 37,000 156 417 0
2019-10-16 14:17:53 GMT 53.216656 -2.383872 37,000 156 418 0
2019-10-16 14:17:50 GMT 53.221264 -2.387264 37,000 156 418 0
2019-10-16 14:17:47 GMT 53.231598 -2.394777 37,000 156 419 0
2019-10-16 14:17:44 GMT 53.231598 -2.394777 37,000 156 419 0
2019-10-16 14:17:41 GMT 53.236496 -2.398394 37,000 156 418 0
2019-10-16 14:17:38 GMT 53.241936 -2.402371 37,000 156 418 0
2019-10-16 14:17:35 GMT 53.247288 -2.406329 37,000 156 419 0
2019-10-16 14:17:32 GMT 53.252335 -2.410008 37,000 156 418 0
2019-10-16 14:17:29 GMT 53.259483 -2.415296 37,000 156 418 0
2019-10-16 14:17:26 GMT 53.269821 -2.422878 37,000 156 418 0
2019-10-16 14:17:23 GMT 53.269821 -2.422878 37,000 156 418 0
2019-10-16 14:17:20 GMT 53.275127 -2.426686 37,000 156 418 0
2019-10-16 14:17:17 GMT 53.279221 -2.429756 37,000 156 418 0
2019-10-16 14:17:14 GMT 53.285553 -2.434360 37,000 156 418 0
2019-10-16 14:17:11 GMT 53.290878 -2.438259 37,000 156 419 0
2019-10-16 14:17:08 GMT 53.297104 -2.442810 37,000 156 419 0
2019-10-16 14:17:04 GMT 53.302174 -2.446558 37,000 156 419 0
2019-10-16 14:17:01 GMT 53.309692 -2.452070 37,000 156 419 0
2019-10-16 14:16:58 GMT 53.313034 -2.454503 37,000 156 419 0
2019-10-16 14:16:55 GMT 53.318188 -2.458272 37,000 156 419 0
2019-10-16 14:16:52 GMT 53.323608 -2.462272 37,000 156 419 0
2019-10-16 14:16:49 GMT 53.334061 -2.469985 37,000 156 419 0
2019-10-16 14:16:43 GMT 53.346176 -2.478908 37,000 156 419 0
2019-10-16 14:16:40 GMT 53.346176 -2.478908 37,000 156 419 0
2019-10-16 14:16:34 GMT 53.356964 -2.486868 37,000 156 419 0
2019-10-16 14:16:31 GMT 53.367065 -2.494300 37,000 156 419 0
2019-10-16 14:16:28 GMT 53.367065 -2.494300 37,000 156 419 0
2019-10-16 14:16:25 GMT 53.371857 -2.497899 37,000 156 419 0
2019-10-16 14:16:22 GMT 53.377441 -2.502058 37,000 156 419 0
2019-10-16 14:16:19 GMT 53.381870 -2.505287 37,000 156 419 0
2019-10-16 14:16:16 GMT 53.387421 -2.509356 37,000 156 419 0
2019-10-16 14:16:13 GMT 53.392159 -2.512880 37,000 156 419 0
2019-10-16 14:16:10 GMT 53.397537 -2.516811 37,000 156 420 0
2019-10-16 14:16:07 GMT 53.402939 -2.520813 37,000 156 420 0
2019-10-16 14:16:04 GMT 53.409531 -2.525600 37,000 156 420 0
2019-10-16 14:16:01 GMT 53.413620 -2.528633 37,000 156 420 0
2019-10-16 14:15:58 GMT 53.419556 -2.532976 37,000 156 419 0
2019-10-16 14:15:55 GMT 53.425674 -2.537438 37,000 156 420 0
2019-10-16 14:15:52 GMT 53.430359 -2.540902 37,000 156 419 0
2019-10-16 14:15:49 GMT 53.435440 -2.544591 37,000 156 420 0
2019-10-16 14:15:46 GMT 53.448441 -2.554160 37,000 156 420 0
2019-10-16 14:15:42 GMT 53.448441 -2.554160 37,000 156 420 0
2019-10-16 14:15:39 GMT 53.452972 -2.557539 37,000 156 420 0
2019-10-16 14:15:36 GMT 53.459286 -2.562157 37,000 156 420 0
2019-10-16 14:15:33 GMT 53.462860 -2.564758 37,000 156 420 0
2019-10-16 14:15:30 GMT 53.476185 -2.574678 37,000 156 420 0
2019-10-16 14:15:27 GMT 53.476185 -2.574678 37,000 156 420 0
2019-10-16 14:15:24 GMT 53.479397 -2.577021 37,000 156 421 0
2019-10-16 14:15:21 GMT 53.486565 -2.582353 37,000 156 420 0
2019-10-16 14:15:18 GMT 53.490246 -2.585018 37,000 156 420 0
2019-10-16 14:15:15 GMT 53.496201 -2.589461 37,000 156 420 0
2019-10-16 14:15:12 GMT 53.500809 -2.592852 37,000 156 420 0
2019-10-16 14:15:09 GMT 53.507702 -2.597943 37,000 156 420 0
2019-10-16 14:15:06 GMT 53.512024 -2.601092 37,000 156 421 0
2019-10-16 14:15:03 GMT 53.517338 -2.605052 37,000 156 421 0
2019-10-16 14:15:00 GMT 53.522457 -2.608849 37,000 156 421 0
2019-10-16 14:14:57 GMT 53.529007 -2.613647 37,000 156 421 0
2019-10-16 14:14:54 GMT 53.532467 -2.616200 37,000 156 421 0
2019-10-16 14:14:51 GMT 53.540707 -2.622259 37,000 156 421 0
2019-10-16 14:14:48 GMT 53.549133 -2.628479 37,000 156 421 0
2019-10-16 14:14:45 GMT 53.549133 -2.628479 37,000 156 421 0
2019-10-16 14:14:42 GMT 53.555229 -2.633003 37,000 156 421 0
2019-10-16 14:14:39 GMT 53.559952 -2.636483 37,000 156 420 0
2019-10-16 14:14:36 GMT 53.565147 -2.640273 37,000 156 420 0
2019-10-16 14:14:33 GMT 53.569382 -2.643424 37,000 156 421 0
2019-10-16 14:14:30 GMT 53.575527 -2.647947 37,000 156 421 64
2019-10-16 14:14:27 GMT 53.583302 -2.653683 37,000 156 421 0
2019-10-16 14:14:24 GMT 53.592270 -2.660339 37,000 156 420 64
2019-10-16 14:14:21 GMT 53.592270 -2.660339 37,000 156 420 64
2019-10-16 14:14:18 GMT 53.597034 -2.663861 37,000 156 421 64
2019-10-16 14:14:15 GMT 53.603760 -2.668893 37,000 156 421 64
2019-10-16 14:14:12 GMT 53.612640 -2.675563 37,000 155 422 0
2019-10-16 14:14:09 GMT 53.612640 -2.675563 37,000 155 422 0
2019-10-16 14:14:06 GMT 53.618271 -2.679801 37,000 156 423 -64
2019-10-16 14:14:03 GMT 53.624542 -2.684509 37,000 155 422 0
2019-10-16 14:14:00 GMT 53.630768 -2.689218 37,000 155 422 0
2019-10-16 14:13:57 GMT 53.635487 -2.692781 37,000 155 422 0
2019-10-16 14:13:54 GMT 53.644936 -2.699971 37,000 155 422 0
2019-10-16 14:13:51 GMT 53.644936 -2.699971 37,000 155 422 0
2019-10-16 14:13:48 GMT 53.649731 -2.703525 37,000 155 422 0
2019-10-16 14:13:45 GMT 53.656109 -2.708372 37,000 155 422 0
2019-10-16 14:13:42 GMT 53.661278 -2.712250 37,000 155 422 0
2019-10-16 14:13:39 GMT 53.673981 -2.721863 37,000 156 423 0
2019-10-16 14:13:35 GMT 53.673981 -2.721863 37,000 155 422 0
2019-10-16 14:13:32 GMT 53.678688 -2.725417 37,000 155 422 0
2019-10-16 14:13:29 GMT 53.685299 -2.730345 37,000 156 423 0
2019-10-16 14:13:26 GMT 53.692326 -2.735596 37,000 156 423 0
2019-10-16 14:13:23 GMT 53.696655 -2.738827 37,000 156 423 0
2019-10-16 14:13:20 GMT 53.701218 -2.742266 37,000 155 422 0
2019-10-16 14:13:17 GMT 53.711693 -2.750136 37,000 156 423 -64
2019-10-16 14:13:14 GMT 53.711693 -2.750136 37,000 156 423 0
2019-10-16 14:13:11 GMT 53.717651 -2.754579 37,000 156 423 -64
2019-10-16 14:13:08 GMT 53.722118 -2.757972 37,000 156 423 0
2019-10-16 14:13:05 GMT 53.726486 -2.761178 37,000 155 422 0
2019-10-16 14:13:02 GMT 53.733856 -2.766750 37,000 155 422 0
2019-10-16 14:12:59 GMT 53.739120 -2.770673 37,000 155 422 64
2019-10-16 14:12:56 GMT 53.749329 -2.778364 37,000 155 422 0
2019-10-16 14:12:53 GMT 53.754547 -2.782288 37,000 155 422 0
2019-10-16 14:12:50 GMT 53.754547 -2.782288 37,000 156 422 64
2019-10-16 14:12:44 GMT 53.766357 -2.791155 37,000 155 422 0
2019-10-16 14:12:41 GMT 53.769882 -2.793839 37,000 155 422 0
2019-10-16 14:12:38 GMT 53.776886 -2.799081 37,000 155 422 0
2019-10-16 14:12:35 GMT 53.781380 -2.802483 37,000 155 422 0
2019-10-16 14:12:32 GMT 53.786728 -2.806458 37,000 155 422 0
2019-10-16 14:12:29 GMT 53.796890 -2.814069 37,000 156 422 64
2019-10-16 14:12:26 GMT 53.796890 -2.814069 37,000 155 422 0
2019-10-16 14:12:22 GMT 53.807602 -2.822074 37,000 156 422 64
2019-10-16 14:12:19 GMT 53.809498 -2.823567 37,000 156 422 0
2019-10-16 14:12:16 GMT 53.814102 -2.826939 37,000 156 422 0
2019-10-16 14:12:13 GMT 53.820602 -2.831883 37,000 156 422 0
2019-10-16 14:12:10 GMT 53.825363 -2.835414 37,000 155 422 0
2019-10-16 14:12:07 GMT 53.831612 -2.840127 37,000 155 422 0
2019-10-16 14:12:04 GMT 53.836899 -2.844046 37,000 155 422 0
2019-10-16 14:12:01 GMT 53.843018 -2.848690 37,000 155 422 0
2019-10-16 14:11:58 GMT 53.845642 -2.850638 37,000 156 422 0
2019-10-16 14:11:55 GMT 53.851181 -2.854797 37,000 156 422 0
2019-10-16 14:11:52 GMT 53.862213 -2.863116 37,000 155 422 0
2019-10-16 14:11:46 GMT 53.868118 -2.867510 37,000 155 422 0
2019-10-16 14:11:43 GMT 53.874252 -2.872140 37,000 155 422 0
2019-10-16 14:11:40 GMT 53.879745 -2.876318 37,000 155 422 0
2019-10-16 14:11:37 GMT 53.886265 -2.881165 37,000 155 422 0
2019-10-16 14:11:34 GMT 53.889847 -2.883911 37,000 155 422 0
2019-10-16 14:11:31 GMT 53.894577 -2.887521 37,000 155 422 0
2019-10-16 14:11:28 GMT 53.900883 -2.892312 37,000 155 422 0
2019-10-16 14:11:25 GMT 53.907490 -2.897321 37,000 155 422 0
2019-10-16 14:11:22 GMT 53.912193 -2.900875 37,000 155 422 0
2019-10-16 14:11:19 GMT 53.916477 -2.904187 37,000 155 422 0
2019-10-16 14:11:16 GMT 53.923416 -2.909415 37,000 155 422 -64
2019-10-16 14:11:13 GMT 53.927135 -2.912266 37,000 155 423 -64
2019-10-16 14:11:10 GMT 53.932800 -2.916478 37,000 156 423 0
2019-10-16 14:11:07 GMT 53.936539 -2.919374 37,000 156 423 0
2019-10-16 14:11:04 GMT 53.943283 -2.924404 37,000 156 423 -64
2019-10-16 14:11:01 GMT 53.948318 -2.928260 37,000 155 422 0
2019-10-16 14:10:58 GMT 53.958511 -2.935935 37,000 155 422 0
2019-10-16 14:10:55 GMT 53.958511 -2.935935 37,000 155 422 0
2019-10-16 14:10:52 GMT 53.965870 -2.941509 37,000 155 422 0
2019-10-16 14:10:49 GMT 53.970840 -2.945278 37,000 155 422 0
2019-10-16 14:10:46 GMT 53.975552 -2.948860 37,000 155 422 64
2019-10-16 14:10:43 GMT 53.987000 -2.957520 37,000 155 423 -64
2019-10-16 14:10:40 GMT 53.991577 -2.961051 37,000 155 422 64
2019-10-16 14:10:37 GMT 53.991577 -2.961051 37,000 155 422 64
2019-10-16 14:10:34 GMT 53.997620 -2.965602 37,000 155 422 0
2019-10-16 14:10:31 GMT 54.002884 -2.969604 37,000 155 422 0
2019-10-16 14:10:28 GMT 54.008331 -2.973764 37,000 155 422 0
2019-10-16 14:10:25 GMT 54.012093 -2.976649 37,000 155 423 -64
2019-10-16 14:10:22 GMT 54.017075 -2.980434 37,000 155 422 -64
2019-10-16 14:10:19 GMT 54.023026 -2.984907 37,000 155 423 -64
2019-10-16 14:10:16 GMT 54.028526 -2.989170 37,000 155 423 -64
2019-10-16 14:10:13 GMT 54.034206 -2.993451 37,000 155 423 -64
2019-10-16 14:10:10 GMT 54.038910 -2.997070 37,000 155 423 0
2019-10-16 14:10:07 GMT 54.043076 -3.000209 36,825 155 423 -64
2019-10-16 14:10:04 GMT 54.048981 -3.004761 37,000 155 423 0
2019-10-16 14:10:01 GMT 54.056877 -3.010739 37,000 155 423 0
2019-10-16 14:09:58 GMT 54.060184 -3.013243 37,000 155 423 -64
2019-10-16 14:09:55 GMT 54.065918 -3.017630 36,675 155 423 896
2019-10-16 14:09:52 GMT 54.072922 -3.022967 37,000 155 423 0
2019-10-16 14:09:49 GMT 54.077225 -3.026184 37,000 155 423 -64
2019-10-16 14:09:46 GMT 54.088669 -3.034895 37,000 155 423 -64
2019-10-16 14:09:43 GMT 54.088669 -3.034895 37,000 155 423 320
2019-10-16 14:09:40 GMT 54.098053 -3.042114 37,000 155 422 448
2019-10-16 14:09:37 GMT 54.103477 -3.046202 36,975 155 422 832
2019-10-16 14:09:34 GMT 54.103477 -3.046202 36,850 155 423 896
2019-10-16 14:09:30 GMT 54.110554 -3.051614 36,900 155 423 896
2019-10-16 14:09:27 GMT 54.116318 -3.056083 36,825 155 423 832
2019-10-16 14:09:23 GMT 54.121677 -3.060177 36,225 155 422 768
2019-10-16 14:09:20 GMT 54.128799 -3.065670 36,750 155 422 768
2019-10-16 14:09:16 GMT 54.136230 -3.071385 36,675 155 422 832
2019-10-16 14:09:13 GMT 54.145744 -3.078676 36,625 155 422 832
2019-10-16 14:09:10 GMT 54.145744 -3.078676 36,575 155 421 832
2019-10-16 14:09:07 GMT 54.152866 -3.084169 36,550 155 421 896
2019-10-16 14:09:04 GMT 54.157478 -3.087724 36,500 155 421 896
2019-10-16 14:09:01 GMT 54.161819 -3.091082 36,475 155 421 832
2019-10-16 14:08:58 GMT 54.166229 -3.094509 36,425 155 421 832
2019-10-16 14:08:55 GMT 54.172806 -3.099479 36,400 155 421 832
2019-10-16 14:08:52 GMT 54.179123 -3.104422 36,300 155 419 768
2019-10-16 14:08:49 GMT 54.182739 -3.107169 36,300 155 419 768
2019-10-16 14:08:46 GMT 54.188370 -3.111485 36,275 155 418 704
2019-10-16 14:08:43 GMT 54.195698 -3.117128 36,225 155 418 704
2019-10-16 14:08:40 GMT 54.198303 -3.119067 36,200 155 415 960
2019-10-16 14:08:37 GMT 54.204170 -3.123591 36,175 155 417 832
2019-10-16 14:08:33 GMT 54.211212 -3.128985 36,100 155 417 896
2019-10-16 14:08:30 GMT 54.218033 -3.134242 35,750 155 416 896
2019-10-16 14:08:27 GMT 54.222748 -3.137852 36,025 155 416 896
2019-10-16 14:08:24 GMT 54.226978 -3.141120 35,975 155 416 896
2019-10-16 14:08:21 GMT 54.233402 -3.146048 35,875 155 415 960
2019-10-16 14:08:18 GMT 54.238586 -3.150016 35,875 155 415 960
2019-10-16 14:08:15 GMT 54.243759 -3.154018 35,825 155 415 896
2019-10-16 14:08:12 GMT 54.248116 -3.157358 35,800 155 415 832
2019-10-16 14:08:09 GMT 54.253700 -3.161639 35,750 155 414 832
2019-10-16 14:08:06 GMT 54.259193 -3.165840 35,625 155 414 896
2019-10-16 14:08:03 GMT 54.264679 -3.170105 35,625 155 414 896
2019-10-16 14:08:00 GMT 54.269897 -3.174107 35,625 155 414 1088
2019-10-16 14:07:57 GMT 54.279419 -3.181431 35,525 155 414 1024
2019-10-16 14:07:54 GMT 54.279419 -3.181431 35,450 155 413 1024
2019-10-16 14:07:51 GMT 54.284409 -3.185308 35,450 155 413 960
2019-10-16 14:07:48 GMT 54.290497 -3.189993 35,400 155 413 1024
2019-10-16 14:07:45 GMT 54.296036 -3.194275 35,300 155 413 1024
2019-10-16 14:07:42 GMT 54.305420 -3.201626 35,150 155 412 1088
2019-10-16 14:07:39 GMT 54.311050 -3.205988 35,225 155 413 1088
2019-10-16 14:07:36 GMT 54.311050 -3.205988 35,150 155 413 1024
2019-10-16 14:07:33 GMT 54.315445 -3.209381 35,125 155 413 960
2019-10-16 14:07:30 GMT 54.325378 -3.217136 35,100 155 413 960
2019-10-16 14:07:27 GMT 54.325378 -3.217136 35,025 155 413 1024
2019-10-16 14:07:24 GMT 54.332375 -3.222490 34,950 155 412 1088
2019-10-16 14:07:21 GMT 54.338470 -3.227234 34,850 155 412 1216
2019-10-16 14:07:18 GMT 54.341080 -3.229253 34,925 155 412 1216
2019-10-16 14:07:15 GMT 54.347225 -3.234059 34,825 155 412 1216
2019-10-16 14:07:12 GMT 54.352478 -3.238059 34,750 155 412 1152
2019-10-16 14:07:09 GMT 54.359390 -3.243390 34,700 155 412 1216
2019-10-16 14:07:06 GMT 54.364929 -3.247672 34,600 155 411 1280
2019-10-16 14:07:03 GMT 54.368591 -3.250538 34,575 155 411 1280
2019-10-16 14:07:00 GMT 54.375759 -3.256031 34,450 155 411 1216
2019-10-16 14:06:56 GMT 54.379951 -3.259277 34,400 155 411 960
2019-10-16 14:06:53 GMT 54.385769 -3.263772 34,350 155 411 1152
2019-10-16 14:06:50 GMT 54.390285 -3.267267 34,300 155 411 1152
2019-10-16 14:06:47 GMT 54.394661 -3.270680 34,275 155 410 1216
2019-10-16 14:06:44 GMT 54.401596 -3.276007 34,200 155 410 1216
2019-10-16 14:06:41 GMT 54.405899 -3.279338 34,150 155 410 1152
2019-10-16 14:06:38 GMT 54.413002 -3.284829 34,075 155 410 1152
2019-10-16 14:06:34 GMT 54.418304 -3.288951 33,925 155 409 1088
2019-10-16 14:06:31 GMT 54.423149 -3.292736 33,950 155 409 1088
2019-10-16 14:06:28 GMT 54.429157 -3.297397 33,900 155 409 1024
2019-10-16 14:06:25 GMT 54.434555 -3.301641 33,850 155 409 1024
2019-10-16 14:06:22 GMT 54.438995 -3.305027 33,800 155 408 896
2019-10-16 14:06:19 GMT 54.445862 -3.310439 33,750 155 408 832
2019-10-16 14:06:16 GMT 54.455383 -3.317790 33,675 155 407 1024
2019-10-16 14:06:13 GMT 54.455383 -3.317790 33,550 155 406 1088
2019-10-16 14:06:10 GMT 54.459869 -3.321345 33,575 155 406 1088
2019-10-16 14:06:07 GMT 54.464584 -3.324980 33,575 155 406 1152
2019-10-16 14:06:04 GMT 54.470810 -3.329827 33,500 155 406 1152
2019-10-16 14:06:00 GMT 54.476730 -3.334517 33,475 155 406 1152
2019-10-16 14:05:57 GMT 54.480835 -3.337663 33,375 155 405 1280
2019-10-16 14:05:54 GMT 54.486053 -3.341702 33,150 155 405 1280
2019-10-16 14:05:51 GMT 54.491257 -3.345836 33,250 155 405 1280
2019-10-16 14:05:48 GMT 54.496674 -3.350022 32,925 155 404 1280
2019-10-16 14:05:45 GMT 54.503494 -3.355354 33,125 155 404 1280
2019-10-16 14:05:41 GMT 54.509811 -3.360282 32,925 155 404 1280
2019-10-16 14:05:38 GMT 54.518784 -3.367390 32,925 155 404 1344
2019-10-16 14:05:35 GMT 54.518784 -3.367390 32,825 155 403 1472
2019-10-16 14:05:32 GMT 54.524357 -3.371721 32,825 155 403 1664
2019-10-16 14:05:29 GMT 54.529907 -3.376115 32,700 155 403 1472
2019-10-16 14:05:26 GMT 54.534851 -3.379992 32,675 155 403 1472
2019-10-16 14:05:23 GMT 54.541348 -3.385121 32,550 155 403 1536
2019-10-16 14:05:20 GMT 54.543961 -3.387101 32,550 155 403 1600
2019-10-16 14:05:17 GMT 54.551029 -3.392695 32,300 155 404 1792
2019-10-16 14:05:14 GMT 54.560532 -3.400107 32,275 155 404 1856
2019-10-16 14:05:11 GMT 54.560532 -3.400107 32,225 155 404 1920
2019-10-16 14:05:08 GMT 54.565739 -3.404180 32,150 155 405 1920
2019-10-16 14:05:05 GMT 54.571373 -3.408592 31,650 143 414 896
2019-10-16 14:05:02 GMT 54.574863 -3.411338 31,900 154 406 1984
2019-10-16 14:04:59 GMT 54.581223 -3.416506 31,875 152 408 1984
2019-10-16 14:04:56 GMT 54.585342 -3.420141 31,550 150 410 1920
2019-10-16 14:04:53 GMT 54.589371 -3.423776 31,650 151 409 1920
2019-10-16 14:04:50 GMT 54.595348 -3.429399 31,625 150 410 1920
2019-10-16 14:04:47 GMT 54.600311 -3.434358 31,400 148 413 1984
2019-10-16 14:04:44 GMT 54.604378 -3.438554 31,225 147 413 1792
2019-10-16 14:04:38 GMT 54.614479 -3.449873 31,150 143 417 1088
2019-10-16 14:04:35 GMT 54.618717 -3.454951 31,125 143 415 960
2019-10-16 14:04:32 GMT 54.623745 -3.461276 31,075 143 417 896
2019-10-16 14:04:29 GMT 54.631348 -3.470872 31,025 143 417 448
2019-10-16 14:04:26 GMT 54.633865 -3.474022 31,000 143 416 256
2019-10-16 14:04:23 GMT 54.638260 -3.479596 30,975 143 416 384
2019-10-16 14:04:17 GMT 54.647346 -3.491072 30,925 143 415 960
2019-10-16 14:04:14 GMT 54.652679 -3.497853 30,875 143 415 960
2019-10-16 14:04:11 GMT 54.657623 -3.504073 30,825 143 414 960
2019-10-16 14:04:07 GMT 54.662430 -3.510213 30,800 143 414 960
2019-10-16 14:04:04 GMT 54.668976 -3.518533 30,725 143 414 896
2019-10-16 14:04:01 GMT 54.672810 -3.523365 30,675 143 414 896
2019-10-16 14:03:57 GMT 54.679420 -3.531772 30,600 143 414 896
2019-10-16 14:03:54 GMT 54.683331 -3.536765 30,575 143 414 896
2019-10-16 14:03:51 GMT 54.688934 -3.543818 30,500 143 414 896
2019-10-16 14:03:48 GMT 54.692177 -3.548001 30,450 143 417 1216
2019-10-16 14:03:45 GMT 54.696716 -3.553754 30,450 143 414 832
2019-10-16 14:03:42 GMT 54.700699 -3.558843 30,375 143 416 960
2019-10-16 14:03:39 GMT 54.710312 -3.571041 30,300 143 417 1216
2019-10-16 14:03:33 GMT 54.715714 -3.577908 30,050 143 417 2112
2019-10-16 14:03:30 GMT 54.720387 -3.583873 30,100 143 417 2176
2019-10-16 14:03:26 GMT 54.725739 -3.590698 29,950 143 418 2176
2019-10-16 14:03:23 GMT 54.731415 -3.597861 29,825 143 418 2176
2019-10-16 14:03:20 GMT 54.735516 -3.603099 29,700 143 419 2176
2019-10-16 14:03:17 GMT 54.740219 -3.609092 29,675 143 419 2176
2019-10-16 14:03:14 GMT 54.745422 -3.615714 29,475 143 420 2240
2019-10-16 14:03:11 GMT 54.748627 -3.619834 29,425 143 421 2112
2019-10-16 14:03:08 GMT 54.754120 -3.626862 29,200 143 422 1792
2019-10-16 14:03:05 GMT 54.758743 -3.632678 29,150 143 421 1664
2019-10-16 14:03:02 GMT 54.763401 -3.638639 29,150 143 421 1536
2019-10-16 14:02:59 GMT 54.769871 -3.646878 29,075 143 420 1600
2019-10-16 14:02:56 GMT 54.773781 -3.651872 28,875 143 420 1536
2019-10-16 14:02:50 GMT 54.783188 -3.663860 28,750 143 419 1600
2019-10-16 14:02:47 GMT 54.786537 -3.668185 28,575 143 417 1472
2019-10-16 14:02:44 GMT 54.791241 -3.674178 28,675 143 417 1472
2019-10-16 14:02:41 GMT 54.796188 -3.680501 28,275 143 415 1536
2019-10-16 14:02:38 GMT 54.801086 -3.686802 28,500 143 417 1408
2019-10-16 14:02:35 GMT 54.811352 -3.699896 28,325 143 416 1536
2019-10-16 14:02:31 GMT 54.811352 -3.699896 28,350 143 416 1536
2019-10-16 14:02:28 GMT 54.815231 -3.704897 28,275 143 415 1536
2019-10-16 14:02:25 GMT 54.821590 -3.713046 28,200 143 414 1408
2019-10-16 14:02:22 GMT 54.825130 -3.717540 28,125 143 414 1408
2019-10-16 14:02:19 GMT 54.830994 -3.725031 28,075 143 414 1408
2019-10-16 14:02:16 GMT 54.835602 -3.730909 27,950 143 412 1600
2019-10-16 14:02:13 GMT 54.840027 -3.736600 27,900 143 411 1600
2019-10-16 14:02:09 GMT 54.846405 -3.744722 27,775 143 411 1600
2019-10-16 14:02:06 GMT 54.849472 -3.748681 27,550 143 408 1664
2019-10-16 14:02:03 GMT 54.859955 -3.762090 27,550 143 409 1536
2019-10-16 14:01:56 GMT 54.865166 -3.768810 27,450 143 409 1600
2019-10-16 14:01:53 GMT 54.869888 -3.774854 27,375 143 408 1664
2019-10-16 14:01:50 GMT 54.879829 -3.787620 27,275 143 405 1600
2019-10-16 14:01:47 GMT 54.884342 -3.793363 27,100 143 406 1600
2019-10-16 14:01:43 GMT 54.884342 -3.793363 27,075 143 406 1600
2019-10-16 14:01:40 GMT 54.890533 -3.801353 26,900 143 405 1664
2019-10-16 14:01:34 GMT 54.899799 -3.813171 26,825 143 404 1728
2019-10-16 14:01:31 GMT 54.901848 -3.815835 26,725 143 403 1664
2019-10-16 14:01:27 GMT 54.908066 -3.823808 26,675 143 403 1728
2019-10-16 14:01:24 GMT 54.913254 -3.830483 26,575 143 401 1664
2019-10-16 14:01:21 GMT 54.919258 -3.838140 26,325 143 401 1792
2019-10-16 14:01:18 GMT 54.921432 -3.840933 26,425 143 401 1728
2019-10-16 14:01:14 GMT 54.932281 -3.854909 26,250 143 399 1792
2019-10-16 14:01:06 GMT 54.940392 -3.865440 26,075 143 399 1792
2019-10-16 14:01:03 GMT 54.945831 -3.872438 25,950 143 398 1792
2019-10-16 14:01:00 GMT 54.947933 -3.875178 25,900 143 398 1792
2019-10-16 14:00:57 GMT 54.954849 -3.883990 25,700 143 397 1792
2019-10-16 14:00:54 GMT 54.962364 -3.893738 25,625 143 394 1856
2019-10-16 14:00:51 GMT 54.966614 -3.899177 25,600 143 396 1728
2019-10-16 14:00:48 GMT 54.966614 -3.899177 25,225 143 393 1792
2019-10-16 14:00:45 GMT 54.970512 -3.904225 25,350 143 394 1856
2019-10-16 14:00:42 GMT 54.974991 -3.910002 25,275 143 393 1792
2019-10-16 14:00:38 GMT 54.981766 -3.918726 24,250 143 390 1920
2019-10-16 14:00:34 GMT 54.992161 -3.932190 24,875 143 391 1920
2019-10-16 14:00:28 GMT 54.995911 -3.936983 24,175 143 389 1920
2019-10-16 14:00:25 GMT 54.999207 -3.941345 24,875 143 391 1920
2019-10-16 14:00:22 GMT 55.005798 -3.949835 24,400 143 390 1920
2019-10-16 14:00:19 GMT 55.009197 -3.954246 24,525 143 389 1920
2019-10-16 14:00:16 GMT 55.012596 -3.958657 24,400 143 389 1920
2019-10-16 14:00:13 GMT 55.017204 -3.964650 24,125 143 386 1920
2019-10-16 14:00:10 GMT 55.022884 -3.971974 24,400 143 388 1920
2019-10-16 14:00:07 GMT 55.025940 -3.975920 23,700 143 381 2176
2019-10-16 14:00:04 GMT 55.030106 -3.981332 24,175 143 386 1920
2019-10-16 14:00:01 GMT 55.034912 -3.987552 24,050 143 386 1920
2019-10-16 13:59:58 GMT 55.039215 -3.993207 23,950 143 385 1984
2019-10-16 13:59:55 GMT 55.043060 -3.998135 23,900 143 385 1984
2019-10-16 13:59:51 GMT 55.048721 -4.005432 23,800 143 383 1984
2019-10-16 13:59:48 GMT 55.059128 -4.018896 23,600 143 381 2176
2019-10-16 13:59:44 GMT 55.059128 -4.018896 23,500 143 381 2112
2019-10-16 13:59:41 GMT 55.064621 -4.025924 23,350 143 381 2176
2019-10-16 13:59:38 GMT 55.067413 -4.029559 23,275 143 380 2176
2019-10-16 13:59:35 GMT 55.070847 -4.034164 22,700 141 381 2176
2019-10-16 13:59:32 GMT 55.075439 -4.040555 23,100 140 381 2176
2019-10-16 13:59:29 GMT 55.079590 -4.046523 21,850 137 381 2304
2019-10-16 13:59:26 GMT 55.084377 -4.053789 22,775 136 381 2304
2019-10-16 13:59:23 GMT 55.087685 -4.059115 22,150 131 383 2432
2019-10-16 13:59:20 GMT 55.090759 -4.064214 22,625 135 381 2304
2019-10-16 13:59:17 GMT 55.094467 -4.070677 22,525 134 382 2304
2019-10-16 13:59:14 GMT 55.098717 -4.078425 22,375 132 383 2304
2019-10-16 13:59:11 GMT 55.103371 -4.087413 22,225 131 383 2432
2019-10-16 13:59:08 GMT 55.109192 -4.099066 22,075 131 383 2368
2019-10-16 13:59:05 GMT 55.109192 -4.099066 22,000 131 383 2304
2019-10-16 13:59:02 GMT 55.113846 -4.108304 21,750 131 381 2432
2019-10-16 13:58:59 GMT 55.117264 -4.115107 21,750 131 381 2432
2019-10-16 13:58:56 GMT 55.119991 -4.120456 21,700 131 381 2432
2019-10-16 13:58:53 GMT 55.123436 -4.127364 21,475 131 380 2368
2019-10-16 13:58:49 GMT 55.128742 -4.137851 21,375 131 379 2432
2019-10-16 13:58:46 GMT 55.131271 -4.142896 21,225 131 379 2432
2019-10-16 13:58:43 GMT 55.134979 -4.150247 21,050 131 379 2496
2019-10-16 13:58:40 GMT 55.138596 -4.157517 21,025 131 378 2496
2019-10-16 13:58:37 GMT 55.141846 -4.163980 20,950 131 378 2496
2019-10-16 13:58:34 GMT 55.144775 -4.169796 20,675 131 377 2432
2019-10-16 13:58:31 GMT 55.148712 -4.177632 20,650 131 377 2496
2019-10-16 13:58:27 GMT 55.154068 -4.188371 20,450 131 377 2432
2019-10-16 13:58:24 GMT 55.156349 -4.192949 20,400 130 374 2432
2019-10-16 13:58:21 GMT 55.160431 -4.201140 20,250 131 375 2368
2019-10-16 13:58:18 GMT 55.164078 -4.208430 20,100 131 374 2432
2019-10-16 13:58:15 GMT 55.166496 -4.213257 19,975 131 374 2432
2019-10-16 13:58:12 GMT 55.171387 -4.223078 19,850 130 373 2368
2019-10-16 13:58:09 GMT 55.174549 -4.229487 19,700 130 372 2432
2019-10-16 13:58:06 GMT 55.177277 -4.234987 19,700 130 372 2432
2019-10-16 13:58:03 GMT 55.180664 -4.241854 19,550 130 372 2560
2019-10-16 13:58:00 GMT 55.184052 -4.248558 19,450 131 371 2624
2019-10-16 13:57:57 GMT 55.187576 -4.255667 19,250 130 370 2560
2019-10-16 13:57:53 GMT 55.191650 -4.263826 19,125 131 369 2432
2019-10-16 13:57:50 GMT 55.194534 -4.269643 18,875 131 369 2432
2019-10-16 13:57:46 GMT 55.202995 -4.286665 18,525 131 366 2496
2019-10-16 13:57:43 GMT 55.205795 -4.292181 18,625 131 367 2432
2019-10-16 13:57:40 GMT 55.205795 -4.292181 18,525 131 366 2496
2019-10-16 13:57:37 GMT 55.212479 -4.305590 18,400 131 363 2368
2019-10-16 13:57:34 GMT 55.212479 -4.305590 18,275 131 362 2432
2019-10-16 13:57:31 GMT 55.216187 -4.313022 18,200 131 362 2432
2019-10-16 13:57:28 GMT 55.220589 -4.321872 17,775 131 360 2560
2019-10-16 13:57:24 GMT 55.224152 -4.328936 17,875 131 360 2560
2019-10-16 13:57:21 GMT 55.226807 -4.334349 17,800 131 360 2560
2019-10-16 13:57:18 GMT 55.230606 -4.341862 17,225 131 358 2432
2019-10-16 13:57:15 GMT 55.234882 -4.350503 17,450 131 356 2368
2019-10-16 13:57:12 GMT 55.237255 -4.355247 17,450 130 355 2432
2019-10-16 13:57:08 GMT 55.241585 -4.363986 17,175 130 353 2688
2019-10-16 13:57:05 GMT 55.244064 -4.369004 17,075 131 351 2688
2019-10-16 13:57:02 GMT 55.247406 -4.375709 16,900 130 350 2688
2019-10-16 13:56:59 GMT 55.251022 -4.382979 16,850 130 350 2688
2019-10-16 13:56:55 GMT 55.259602 -4.400441 16,625 130 350 2752
2019-10-16 13:56:52 GMT 55.259602 -4.400441 16,475 130 348 2752
2019-10-16 13:56:48 GMT 55.262558 -4.406406 16,350 130 348 2816
2019-10-16 13:56:45 GMT 55.265579 -4.412384 16,275 130 348 2880
2019-10-16 13:56:40 GMT 55.270493 -4.422330 15,950 131 347 3200
2019-10-16 13:56:37 GMT 55.274048 -4.429591 13,700 130 346 3328
2019-10-16 13:56:34 GMT 55.277527 -4.436619 15,425 130 346 3328
2019-10-16 13:56:31 GMT 55.280411 -4.442435 15,100 130 346 3328
2019-10-16 13:56:28 GMT 55.283890 -4.449382 15,225 131 345 3392
2019-10-16 13:56:25 GMT 55.286507 -4.454706 15,100 131 345 3392
2019-10-16 13:56:22 GMT 55.289795 -4.461338 14,925 131 345 3456
2019-10-16 13:56:19 GMT 55.292980 -4.467773 14,525 131 345 3648
2019-10-16 13:56:16 GMT 55.296844 -4.475431 13,650 131 348 3584
2019-10-16 13:56:13 GMT 55.299500 -4.480806 14,325 131 346 3968
2019-10-16 13:56:10 GMT 55.303436 -4.488723 14,075 131 347 3776
2019-10-16 13:56:07 GMT 55.310345 -4.502647 13,650 131 348 3584
2019-10-16 13:56:03 GMT 55.310345 -4.502647 13,675 131 348 3520
2019-10-16 13:56:00 GMT 55.312576 -4.507141 13,575 131 348 3520
2019-10-16 13:55:57 GMT 55.316986 -4.516027 13,325 130 349 3648
2019-10-16 13:55:51 GMT 55.323578 -4.529275 12,925 130 349 3712
2019-10-16 13:55:47 GMT 55.326874 -4.535980 12,725 130 350 3648
2019-10-16 13:55:44 GMT 55.329300 -4.540989 12,600 130 350 3584
2019-10-16 13:55:41 GMT 55.333420 -4.549228 12,475 130 350 3584
2019-10-16 13:55:38 GMT 55.336258 -4.555126 12,150 130 350 3456
2019-10-16 13:55:35 GMT 55.339394 -4.561407 11,750 130 349 3072
2019-10-16 13:55:32 GMT 55.345348 -4.573642 11,800 130 348 3008
2019-10-16 13:55:25 GMT 55.350128 -4.583318 11,525 130 346 3200
2019-10-16 13:55:22 GMT 55.353104 -4.589458 11,325 130 346 3200
2019-10-16 13:55:18 GMT 55.356583 -4.596567 11,150 130 345 2560
2019-10-16 13:55:15 GMT 55.360249 -4.604021 11,050 130 343 2048
2019-10-16 13:55:12 GMT 55.363461 -4.610596 11,000 130 337 1024
2019-10-16 13:55:09 GMT 55.366516 -4.616843 10,950 130 332 1152
2019-10-16 13:55:04 GMT 55.371422 -4.626992 10,875 130 328 1088
2019-10-16 13:55:01 GMT 55.373886 -4.632030 10,825 130 321 832
2019-10-16 13:54:58 GMT 55.377228 -4.638977 10,775 130 317 832
2019-10-16 13:54:55 GMT 55.380962 -4.646717 10,700 130 304 2048
2019-10-16 13:54:52 GMT 55.383289 -4.651545 10,625 130 302 2240
2019-10-16 13:54:49 GMT 55.386086 -4.657371 10,525 130 297 3584
2019-10-16 13:54:44 GMT 55.390133 -4.665694 10,225 130 297 3520
2019-10-16 13:54:41 GMT 55.393208 -4.672102 9,975 130 297 3584
2019-10-16 13:54:38 GMT 55.395393 -4.676597 9,950 130 296 3520
2019-10-16 13:54:34 GMT 55.398972 -4.683892 9,750 130 296 3456
2019-10-16 13:54:31 GMT 55.401772 -4.689997 9,525 128 296 3456
2019-10-16 13:54:27 GMT 55.404518 -4.696239 8,950 125 295 3072
2019-10-16 13:54:24 GMT 55.407497 -4.703314 9,050 125 295 3072
2019-10-16 13:54:21 GMT 55.412525 -4.715299 8,975 126 293 3072
2019-10-16 13:54:17 GMT 55.412525 -4.715299 8,825 128 292 3072
2019-10-16 13:54:14 GMT 55.415680 -4.721698 8,450 137 286 2880
2019-10-16 13:54:11 GMT 55.418575 -4.726535 8,450 137 286 2880
2019-10-16 13:54:07 GMT 55.422348 -4.731945 8,325 145 280 2688
2019-10-16 13:54:03 GMT 55.429733 -4.739631 7,950 154 273 2560
2019-10-16 13:53:57 GMT 55.434402 -4.742943 7,875 162 265 1600
2019-10-16 13:53:53 GMT 55.438641 -4.745012 7,775 168 256 1664
2019-10-16 13:53:50 GMT 55.441666 -4.746094 7,725 172 252 1728
2019-10-16 13:53:45 GMT 55.447392 -4.747038 7,550 179 243 2112
2019-10-16 13:53:40 GMT 55.452980 -4.746780 7,400 185 236 2688
2019-10-16 13:53:35 GMT 55.457821 -4.745836 7,075 188 232 4096
2019-10-16 13:53:31 GMT 55.463242 -4.744512 6,725 188 234 4224
2019-10-16 13:53:24 GMT 55.470299 -4.742832 6,325 188 236 3456
2019-10-16 13:53:21 GMT 55.474548 -4.741849 6,100 188 236 3136
2019-10-16 13:53:15 GMT 55.480118 -4.740429 5,850 188 238 2752
2019-10-16 13:53:10 GMT 55.486130 -4.739019 5,625 188 239 2112
2019-10-16 13:53:05 GMT 55.491074 -4.737771 5,475 188 240 1664
2019-10-16 13:53:00 GMT 55.497162 -4.736356 5,375 188 239 768
2019-10-16 13:52:55 GMT 55.502136 -4.735193 5,325 189 236 832
2019-10-16 13:52:50 GMT 55.507538 -4.733820 5,250 190 234 768
2019-10-16 13:52:44 GMT 55.513729 -4.731588 5,175 198 227 1024
2019-10-16 13:52:39 GMT 55.518402 -4.728283 5,125 204 221 1600
2019-10-16 13:52:34 GMT 55.522522 -4.723705 4,850 219 210 3072
2019-10-16 13:52:29 GMT 55.526276 -4.717712 4,550 229 205 3712
2019-10-16 13:52:22 GMT 55.529572 -4.709140 4,250 249 203 3776
2019-10-16 13:52:19 GMT 55.530991 -4.702481 3,875 255 203 3776
2019-10-16 13:52:12 GMT 55.531605 -4.691763 3,500 271 203 3520
2019-10-16 13:52:08 GMT 55.531219 -4.685003 3,400 276 203 3648
2019-10-16 13:51:59 GMT 55.530071 -4.670563 2,800 277 199 2176
2019-10-16 13:51:53 GMT 55.529465 -4.661036 2,575 279 191 2432
2019-10-16 13:51:48 GMT 55.528721 -4.654255 2,475 283 190 2176
2019-10-16 13:51:42 GMT 55.526718 -4.645414 2,300 299 178 1088
2019-10-16 13:51:38 GMT 55.525040 -4.640225 2,250 300 174 1216
2019-10-16 13:51:32 GMT 55.522762 -4.633398 2,000 301 161 2432
2019-10-16 13:51:28 GMT 55.521240 -4.628823 1,825 301 158 2752
2019-10-16 13:51:22 GMT 55.519035 -4.622154 1,525 301 154 3200
2019-10-16 13:51:18 GMT 55.517212 -4.616838 1,250 302 155 3328
2019-10-16 13:51:07 GMT 55.513355 -4.605932 825 303 155 3136
2019-10-16 13:46:36 GMT 55.512032 -4.609108 0 53 10
2019-10-16 13:46:31 GMT 55.511902 -4.609389 0 53 10
2019-10-16 13:46:21 GMT 55.511646 -4.610009 0 53 9
2019-10-16 13:43:31 GMT 55.511414 -4.610546 0 56 3
2019-10-16 13:43:26 GMT 55.511448 -4.610460 0 56 3

Making use of Plane Finder data

You are free to use the raw flight data, aircraft information and images provided in this report for your own purposes provided the data is correctly attributed to Plane Finder. We ask that you please credit Plane Finder and link to planefinder.net in close proximity to the content.

Optionally one of the following logos (no smaller then 150x24px) can be used and must link to planefinder.net

Embedding the Plane Finder map

You are welcome to embed the Plane Finder playback map on your website to offer visitors a more interactive experience. We suggest using the following HTML code:

<iframe src="//planefinder.net/data/report/FR694-EI-GSI-7700-squawk-2019-10-16/map" width="800" height="600" seamless="seamless"></iframe>

Where our data comes from

Plane Finder has a global network of data feeds and antenna radars that receive data broadcast directly from aircraft. The primary technologies used are ADS-B and MLAT. We also show feeds from the FAA and a FLARM glider feed.

Click here to find out more about the Plane Finder network.

How we collect our data